Darstellungsparameter: Aktuell verwendete Einstellungen:
Skalierung der Graphiken ... ?
xyx+y,   Skalierungsfaktor:      Skalierung: Modus: x, Faktor: 1
Darstellungszeitraum ... ?
Vom - - bis: - -   Zeitraum: 15.02.2011 - 14.08.2011
Min/Max/Avg-Anzeige ... ?
Zeige MMA aktuell
Zeige MMA Monat
Zeige MMA alles
Zeige --A aktuell
Zeige --A Monat
Zeige --A alles
Keine MMA-Anzeige
MMA:
Keine MMA-Graphiken
MMA-Basis: 15.02.2011 - 14.08.2011
Quicknavigation für Darstellung... ?
Tage:      1T, 2T, 3T, 5T -1T -2T -3T -5T +1T +2T +3T +5T
Wochen: 1W, 2W, 3W -1W -2W -3W +1W +2W +3W
Monate: 1M, 3M, 6M -1M -3M -6M +1M +3M +6M
Jahre:    1J, 3J, 5J, 10J -1J -3J -5J -10J +1J +3J +5J +10J
Nutze für die Darstellung ... ?
Originaldaten oder Mittelwerte auf ...
Stundenbasis Tagesbasis Wochenbasis
Monatsbasis Jahresbasis      Datenbasis: Original-Daten
Darstellen als:
Statistik (Auto) Statistik J:M      Darstellung:
Zur Graphik,    zurück zur Übersicht aller Sensoren.
 
Tabellarische Datenbersicht: ?
 
</
Sensor: Nr:Datum:Temp:Feuchte:Taupunkt:
Aussen-T/F 1 15-02-2011 00:11:02 5.9 C 87 % 3.91 C
2 15-02-2011 00:23:02 5.9 C 87 % 3.91 C
3 15-02-2011 00:35:02 5.9 C 87 % 3.91 C
4 15-02-2011 00:47:02 6 C 87 % 4 C
5 15-02-2011 00:59:02 5.9 C 88 % 4.07 C
6 15-02-2011 01:11:02 5.9 C 88 % 4.07 C
7 15-02-2011 01:23:02 5.9 C 89 % 4.23 C
8 15-02-2011 01:35:02 5.9 C 89 % 4.23 C
9 15-02-2011 01:47:02 5.8 C 89 % 4.13 C
10 15-02-2011 01:59:02 5.9 C 89 % 4.23 C
11 15-02-2011 02:11:02 5.9 C 90 % 4.39 C
12 15-02-2011 02:23:02 5.7 C 90 % 4.19 C
13 15-02-2011 02:35:02 5.6 C 90 % 4.09 C
14 15-02-2011 02:47:02 5.4 C 90 % 3.89 C
15 15-02-2011 02:59:02 5.2 C 90 % 3.7 C
16 15-02-2011 03:11:02 4.9 C 90 % 3.4 C
17 15-02-2011 03:23:02 4.8 C 90 % 3.3 C
18 15-02-2011 03:35:03 4.6 C 90 % 3.1 C
19 15-02-2011 03:47:03 4.4 C 90 % 2.91 C
20 15-02-2011 03:59:03 4.4 C 90 % 2.91 C
21 15-02-2011 04:11:03 4.5 C 90 % 3.01 C
22 15-02-2011 04:23:03 4.5 C 90 % 3.01 C
23 15-02-2011 04:35:03 4.5 C 90 % 3.01 C
24 15-02-2011 04:47:03 4.6 C 91 % 3.26 C
25 15-02-2011 04:59:03 4.4 C 90 % 2.91 C
Sensor: Nr:Datum:Temp:Feuchte:Taupunkt:
Aussen-T/F 26 15-02-2011 05:11:03 4.3 C 90 % 2.81 C
27 15-02-2011 05:23:03 4.3 C 90 % 2.81 C
28 15-02-2011 05:35:03 4.2 C 90 % 2.71 C
29 15-02-2011 05:47:03 4.3 C 91 % 2.96 C
30 15-02-2011 05:59:03 4.3 C 91 % 2.96 C
31 15-02-2011 06:11:03 4.2 C 91 % 2.87 C
32 15-02-2011 06:23:03 4.2 C 91 % 2.87 C
33 15-02-2011 06:35:03 4.3 C 91 % 2.96 C
34 15-02-2011 06:47:03 4.3 C 91 % 2.96 C
35 15-02-2011 06:59:03 4.2 C 91 % 2.87 C
36 15-02-2011 07:11:03 4 C 91 % 2.67 C
37 15-02-2011 07:23:03 3.9 C 92 % 2.72 C
38 15-02-2011 07:35:01 3.6 C 91 % 2.27 C
39 15-02-2011 07:47:01 3.6 C 91 % 2.27 C
40 15-02-2011 07:59:01 3.6 C 91 % 2.27 C
41 15-02-2011 08:11:02 3.7 C 91 % 2.37 C
42 15-02-2011 08:23:02 3.7 C 91 % 2.37 C
43 15-02-2011 08:35:01 3.8 C 92 % 2.62 C
44 15-02-2011 08:47:02 3.9 C 92 % 2.72 C
45 15-02-2011 08:59:02 4.1 C 91 % 2.77 C
46 15-02-2011 09:11:01 4.2 C 91 % 2.87 C
47 15-02-2011 09:23:02 4.6 C 91 % 3.26 C
48 15-02-2011 09:35:01 4.7 C 90 % 3.2 C
49 15-02-2011 09:47:02 4.6 C 90 % 3.1 C
50 15-02-2011 09:59:02 4.9 C 89 % 3.24 C
Sensor: Nr:Datum:Temp:Feuchte:Taupunkt:
Aussen-T/F 51 15-02-2011 10:11:02 5.4 C 88 % 3.58 C
52 15-02-2011 10:23:02 5.6 C 87 % 3.61 C
53 15-02-2011 10:35:02 5.8 C 86 % 3.64 C
54 15-02-2011 10:47:01 5.6 C 83 % 2.95 C
55 15-02-2011 10:59:01 5.9 C 82 % 3.07 C
56 15-02-2011 11:11:01 6.4 C 79 % 3.03 C
57 15-02-2011 11:23:02 7.1 C 75 % 2.98 C
58 15-02-2011 11:35:01 6.8 C 74 % 2.5 C
59 15-02-2011 11:47:02 7.1 C 72 % 2.4 C
60 15-02-2011 11:59:03 7.5 C 71 % 2.59 C
61 15-02-2011 12:11:01 8 C 67 % 2.26 C
62 15-02-2011 12:23:01 7.8 C 68 % 2.27 C
63 15-02-2011 12:35:01 7.6 C 68 % 2.08 C
64 15-02-2011 12:47:02 7.4 C 69 % 2.1 C
65 15-02-2011 12:59:02 7.4 C 68 % 1.89 C
66 15-02-2011 13:11:01 7.3 C 67 % 1.59 C
67 15-02-2011 13:23:02 7.8 C 68 % 2.27 C
68 15-02-2011 13:35:01 7.8 C 68 % 2.27 C
69 15-02-2011 13:47:02 6.9 C 68 % 1.41 C
70 15-02-2011 13:59:02 7.1 C 69 % 1.81 C
71 15-02-2011 14:11:01 7.1 C 70 % 2.01 C
72 15-02-2011 14:23:02 6.5 C 72 % 1.83 C
73 15-02-2011 14:35:02 6.7 C 71 % 1.82 C
74 15-02-2011 14:47:02 7 C 70 % 1.91 C
75 15-02-2011 14:59:02 6.3 C 71 % 1.44 C
Sensor: Nr:Datum:Temp:Feuchte:Taupunkt:
Aussen-T/F 76 15-02-2011 15:11:02 6.7 C 72 % 2.02 C
77 15-02-2011 15:23:02 6.8 C 71 % 1.92 C
78 15-02-2011 15:35:03 6.3 C 72 % 1.63 C
79 15-02-2011 15:47:02 6.1 C 73 % 1.63 C
80 15-02-2011 15:59:02 5.7 C 74 % 1.44 C
81 15-02-2011 16:11:02 5.7 C 75 % 1.62 C
82 15-02-2011 16:23:02 5.5 C 76 % 1.62 C
83 15-02-2011 16:35:02 5.5 C 78 % 1.98 C
84 15-02-2011 16:47:01 5.3 C 78 % 1.78 C
85 15-02-2011 16:59:01 5.4 C 78 % 1.88 C
86 15-02-2011 17:11:02 5.2 C 77 % 1.51 C
87 15-02-2011 17:23:01 5.1 C 78 % 1.59 C
88 15-02-2011 17:35:02 5 C 77 % 1.31 C
89 15-02-2011 17:47:01 4.8 C 79 % 1.47 C
90 15-02-2011 17:59:01 4.8 C 79 % 1.47 C
91 15-02-2011 18:11:02 4.5 C 79 % 1.18 C
92 15-02-2011 18:23:02 4.5 C 80 % 1.36 C
93 15-02-2011 18:35:02 4.5 C 80 % 1.36 C
94 15-02-2011 18:47:02 4.8 C 79 % 1.47 C
95 15-02-2011 18:59:02 4.8 C 79 % 1.47 C
96 15-02-2011 19:11:02 4.7 C 79 % 1.38 C
97 15-02-2011 19:23:02 4.4 C 79 % 1.09 C
98 15-02-2011 19:35:02 4.1 C 81 % 1.14 C
99 15-02-2011 19:47:02 4 C 81 % 1.04 C
100 15-02-2011 19:59:02 3.7 C 83 % 1.09 C
Sensor: Nr:Datum:Temp:Feuchte:Taupunkt:
Aussen-T/F 101 15-02-2011 20:11:01 3.2 C 84 % 0.76 C
102 15-02-2011 20:23:02 3.4 C 85 % 1.12 C
103 15-02-2011 20:35:01 3 C 86 % 0.89 C
104 15-02-2011 20:47:02 3.5 C 87 % 1.55 C
105 15-02-2011 20:59:02 4 C 87 % 2.04 C
106 15-02-2011 21:11:01 3.9 C 87 % 1.94 C
107 15-02-2011 21:23:01 4.1 C 86 % 1.97 C
108 15-02-2011 21:35:02 4.1 C 86 % 1.97 C
109 15-02-2011 21:47:02 4.3 C 86 % 2.17 C
110 15-02-2011 21:59:02 4.8 C 86 % 2.66 C
111 15-02-2011 22:12:03 4.8 C 85 % 2.5 C
112 15-02-2011 22:24:03 4.6 C 84 % 2.14 C
113 15-02-2011 22:36:03 4.1 C 84 % 1.65 C
114 15-02-2011 22:48:03 3.5 C 85 % 1.22 C
115 15-02-2011 23:00:03 4.1 C 86 % 1.97 C
116 15-02-2011 23:12:03 4.2 C 87 % 2.23 C
117 15-02-2011 23:24:03 4.3 C 87 % 2.33 C
118 15-02-2011 23:36:03 4.6 C 87 % 2.63 C
119 15-02-2011 23:48:03 4.6 C 87 % 2.63 C
120 16-02-2011 00:00:03 4.5 C 87 % 2.53 C
121 16-02-2011 00:12:03 4.8 C 87 % 2.82 C
122 16-02-2011 00:24:03 5.2 C 84 % 2.72 C
123 16-02-2011 00:36:03 5.2 C 84 % 2.72 C
124 16-02-2011 00:48:03 4.2 C 83 % 1.58 C
125 16-02-2011 01:00:03 3.5 C 84 % 1.06 C
Sensor: Nr:Datum:Temp:Feuchte:Taupunkt:
Aussen-T/F 126 16-02-2011 01:12:03 2.9 C 86 % 0.8 C
127 16-02-2011 01:24:03 3.4 C 87 % 1.45 C
128 16-02-2011 01:36:03 3.7 C 88 % 1.9 C
129 16-02-2011 01:48:03 4.1 C 88 % 2.3 C
130 16-02-2011 02:00:03 4.3 C 89 % 2.65 C
131 16-02-2011 02:12:04 4.5 C 89 % 2.85 C
132 16-02-2011 02:24:04 4.4 C 89 % 2.75 C
133 16-02-2011 02:36:04 3.8 C 89 % 2.16 C
134 16-02-2011 02:48:04 4.1 C 89 % 2.45 C
135 16-02-2011 03:00:04 4.5 C 89 % 2.85 C
136 16-02-2011 03:12:04 4.3 C 89 % 2.65 C
137 16-02-2011 03:24:04 4.2 C 89 % 2.55 C
138 16-02-2011 03:36:04 4.4 C 89 % 2.75 C
139 16-02-2011 03:48:04 4.7 C 89 % 3.05 C
140 16-02-2011 04:00:04 4.5 C 88 % 2.69 C
141 16-02-2011 04:12:04 4.1 C 88 % 2.3 C
142 16-02-2011 04:24:04 4 C 88 % 2.2 C
143 16-02-2011 04:36:04 3.2 C 88 % 1.41 C
144 16-02-2011 04:48:04 3.1 C 88 % 1.31 C
145 16-02-2011 05:00:04 2.7 C 89 % 1.07 C
146 16-02-2011 05:12:04 2.2 C 89 % 0.58 C
147 16-02-2011 05:24:04 2.4 C 89 % 0.78 C
148 16-02-2011 05:36:04 2.3 C 89 % 0.68 C
149 16-02-2011 05:48:04 3.3 C 90 % 1.82 C
150 16-02-2011 06:00:04 3.2 C 90 % 1.72 C
Sensor: Nr:Datum:Temp:Feuchte:Taupunkt:
Aussen-T/F 151 16-02-2011 06:12:04 3.6 C 90 % 2.12 C
152 16-02-2011 06:24:05 3.8 C 90 % 2.31 C
153 16-02-2011 06:36:05 3.9 C 90 % 2.41 C
154 16-02-2011 06:48:05 4.2 C 89 % 2.55 C
155 16-02-2011 07:00:05 4.5 C 88 % 2.69 C
156 16-02-2011 07:12:05 4.3 C 87 % 2.33 C
157 16-02-2011 07:24:05 3.8 C 87 % 1.84 C
158 16-02-2011 07:36:05 4.1 C 86 % 1.97 C
159 16-02-2011 07:48:02 3.8 C 86 % 1.68 C
160 16-02-2011 08:00:02 3.8 C 86 % 1.68 C
161 16-02-2011 08:12:02 4.1 C 85 % 1.81 C
162 16-02-2011 08:24:03 4.2 C 85 % 1.91 C
163 16-02-2011 08:36:02 4.4 C 85 % 2.11 C
164 16-02-2011 08:48:03 4.5 C 85 % 2.2 C
165 16-02-2011 09:00:03 4.7 C 85 % 2.4 C
166 16-02-2011 09:12:02 5.1 C 82 % 2.29 C
167 16-02-2011 09:24:02 5.7 C 82 % 2.87 C
168 16-02-2011 09:36:02 5.9 C 80 % 2.72 C
169 16-02-2011 09:48:02 5.8 C 78 % 2.27 C
170 16-02-2011 10:00:02 6.6 C 75 % 2.49 C
171 16-02-2011 10:12:02 6.5 C 71 % 1.63 C
172 16-02-2011 10:24:02 6.7 C 70 % 1.63 C
173 16-02-2011 10:36:02 7.5 C 68 % 1.99 C
174 16-02-2011 10:48:02 7.6 C 67 % 1.88 C
175 16-02-2011 11:00:02 7.4 C 68 % 1.89 C
Sensor: Nr:Datum:Temp:Feuchte:Taupunkt:
Aussen-T/F 176 16-02-2011 11:12:03 7.4 C 66 % 1.48 C
177 16-02-2011 11:24:02 7.4 C 68 % 1.89 C
178 16-02-2011 11:36:02 7.9 C 66 % 1.95 C
179 16-02-2011 11:48:01 8.2 C 64 % 1.81 C
180 16-02-2011 12:00:01 8.3 C 63 % 1.68 C
181 16-02-2011 12:12:02 7.8 C 63 % 1.21 C
182 16-02-2011 12:24:01 7.9 C 66 % 1.95 C
183 16-02-2011 12:36:01 7.9 C 66 % 1.95 C
184 16-02-2011 12:48:01 7.7 C 66 % 1.76 C
185 16-02-2011 13:00:01 8.4 C 62 % 1.55 C
186 16-02-2011 13:12:02 9.5 C 59 % 1.9 C
187 16-02-2011 13:24:02 9.5 C 58 % 1.66 C
188 16-02-2011 13:36:01 9.3 C 59 % 1.71 C
189 16-02-2011 13:48:02 8.6 C 61 % 1.52 C
190 16-02-2011 14:00:02 8.4 C 62 % 1.55 C
191 16-02-2011 14:12:01 8.6 C 62 % 1.74 C
192 16-02-2011 14:24:02 9.6 C 59 % 1.99 C
193 16-02-2011 14:36:01 9.6 C 57 % 1.51 C
194 16-02-2011 14:48:02 9 C 59 % 1.43 C
195 16-02-2011 15:00:02 8.8 C 61 % 1.71 C
196 16-02-2011 15:12:02 8.7 C 61 % 1.61 C
197 16-02-2011 15:24:02 8.8 C 61 % 1.71 C
198 16-02-2011 15:36:02 9.5 C 61 % 2.37 C
199 16-02-2011 15:48:02 9.3 C 60 % 1.95 C
200 16-02-2011 16:00:02 10.6 C 56 % 2.2 C
Sensor: Nr:Datum:Temp:Feuchte:Taupunkt:
Aussen-T/F 201 16-02-2011 16:12:02 10.6 C 55 % 1.95 C
202 16-02-2011 16:24:01 10.7 C 53 % 1.52 C
203 16-02-2011 16:36:02 9.8 C 57 % 1.7 C
204 16-02-2011 16:48:02 8.8 C 62 % 1.93 C
205 16-02-2011 17:00:02 7.9 C 67 % 2.16 C
206 16-02-2011 17:12:02 7.5 C 69 % 2.19 C
207 16-02-2011 17:24:02 6.4 C 73 % 1.92 C
208 16-02-2011 17:36:02 5.4 C 77 % 1.7 C
209 16-02-2011 17:48:02 4.9 C 80 % 1.75 C
210 16-02-2011 18:00:02 4.4 C 82 % 1.6 C
211 16-02-2011 18:12:03 4.2 C 83 % 1.58 C
212 16-02-2011 18:24:02 3.8 C 84 % 1.35 C
213 16-02-2011 18:36:02 3.5 C 85 % 1.22 C
214 16-02-2011 18:48:02 3.5 C 86 % 1.38 C
215 16-02-2011 19:00:02 3.3 C 86 % 1.19 C
216 16-02-2011 19:12:01 3 C 87 % 1.05 C
217 16-02-2011 19:24:01 2.9 C 88 % 1.11 C
218 16-02-2011 19:36:02 2.7 C 88 % 0.92 C
219 16-02-2011 19:48:02 2.6 C 88 % 0.82 C
220 16-02-2011 20:00:02 2.3 C 88 % 0.52 C
221 16-02-2011 20:12:02 2.3 C 88 % 0.52 C
222 16-02-2011 20:24:02 2.1 C 89 % 0.48 C
223 16-02-2011 20:36:02 2.1 C 89 % 0.48 C
224 16-02-2011 20:48:01 1.4 C 89 % -0.21 C
225 16-02-2011 21:00:01 1.8 C 90 % 0.34 C
Sensor: Nr:Datum:Temp:Feuchte:Taupunkt:
Aussen-T/F 226 16-02-2011 21:12:02 1.5 C 89 % -0.11 C
227 16-02-2011 21:24:01 1.3 C 90 % -0.15 C
228 16-02-2011 21:36:02 1.5 C 90 % 0.04 C
229 16-02-2011 21:49:03 1.4 C 90 % -0.06 C
230 16-02-2011 22:01:04 1.4 C 90 % -0.06 C
231 16-02-2011 22:13:04 0.7 C 91 % -0.6 C
232 16-02-2011 22:25:04 0.6 C 91 % -0.7 C
233 16-02-2011 22:37:04 0.6 C 91 % -0.7 C
234 16-02-2011 22:49:04 0 C 91 % -1.29 C
235 16-02-2011 23:01:04 -0.2 C 91 % -1.49 C
236 16-02-2011 23:13:04 -0.4 C 91 % -1.69 C
237 16-02-2011 23:25:04 -0.4 C 91 % -1.69 C
238 16-02-2011 23:37:04 0 C 91 % -1.29 C
239 16-02-2011 23:49:04 -0.3 C 91 % -1.59 C
240 17-02-2011 00:01:04 -0.8 C 91 % -2.08 C
241 17-02-2011 00:13:04 -0.9 C 90 % -2.33 C
242 17-02-2011 00:25:04 -1 C 90 % -2.43 C
243 17-02-2011 00:37:04 -1 C 90 % -2.43 C
244 17-02-2011 00:49:04 -1 C 90 % -2.43 C
245 17-02-2011 01:01:04 -0.9 C 90 % -2.33 C
246 17-02-2011 01:13:04 -0.7 C 91 % -1.98 C
247 17-02-2011 01:25:04 -1 C 91 % -2.28 C
248 17-02-2011 01:37:04 -0.5 C 91 % -1.78 C
249 17-02-2011 01:49:04 -0.5 C 91 % -1.78 C
250 17-02-2011 02:01:05 -0.4 C 91 % -1.69 C
Sensor: Nr:Datum:Temp:Feuchte:Taupunkt:
Aussen-T/F 251 17-02-2011 02:13:05 -0.3 C 91 % -1.59 C
252 17-02-2011 02:25:05 -0.3 C 92 % -1.44 C
253 17-02-2011 02:37:05 -0.7 C 91 % -1.98 C
254 17-02-2011 02:49:05 -0.5 C 91 % -1.78 C
255 17-02-2011 03:01:05 -0.5 C 92 % -1.64 C
256 17-02-2011 03:13:05 -0.4 C 92 % -1.54 C
257 17-02-2011 03:25:05 -0.2 C 92 % -1.34 C
258 17-02-2011 03:37:05 -0.1 C 92 % -1.24 C
259 17-02-2011 03:49:05 0 C 92 % -1.14 C
260 17-02-2011 04:01:05 -0.1 C 92 % -1.24 C
261 17-02-2011 04:13:05 0 C 92 % -1.14 C
262 17-02-2011 04:25:05 0.1 C 92 % -1.04 C
263 17-02-2011 04:37:05 0.2 C 92 % -0.94 C
264 17-02-2011 04:49:05 0.4 C 93 % -0.6 C
265 17-02-2011 05:01:05 0.5 C 93 % -0.5 C
266 17-02-2011 05:13:05 0.5 C 93 % -0.5 C
267 17-02-2011 05:25:05 0.5 C 93 % -0.5 C
268 17-02-2011 05:37:05 0.5 C 93 % -0.5 C
269 17-02-2011 05:49:05 0.6 C 93 % -0.4 C
270 17-02-2011 06:01:05 0.8 C 93 % -0.2 C
271 17-02-2011 06:13:06 0.8 C 93 % -0.2 C
272 17-02-2011 06:25:06 0.9 C 93 % -0.1 C
273 17-02-2011 06:37:06 1.1 C 93 % 0.1 C
274 17-02-2011 06:49:06 1.1 C 93 % 0.1 C
275 17-02-2011 07:01:06 1.1 C 93 % 0.1 C
Sensor: Nr:Datum:Temp:Feuchte:Taupunkt:
Aussen-T/F 276 17-02-2011 07:13:06 1.2 C 93 % 0.2 C
277 17-02-2011 07:25:06 1.2 C 93 % 0.2 C
278 17-02-2011 07:37:03 1.3 C 93 % 0.3 C
279 17-02-2011 07:49:02 1.3 C 93 % 0.3 C
280 17-02-2011 08:01:02 1.4 C 93 % 0.4 C
281 17-02-2011 08:13:02 1.4 C 93 % 0.4 C
282 17-02-2011 08:25:02 1.4 C 93 % 0.4 C
283 17-02-2011 08:37:02 1.6 C 93 % 0.59 C
284 17-02-2011 08:49:02 1.8 C 93 % 0.79 C
285 17-02-2011 09:01:02 2.1 C 93 % 1.09 C
286 17-02-2011 09:13:02 2.2 C 93 % 1.19 C
287 17-02-2011 09:25:02 2.5 C 93 % 1.49 C
288 17-02-2011 09:37:02 2.4 C 92 % 1.24 C
289 17-02-2011 09:49:02 2.4 C 92 % 1.24 C
290 17-02-2011 10:01:02 3.1 C 92 % 1.93 C
291 17-02-2011 10:13:02 3.4 C 90 % 1.92 C
292 17-02-2011 10:25:02 4.1 C 85 % 1.81 C
293 17-02-2011 10:37:02 4.2 C 75 % 0.17 C
294 17-02-2011 10:49:02 4.1 C 69 % -1.06 C
295 17-02-2011 11:01:03 3.8 C 68 % -1.55 C
296 17-02-2011 11:13:03 3.6 C 69 % -1.54 C
297 17-02-2011 11:25:02 3.5 C 70 % -1.44 C
298 17-02-2011 11:37:02 4.4 C 65 % -1.59 C
299 17-02-2011 11:49:01 4.7 C 61 % -2.16 C
300 17-02-2011 12:01:01 6.1 C 55 % -2.25 C
Sensor: Nr:Datum:Temp:Feuchte:Taupunkt:
Aussen-T/F 301 17-02-2011 12:13:02 5.8 C 55 % -2.53 C
302 17-02-2011 12:25:01 5.6 C 54 % -2.96 C
303 17-02-2011 12:37:01 5.7 C 54 % -2.87 C
304 17-02-2011 12:49:01 7.4 C 52 % -1.8 C
305 17-02-2011 13:01:01 8 C 47 % -2.61 C
306 17-02-2011 13:13:01 6.5 C 48 % -3.7 C
307 17-02-2011 13:25:02 7 C 48 % -3.24 C
308 17-02-2011 13:37:01 5.6 C 53 % -3.21 C
309 17-02-2011 13:49:02 5 C 56 % -3.03 C
310 17-02-2011 14:01:02 5.1 C 57 % -2.7 C
311 17-02-2011 14:13:02 5.3 C 56 % -2.75 C
312 17-02-2011 14:25:02 5.7 C 55 % -2.62 C
313 17-02-2011 14:37:02 5.8 C 55 % -2.53 C
314 17-02-2011 14:49:02 5.6 C 52 % -3.46 C
315 17-02-2011 15:01:01 6.1 C 53 % -2.74 C
316 17-02-2011 15:13:01 6.1 C 52 % -3 C
317 17-02-2011 15:25:02 5.5 C 54 % -3.05 C
318 17-02-2011 15:37:02 5.5 C 54 % -3.05 C
319 17-02-2011 15:49:02 5.8 C 52 % -3.28 C
320 17-02-2011 16:01:02 4.7 C 56 % -3.31 C
321 17-02-2011 16:13:02 4.4 C 58 % -3.12 C
322 17-02-2011 16:25:02 4.1 C 59 % -3.18 C
323 17-02-2011 16:37:02 4 C 59 % -3.27 C
324 17-02-2011 16:49:01 3.6 C 62 % -2.98 C
325 17-02-2011 17:01:01 3.3 C 61 % -3.49 C
Sensor: Nr:Datum:Temp:Feuchte:Taupunkt:
Aussen-T/F 326 17-02-2011 17:13:01 3 C 62 % -3.55 C
327 17-02-2011 17:25:01 2.9 C 64 % -3.22 C
328 17-02-2011 17:37:01 2.6 C 63 % -3.72 C
329 17-02-2011 17:49:01 2.1 C 66 % -3.57 C
330 17-02-2011 18:01:01 1.5 C 69 % -3.55 C
331 17-02-2011 18:13:01 1.4 C 71 % -3.27 C
332 17-02-2011 18:25:02 1 C 72 % -3.47 C
333 17-02-2011 18:37:01 0.6 C 73 % -3.67 C
334 17-02-2011 18:49:03 0.3 C 74 % -3.78 C
335 17-02-2011 19:01:02 0 C 76 % -3.71 C
336 17-02-2011 19:13:02 -0.4 C 78 % -3.76 C
337 17-02-2011 19:25:02 -0.4 C 79 % -3.59 C
338 17-02-2011 19:37:02 -0.9 C 79 % -4.08 C
339 17-02-2011 19:49:02 -0.8 C 81 % -3.64 C
340 17-02-2011 20:01:02 -0.2 C 83 % -2.73 C
341 17-02-2011 20:13:02 0.2 C 83 % -2.34 C
342 17-02-2011 20:25:02 0.2 C 83 % -2.34 C
343 17-02-2011 20:37:02 0.3 C 82 % -2.4 C
344 17-02-2011 20:49:01 0.5 C 81 % -2.37 C
345 17-02-2011 21:02:02 0.5 C 81 % -2.37 C
346 17-02-2011 21:14:03 0.8 C 80 % -2.25 C
347 17-02-2011 21:26:03 1 C 78 % -2.39 C
348 17-02-2011 21:38:03 1.1 C 76 % -2.65 C
349 17-02-2011 21:50:03 1.3 C 74 % -2.81 C
350 17-02-2011 22:02:03 1.3 C 73 % -2.99 C
Sensor: Nr:Datum:Temp:Feuchte:Taupunkt:
Aussen-T/F 351 17-02-2011 22:14:03 1.3 C 72 % -3.18 C
352 17-02-2011 22:26:03 1.3 C 72 % -3.18 C
353 17-02-2011 22:38:03 1.3 C 72 % -3.18 C
354 17-02-2011 22:50:03 1.3 C 72 % -3.18 C
355 17-02-2011 23:02:03 1.3 C 72 % -3.18 C
356 17-02-2011 23:14:03 1.4 C 71 % -3.27 C
357 17-02-2011 23:26:03 1.4 C 71 % -3.27 C
358 17-02-2011 23:38:03 1.4 C 72 % -3.08 C
359 17-02-2011 23:50:03 1.3 C 72 % -3.18 C
360 18-02-2011 00:02:03 1.3 C 72 % -3.18 C
361 18-02-2011 00:14:03 1.4 C 72 % -3.08 C
362 18-02-2011 00:26:03 1.3 C 72 % -3.18 C
363 18-02-2011 00:38:03 1.2 C 73 % -3.09 C
364 18-02-2011 00:50:03 1.2 C 73 % -3.09 C
365 18-02-2011 01:02:03 1.3 C 73 % -2.99 C
366 18-02-2011 01:14:03 1.2 C 72 % -3.27 C
367 18-02-2011 01:26:04 1.2 C 72 % -3.27 C
368 18-02-2011 01:38:04 1.2 C 72 % -3.27 C
369 18-02-2011 01:50:04 1.2 C 72 % -3.27 C
370 18-02-2011 02:02:04 1.2 C 73 % -3.09 C
371 18-02-2011 02:14:04 1.3 C 74 % -2.81 C
372 18-02-2011 02:26:04 1.2 C 74 % -2.91 C
373 18-02-2011 02:38:04 1.2 C 74 % -2.91 C
374 18-02-2011 02:50:04 1.2 C 74 % -2.91 C
375 18-02-2011 03:02:04 1.2 C 74 % -2.91 C
Sensor: Nr:Datum:Temp:Feuchte:Taupunkt:
Aussen-T/F 376 18-02-2011 03:14:04 1.2 C 74 % -2.91 C
377 18-02-2011 03:26:04 1.3 C 73 % -2.99 C
378 18-02-2011 03:38:04 1.3 C 73 % -2.99 C
379 18-02-2011 03:50:04 1.3 C 72 % -3.18 C
380 18-02-2011 04:02:04 1.3 C 73 % -2.99 C
381 18-02-2011 04:14:04 1.3 C 73 % -2.99 C
382 18-02-2011 04:26:04 1.3 C 72 % -3.18 C
383 18-02-2011 04:38:04 1.3 C 72 % -3.18 C
384 18-02-2011 04:50:04 1.3 C 72 % -3.18 C
385 18-02-2011 05:02:04 1.2 C 72 % -3.27 C
386 18-02-2011 05:14:04 1.2 C 72 % -3.27 C
387 18-02-2011 05:26:04 1.2 C 73 % -3.09 C
388 18-02-2011 05:38:05 1.2 C 73 % -3.09 C
389 18-02-2011 05:50:05 1.1 C 74 % -3 C
390 18-02-2011 06:02:05 1.1 C 74 % -3 C
391 18-02-2011 06:14:05 1.2 C 74 % -2.91 C
392 18-02-2011 06:26:05 1.2 C 75 % -2.73 C
393 18-02-2011 06:38:05 1.2 C 74 % -2.91 C
394 18-02-2011 06:50:05 1.2 C 74 % -2.91 C
395 18-02-2011 07:02:05 1.3 C 74 % -2.81 C
396 18-02-2011 07:14:05 1.2 C 75 % -2.73 C
397 18-02-2011 07:26:05 1.2 C 75 % -2.73 C
398 18-02-2011 07:38:02 1.3 C 74 % -2.81 C
399 18-02-2011 07:50:02 1.2 C 74 % -2.91 C
400 18-02-2011 08:02:03 1.4 C 74 % -2.71 C
Sensor: Nr:Datum:Temp:Feuchte:Taupunkt:
Aussen-T/F 401 18-02-2011 08:14:03 1.4 C 75 % -2.53 C
402 18-02-2011 08:26:02 1.5 C 74 % -2.62 C
403 18-02-2011 08:38:03 1.6 C 74 % -2.52 C
404 18-02-2011 08:50:02 1.7 C 74 % -2.42 C
405 18-02-2011 09:02:02 1.8 C 74 % -2.33 C
406 18-02-2011 09:14:02 2 C 71 % -2.69 C
407 18-02-2011 09:26:01 2.2 C 70 % -2.69 C
408 18-02-2011 09:38:02 2.3 C 69 % -2.79 C
409 18-02-2011 09:50:02 2.3 C 69 % -2.79 C
410 18-02-2011 10:02:02 2.5 C 69 % -2.6 C
411 18-02-2011 10:14:02 2.4 C 68 % -2.89 C
412 18-02-2011 10:26:02 2.5 C 68 % -2.79 C
413 18-02-2011 10:38:02 2.5 C 69 % -2.6 C
414 18-02-2011 10:50:02 2.7 C 69 % -2.4 C
415 18-02-2011 11:02:01 2.8 C 69 % -2.31 C
416 18-02-2011 11:14:01 2.8 C 68 % -2.51 C
417 18-02-2011 11:26:02 3 C 67 % -2.51 C
418 18-02-2011 11:38:02 3 C 67 % -2.51 C
419 18-02-2011 11:50:02 3 C 67 % -2.51 C
420 18-02-2011 12:02:02 3.1 C 67 % -2.42 C
421 18-02-2011 12:14:02 3.3 C 67 % -2.23 C
422 18-02-2011 12:26:02 3.2 C 67 % -2.32 C
423 18-02-2011 12:38:02 3.2 C 67 % -2.32 C
424 18-02-2011 12:50:02 3.1 C 67 % -2.42 C
425 18-02-2011 13:02:02 3.2 C 68 % -2.12 C
Sensor: Nr:Datum:Temp:Feuchte:Taupunkt:
Aussen-T/F 426 18-02-2011 13:14:02 3.2 C 67 % -2.32 C
427 18-02-2011 13:26:01 3.5 C 68 % -1.84 C
428 18-02-2011 13:38:02 3.4 C 67 % -2.13 C
429 18-02-2011 13:50:02 3.6 C 66 % -2.14 C
430 18-02-2011 14:02:02 3.4 C 67 % -2.13 C
431 18-02-2011 14:14:03 3.7 C 67 % -1.85 C
432 18-02-2011 14:26:01 3.6 C 67 % -1.94 C
433 18-02-2011 14:38:02 3.6 C 67 % -1.94 C
434 18-02-2011 14:50:01 3.5 C 68 % -1.84 C
435 18-02-2011 15:02:02 3.7 C 68 % -1.64 C
436 18-02-2011 15:14:02 3.8 C 67 % -1.75 C
437 18-02-2011 15:26:02 3.6 C 66 % -2.14 C
438 18-02-2011 15:38:02 3.6 C 66 % -2.14 C
439 18-02-2011 15:50:02 3.6 C 67 % -1.94 C
440 18-02-2011 16:02:01 3.6 C 67 % -1.94 C
441 18-02-2011 16:14:01 3.5 C 68 % -1.84 C
442 18-02-2011 16:26:02 3.4 C 68 % -1.93 C
443 18-02-2011 16:38:01 3.2 C 69 % -1.93 C
444 18-02-2011 16:50:03 3.1 C 70 % -1.83 C
445 18-02-2011 17:02:02 3 C 71 % -1.73 C
446 18-02-2011 17:14:02 2.9 C 72 % -1.64 C
447 18-02-2011 17:26:02 2.9 C 72 % -1.64 C
448 18-02-2011 17:38:03 2.9 C 73 % -1.45 C
449 18-02-2011 17:50:02 2.8 C 74 % -1.36 C
450 18-02-2011 18:02:02 2.8 C 74 % -1.36 C
Sensor: Nr:Datum:Temp:Feuchte:Taupunkt:
Aussen-T/F 451 18-02-2011 18:14:02 2.8 C 75 % -1.18 C
452 18-02-2011 18:26:02 2.7 C 75 % -1.28 C
453 18-02-2011 18:38:02 2.7 C 76 % -1.1 C
454 18-02-2011 18:50:02 2.6 C 75 % -1.37 C
455 18-02-2011 19:02:01 2.6 C 76 % -1.19 C
456 18-02-2011 19:14:01 2.7 C 76 % -1.1 C
457 18-02-2011 19:26:02 2.6 C 76 % -1.19 C
458 18-02-2011 19:38:01 2.7 C 77 % -0.92 C
459 18-02-2011 19:50:02 2.6 C 77 % -1.02 C
460 18-02-2011 20:02:01 2.5 C 77 % -1.11 C
461 18-02-2011 20:14:01 2.5 C 77 % -1.11 C
462 18-02-2011 20:26:01 2.5 C 77 % -1.11 C
463 18-02-2011 20:38:02 2.5 C 78 % -0.94 C
464 18-02-2011 20:50:02 2.4 C 78 % -1.03 C
465 18-02-2011 21:02:02 2.4 C 79 % -0.86 C
466 18-02-2011 21:14:02 2.4 C 79 % -0.86 C
467 18-02-2011 21:26:02 2.4 C 79 % -0.86 C
468 18-02-2011 21:38:02 2.4 C 79 % -0.86 C
469 18-02-2011 21:51:04 2.3 C 79 % -0.96 C
470 18-02-2011 22:03:04 2.3 C 79 % -0.96 C
471 18-02-2011 22:15:04 2.3 C 79 % -0.96 C
472 18-02-2011 22:27:04 2.2 C 79 % -1.05 C
473 18-02-2011 22:39:04 2.2 C 80 % -0.88 C
474 18-02-2011 22:51:04 2.2 C 80 % -0.88 C
475 18-02-2011 23:03:04 2.3 C 80 % -0.79 C
Sensor: Nr:Datum:Temp:Feuchte:Taupunkt:
Aussen-T/F 476 18-02-2011 23:15:04 2.2 C 81 % -0.71 C
477 18-02-2011 23:27:04 2.2 C 81 % -0.71 C
478 18-02-2011 23:39:04 2.2 C 81 % -0.71 C
479 18-02-2011 23:51:04 2.2 C 81 % -0.71 C
480 19-02-2011 00:03:04 2.1 C 81 % -0.81 C
481 19-02-2011 00:15:04 2.1 C 81 % -0.81 C
482 19-02-2011 00:27:04 2.2 C 81 % -0.71 C
483 19-02-2011 00:39:04 2.2 C 82 % -0.55 C
484 19-02-2011 00:51:04 2.2 C 82 % -0.55 C
485 19-02-2011 01:03:04 2.1 C 82 % -0.64 C
486 19-02-2011 01:15:05 2.1 C 82 % -0.64 C
487 19-02-2011 01:27:05 2.1 C 82 % -0.64 C
488 19-02-2011 01:39:05 2.1 C 82 % -0.64 C
489 19-02-2011 01:51:05 2 C 82 % -0.74 C
490 19-02-2011 02:03:05 2 C 82 % -0.74 C
491 19-02-2011 02:15:05 2 C 82 % -0.74 C
492 19-02-2011 02:27:05 1.9 C 83 % -0.67 C
493 19-02-2011 02:39:05 2 C 82 % -0.74 C
494 19-02-2011 02:51:05 2 C 82 % -0.74 C
495 19-02-2011 03:03:05 1.9 C 83 % -0.67 C
496 19-02-2011 03:15:05 1.9 C 83 % -0.67 C
497 19-02-2011 03:27:05 2 C 83 % -0.58 C
498 19-02-2011 03:39:05 2 C 83 % -0.58 C
499 19-02-2011 03:51:05 1.9 C 83 % -0.67 C
500 19-02-2011 04:03:05 1.9 C 84 % -0.51 C
Sensor: Nr:Datum:Temp:Feuchte:Taupunkt:
Aussen-T/F 501 19-02-2011 04:15:05 1.9 C 84 % -0.51 C
502 19-02-2011 04:27:05 1.8 C 84 % -0.61 C
503 19-02-2011 04:39:05 1.9 C 84 % -0.51 C
504 19-02-2011 04:51:05 1.8 C 84 % -0.61 C
505 19-02-2011 05:03:05 1.8 C 84 % -0.61 C
506 19-02-2011 05:15:05 1.8 C 84 % -0.61 C
507 19-02-2011 05:27:06 1.9 C 83 % -0.67 C
508 19-02-2011 05:39:06 1.9 C 82 % -0.84 C
509 19-02-2011 05:51:06 2 C 79 % -1.25 C
510 19-02-2011 06:03:06 2 C 79 % -1.25 C
511 19-02-2011 06:15:06 1.8 C 79 % -1.44 C
512 19-02-2011 06:27:06 1.7 C 80 % -1.37 C
513 19-02-2011 06:39:06 1.7 C 81 % -1.2 C
514 19-02-2011 06:51:06 1.8 C 81 % -1.1 C
515 19-02-2011 07:03:06 1.8 C 80 % -1.27 C
516 19-02-2011 07:15:06 1.7 C 80 % -1.37 C
517 19-02-2011 07:27:06 1.6 C 80 % -1.47 C
518 19-02-2011 07:39:06 1.6 C 81 % -1.3 C
519 19-02-2011 07:51:06 1.7 C 80 % -1.37 C
520 19-02-2011 08:03:06 1.7 C 80 % -1.37 C
521 19-02-2011 08:15:06 1.7 C 79 % -1.54 C
522 19-02-2011 08:27:06 1.8 C 78 % -1.62 C
523 19-02-2011 08:39:06 1.8 C 77 % -1.79 C
524 19-02-2011 08:51:02 1.9 C 77 % -1.69 C
525 19-02-2011 09:03:02 2 C 75 % -1.95 C
Sensor: Nr:Datum:Temp:Feuchte:Taupunkt:
Aussen-T/F 526 19-02-2011 09:15:02 2 C 74 % -2.13 C
527 19-02-2011 09:27:02 2.1 C 73 % -2.22 C
528 19-02-2011 09:39:02 2.2 C 73 % -2.13 C
529 19-02-2011 09:51:02 2.1 C 73 % -2.22 C
530 19-02-2011 10:03:02 2.2 C 73 % -2.13 C
531 19-02-2011 10:15:02 2.5 C 72 % -2.02 C
532 19-02-2011 10:27:02 2.8 C 71 % -1.92 C
533 19-02-2011 10:39:02 3.2 C 69 % -1.93 C
534 19-02-2011 10:51:02 3.4 C 68 % -1.93 C
535 19-02-2011 11:03:02 3.4 C 67 % -2.13 C
536 19-02-2011 11:15:02 3.8 C 66 % -1.95 C
537 19-02-2011 11:27:02 3.8 C 65 % -2.16 C
538 19-02-2011 11:39:02 4 C 63 % -2.39 C
539 19-02-2011 11:51:02 4.1 C 61 % -2.73 C
540 19-02-2011 12:03:02 4.4 C 61 % -2.45 C
541 19-02-2011 12:15:02 4.9 C 60 % -2.2 C
542 19-02-2011 12:27:03 5.4 C 57 % -2.42 C
543 19-02-2011 12:39:01 5.3 C 56 % -2.75 C
544 19-02-2011 12:51:02 4.7 C 60 % -2.39 C
545 19-02-2011 13:03:01 4.7 C 61 % -2.16 C
546 19-02-2011 13:15:01 4.9 C 60 % -2.2 C
547 19-02-2011 13:27:01 5.1 C 59 % -2.24 C
548 19-02-2011 13:39:02 5.2 C 59 % -2.14 C
549 19-02-2011 13:51:02 5.8 C 57 % -2.04 C
550 19-02-2011 14:03:02 5.2 C 58 % -2.37 C
Sensor: Nr:Datum:Temp:Feuchte:Taupunkt:
Aussen-T/F 551 19-02-2011 14:15:02 4.8 C 59 % -2.52 C
552 19-02-2011 14:27:02 4.6 C 61 % -2.26 C
553 19-02-2011 14:39:02 4.5 C 61 % -2.35 C
554 19-02-2011 14:51:02 4.6 C 61 % -2.26 C
555 19-02-2011 15:03:02 4.7 C 61 % -2.16 C
556 19-02-2011 15:15:02 4.6 C 62 % -2.04 C
557 19-02-2011 15:27:02 4.6 C 61 % -2.26 C
558 19-02-2011 15:39:02 4.5 C 61 % -2.35 C
559 19-02-2011 15:51:02 4.9 C 61 % -1.97 C
560 19-02-2011 16:03:02 4.8 C 61 % -2.07 C
561 19-02-2011 16:15:03 4.6 C 62 % -2.04 C
562 19-02-2011 16:27:03 4.3 C 64 % -1.89 C
563 19-02-2011 16:39:02 4.2 C 65 % -1.78 C
564 19-02-2011 16:51:02 4.1 C 65 % -1.87 C
565 19-02-2011 17:03:02 4.1 C 66 % -1.67 C
566 19-02-2011 17:15:02 3.8 C 67 % -1.75 C
567 19-02-2011 17:27:02 3.6 C 69 % -1.54 C
568 19-02-2011 17:39:02 3.6 C 70 % -1.35 C
569 19-02-2011 17:51:02 3.6 C 70 % -1.35 C
570 19-02-2011 18:03:02 3.3 C 71 % -1.44 C
571 19-02-2011 18:15:02 3.1 C 71 % -1.63 C
572 19-02-2011 18:27:02 3 C 72 % -1.54 C
573 19-02-2011 18:39:01 2.9 C 74 % -1.27 C
574 19-02-2011 18:51:02 2.8 C 74 % -1.36 C
575 19-02-2011 19:03:01 2.8 C 74 % -1.36 C
Sensor: Nr:Datum:Temp:Feuchte:Taupunkt:
Aussen-T/F 576 19-02-2011 19:15:01 3 C 74 % -1.17 C
577 19-02-2011 19:27:01 2.9 C 74 % -1.27 C
578 19-02-2011 19:39:02 2.9 C 74 % -1.27 C
579 19-02-2011 19:51:02 2.9 C 74 % -1.27 C
580 19-02-2011 20:03:02 2.6 C 74 % -1.56 C
581 19-02-2011 20:15:01 2.5 C 74 % -1.65 C
582 19-02-2011 20:27:01 2.4 C 74 % -1.75 C
583 19-02-2011 20:39:02 1.6 C 76 % -2.16 C
584 19-02-2011 20:51:02 1.6 C 79 % -1.64 C
585 19-02-2011 21:03:02 2 C 80 % -1.08 C
586 19-02-2011 21:15:01 2.3 C 79 % -0.96 C
587 19-02-2011 21:27:01 2.4 C 77 % -1.21 C
588 19-02-2011 21:39:02 2.5 C 76 % -1.29 C
589 19-02-2011 21:51:02 2.6 C 74 % -1.56 C
590 19-02-2011 22:03:02 2.5 C 74 % -1.65 C
591 19-02-2011 22:15:02 2.4 C 73 % -1.93 C
592 19-02-2011 22:27:02 2.2 C 73 % -2.13 C
593 19-02-2011 22:40:03 1.9 C 75 % -2.05 C
594 19-02-2011 22:52:03 1.8 C 75 % -2.15 C
595 19-02-2011 23:04:03 1.8 C 75 % -2.15 C
596 19-02-2011 23:16:03 1.7 C 76 % -2.07 C
597 19-02-2011 23:28:03 1.8 C 76 % -1.97 C
598 19-02-2011 23:40:03 1.9 C 75 % -2.05 C
599 19-02-2011 23:52:03 1.8 C 74 % -2.33 C
600 20-02-2011 00:04:03 1.7 C 74 % -2.42 C
Sensor: Nr:Datum:Temp:Feuchte:Taupunkt:
Aussen-T/F 601 20-02-2011 00:16:03 1.7 C 73 % -2.61 C
602 20-02-2011 00:28:03 1.6 C 72 % -2.89 C
603 20-02-2011 00:40:04 1.5 C 72 % -2.99 C
604 20-02-2011 00:52:04 1.4 C 72 % -3.08 C
605 20-02-2011 01:04:04 1.3 C 72 % -3.18 C
606 20-02-2011 01:16:04 1.1 C 72 % -3.37 C
607 20-02-2011 01:28:04 0.9 C 74 % -3.2 C
608 20-02-2011 01:40:04 0.7 C 75 % -3.21 C
609 20-02-2011 01:52:04 0.5 C 75 % -3.4 C
610 20-02-2011 02:04:04 0.5 C 76 % -3.23 C
611 20-02-2011 02:16:04 0.5 C 76 % -3.23 C
612 20-02-2011 02:28:04 0.5 C 76 % -3.23 C
613 20-02-2011 02:40:04 0.6 C 76 % -3.13 C
614 20-02-2011 02:52:04 0.7 C 75 % -3.21 C
615 20-02-2011 03:04:04 0.8 C 74 % -3.29 C
616 20-02-2011 03:16:04 0.8 C 73 % -3.48 C
617 20-02-2011 03:28:04 0.7 C 73 % -3.57 C
618 20-02-2011 03:40:04 0.6 C 72 % -3.85 C
619 20-02-2011 03:52:04 0.6 C 72 % -3.85 C
620 20-02-2011 04:04:04 0.6 C 72 % -3.85 C
621 20-02-2011 04:16:04 0.5 C 72 % -3.95 C
622 20-02-2011 04:28:04 0.5 C 72 % -3.95 C
623 20-02-2011 04:40:05 0.5 C 72 % -3.95 C
624 20-02-2011 04:52:05 0.5 C 72 % -3.95 C
625 20-02-2011 05:04:05 0.5 C 71 % -4.13 C
Sensor: Nr:Datum:Temp:Feuchte:Taupunkt:
Aussen-T/F 626 20-02-2011 05:16:05 0.4 C 72 % -4.04 C
627 20-02-2011 05:28:05 0.3 C 72 % -4.14 C
628 20-02-2011 05:40:05 0.3 C 72 % -4.14 C
629 20-02-2011 05:52:05 0.2 C 72 % -4.24 C
630 20-02-2011 06:04:05 0.3 C 71 % -4.33 C
631 20-02-2011 06:16:05 0.3 C 71 % -4.33 C
632 20-02-2011 06:28:05 0.4 C 71 % -4.23 C
633 20-02-2011 06:40:05 0.4 C 71 % -4.23 C
634 20-02-2011 06:52:05 0.4 C 71 % -4.23 C
635 20-02-2011 07:04:05 0.4 C 71 % -4.23 C
636 20-02-2011 07:16:05 0.5 C 70 % -4.32 C
637 20-02-2011 07:28:05 0.4 C 70 % -4.42 C
638 20-02-2011 07:40:05 0.4 C 69 % -4.61 C
639 20-02-2011 07:52:05 0.4 C 68 % -4.8 C
640 20-02-2011 08:04:05 0.5 C 68 % -4.71 C
641 20-02-2011 08:16:05 0.4 C 68 % -4.8 C
642 20-02-2011 08:28:05 0.5 C 67 % -4.9 C
643 20-02-2011 08:40:05 0.6 C 67 % -4.81 C
644 20-02-2011 08:52:06 0.7 C 66 % -4.91 C
645 20-02-2011 09:04:06 0.7 C 66 % -4.91 C
646 20-02-2011 09:16:06 0.9 C 65 % -4.92 C
647 20-02-2011 09:28:06 1.2 C 63 % -5.05 C
648 20-02-2011 09:40:03 1.2 C 62 % -5.26 C
649 20-02-2011 09:52:01 1.5 C 61 % -5.19 C
650 20-02-2011 10:04:02 1.5 C 60 % -5.4 C
Sensor: Nr:Datum:Temp:Feuchte:Taupunkt:
Aussen-T/F 651 20-02-2011 10:16:02 1.6 C 60 % -5.31 C
652 20-02-2011 10:28:02 1.6 C 59 % -5.53 C
653 20-02-2011 10:40:01 1.7 C 59 % -5.43 C
654 20-02-2011 10:52:02 1.7 C 58 % -5.66 C
655 20-02-2011 11:04:01 1.8 C 57 % -5.79 C
656 20-02-2011 11:16:02 2.3 C 57 % -5.32 C
657 20-02-2011 11:28:02 2 C 56 % -5.84 C
658 20-02-2011 11:40:01 2.4 C 56 % -5.46 C
659 20-02-2011 11:52:03 2.2 C 55 % -5.89 C
660 20-02-2011 12:04:02 2.5 C 55 % -5.61 C
661 20-02-2011 12:16:02 2.4 C 54 % -5.94 C
662 20-02-2011 12:28:02 2.5 C 54 % -5.85 C
663 20-02-2011 12:40:02 2.5 C 54 % -5.85 C
664 20-02-2011 12:52:02 2.2 C 54 % -6.12 C
665 20-02-2011 13:04:01 2.3 C 54 % -6.03 C
666 20-02-2011 13:16:02 2.2 C 54 % -6.12 C
667 20-02-2011 13:28:02 2.3 C 54 % -6.03 C
668 20-02-2011 13:40:02 2.1 C 54 % -6.22 C
669 20-02-2011 13:52:01 2.2 C 54 % -6.12 C
670 20-02-2011 14:04:02 2.2 C 54 % -6.12 C
671 20-02-2011 14:16:01 2.2 C 53 % -6.37 C
672 20-02-2011 14:28:01 2 C 53 % -6.55 C
673 20-02-2011 14:40:01 1.9 C 54 % -6.4 C
674 20-02-2011 14:52:01 2.4 C 52 % -6.43 C
675 20-02-2011 15:04:02 2.5 C 51 % -6.59 C
Sensor: Nr:Datum:Temp:Feuchte:Taupunkt:
Aussen-T/F 676 20-02-2011 15:16:01 2.6 C 50 % -6.75 C
677 20-02-2011 15:28:01 2.5 C 50 % -6.85 C
678 20-02-2011 15:40:02 2.6 C 50 % -6.75 C
679 20-02-2011 15:52:01 2.2 C 50 % -7.12 C
680 20-02-2011 16:04:02 1.7 C 53 % -6.83 C
681 20-02-2011 16:16:02 1.6 C 53 % -6.93 C
682 20-02-2011 16:28:02 1.3 C 55 % -6.73 C
683 20-02-2011 16:40:01 1.1 C 55 % -6.91 C
684 20-02-2011 16:52:01 1 C 56 % -6.77 C
685 20-02-2011 17:04:01 1 C 57 % -6.54 C
686 20-02-2011 17:16:02 0.7 C 57 % -6.82 C
687 20-02-2011 17:28:02 0.5 C 58 % -6.79 C
688 20-02-2011 17:40:01 0.5 C 58 % -6.79 C
689 20-02-2011 17:52:02 0.3 C 58 % -6.97 C
690 20-02-2011 18:04:01 0.1 C 57 % -7.39 C
691 20-02-2011 18:16:01 0.1 C 58 % -7.16 C
692 20-02-2011 18:28:01 0 C 59 % -7.04 C
693 20-02-2011 18:40:01 0 C 58 % -7.26 C
694 20-02-2011 18:52:02 -0.2 C 58 % -7.45 C
695 20-02-2011 19:04:01 -0.2 C 58 % -7.45 C
696 20-02-2011 19:16:02 -0.3 C 58 % -7.55 C
697 20-02-2011 19:28:02 -0.3 C 59 % -7.33 C
698 20-02-2011 19:40:02 -0.3 C 58 % -7.55 C
699 20-02-2011 19:52:02 -0.5 C 57 % -7.96 C
700 20-02-2011 20:04:02 -0.6 C 58 % -7.83 C
Sensor: Nr:Datum:Temp:Feuchte:Taupunkt:
Aussen-T/F 701 20-02-2011 20:16:02 -0.7 C 58 % -7.92 C
702 20-02-2011 20:28:02 -0.8 C 57 % -8.24 C
703 20-02-2011 20:40:01 -0.9 C 57 % -8.34 C
704 20-02-2011 20:52:01 -0.9 C 57 % -8.34 C
705 20-02-2011 21:04:01 -0.9 C 57 % -8.34 C
706 20-02-2011 21:16:02 -0.9 C 56 % -8.56 C
707 20-02-2011 21:28:02 -1.1 C 56 % -8.75 C
708 20-02-2011 21:40:01 -1.1 C 57 % -8.52 C
709 20-02-2011 21:53:06 -1.2 C 57 % -8.62 C
710 20-02-2011 22:05:06 -1.3 C 57 % -8.71 C
711 20-02-2011 22:17:06 -1.4 C 57 % -8.81 C
712 20-02-2011 22:29:06 -1.4 C 57 % -8.81 C
713 20-02-2011 22:41:06 -1.4 C 57 % -8.81 C
714 20-02-2011 22:53:06 -1.5 C 57 % -8.9 C
715 20-02-2011 23:05:06 -1.6 C 57 % -8.99 C
716 20-02-2011 23:17:07 -1.6 C 57 % -8.99 C
717 20-02-2011 23:29:07 -1.7 C 57 % -9.09 C
718 20-02-2011 23:41:07 -1.6 C 57 % -8.99 C
719 20-02-2011 23:53:07 -1.7 C 56 % -9.31 C
720 21-02-2011 00:05:07 -1.8 C 56 % -9.41 C
721 21-02-2011 00:17:07 -1.8 C 56 % -9.41 C
722 21-02-2011 00:29:07 -1.8 C 56 % -9.41 C
723 21-02-2011 00:41:07 -1.9 C 57 % -9.28 C
724 21-02-2011 00:53:07 -1.9 C 57 % -9.28 C
725 21-02-2011 01:05:07 -1.9 C 56 % -9.5 C
Sensor: Nr:Datum:Temp:Feuchte:Taupunkt:
Aussen-T/F 726 21-02-2011 01:17:07 -2 C 55 % -9.82 C
727 21-02-2011 01:29:07 -2 C 56 % -9.59 C
728 21-02-2011 01:41:07 -2.1 C 56 % -9.69 C
729 21-02-2011 01:53:07 -2.1 C 56 % -9.69 C
730 21-02-2011 02:05:07 -2.1 C 56 % -9.69 C
731 21-02-2011 02:17:07 -2.2 C 56 % -9.78 C
732 21-02-2011 02:29:07 -2.3 C 56 % -9.87 C
733 21-02-2011 02:41:07 -2.3 C 56 % -9.87 C
734 21-02-2011 02:53:07 -2.3 C 56 % -9.87 C
735 21-02-2011 03:05:07 -2.3 C 56 % -9.87 C
736 21-02-2011 03:17:08 -2.3 C 56 % -9.87 C
737 21-02-2011 03:29:08 -2.4 C 55 % -10.2 C
738 21-02-2011 03:41:08 -2.5 C 55 % -10.29 C
739 21-02-2011 03:53:08 -2.5 C 56 % -10.06 C
740 21-02-2011 04:05:08 -2.6 C 55 % -10.38 C
741 21-02-2011 04:17:08 -2.6 C 54 % -10.61 C
742 21-02-2011 04:29:08 -2.7 C 55 % -10.48 C
743 21-02-2011 04:41:08 -2.6 C 55 % -10.38 C
744 21-02-2011 04:53:08 -2.7 C 55 % -10.48 C
745 21-02-2011 05:05:08 -2.7 C 55 % -10.48 C
746 21-02-2011 05:17:08 -2.7 C 55 % -10.48 C
747 21-02-2011 05:29:08 -2.7 C 55 % -10.48 C
748 21-02-2011 05:41:08 -2.7 C 55 % -10.48 C
749 21-02-2011 05:53:08 -2.8 C 55 % -10.57 C
750 21-02-2011 06:05:08 -2.8 C 55 % -10.57 C
Sensor: Nr:Datum:Temp:Feuchte:Taupunkt:
Aussen-T/F 751 21-02-2011 06:17:08 -2.9 C 55 % -10.66 C
752 21-02-2011 06:29:08 -2.9 C 55 % -10.66 C
753 21-02-2011 06:41:08 -3 C 55 % -10.76 C
754 21-02-2011 06:53:08 -3 C 55 % -10.76 C
755 21-02-2011 07:05:08 -3.1 C 55 % -10.85 C
756 21-02-2011 07:17:02 -3.2 C 55 % -10.94 C
757 21-02-2011 07:29:02 -3.2 C 55 % -10.94 C
758 21-02-2011 07:41:02 -3.3 C 54 % -11.27 C
759 21-02-2011 07:53:02 -3.3 C 54 % -11.27 C
760 21-02-2011 08:05:03 -3.3 C 54 % -11.27 C
761 21-02-2011 08:17:02 -3.4 C 53 % -11.59 C
762 21-02-2011 08:29:02 -3.3 C 54 % -11.27 C
763 21-02-2011 08:41:02 -3.3 C 54 % -11.27 C
764 21-02-2011 08:53:01 -3.3 C 54 % -11.27 C
765 21-02-2011 09:05:02 -3.2 C 53 % -11.41 C
766 21-02-2011 09:17:01 -3.2 C 53 % -11.41 C
767 21-02-2011 09:29:01 -3 C 53 % -11.22 C
768 21-02-2011 09:41:02 -2.7 C 52 % -11.18 C
769 21-02-2011 09:53:02 -2.5 C 51 % -11.24 C
770 21-02-2011 10:05:02 -2.4 C 51 % -11.14 C
771 21-02-2011 10:17:02 -2.2 C 50 % -11.21 C
772 21-02-2011 10:29:03 -2 C 50 % -11.02 C
773 21-02-2011 10:41:01 -1.6 C 49 % -10.91 C
774 21-02-2011 10:53:02 -2 C 48 % -11.53 C
775 21-02-2011 11:05:01 -1.8 C 47 % -11.61 C
Sensor: Nr:Datum:Temp:Feuchte:Taupunkt:
Aussen-T/F 776 21-02-2011 11:17:01 -1.5 C 48 % -11.07 C
777 21-02-2011 11:29:01 -1.1 C 47 % -10.97 C
778 21-02-2011 11:41:02 -1.9 C 46 % -11.97 C
779 21-02-2011 11:53:02 -1.3 C 46 % -11.42 C
780 21-02-2011 12:05:02 -1 C 45 % -11.42 C
781 21-02-2011 12:17:02 -1.2 C 46 % -11.33 C
782 21-02-2011 12:29:02 -1.1 C 46 % -11.24 C
783 21-02-2011 12:41:02 -1.1 C 46 % -11.24 C
784 21-02-2011 12:53:02 -1.3 C 46 % -11.42 C
785 21-02-2011 13:05:02 -1.1 C 46 % -11.24 C
786 21-02-2011 13:17:02 -1 C 47 % -10.87 C
787 21-02-2011 13:29:02 -1 C 47 % -10.87 C
788 21-02-2011 13:41:02 -0.7 C 47 % -10.6 C
789 21-02-2011 13:53:02 -0.6 C 46 % -10.78 C
790 21-02-2011 14:05:02 -0.4 C 46 % -10.59 C
791 21-02-2011 14:17:03 -0.2 C 46 % -10.41 C
792 21-02-2011 14:29:03 -0.7 C 46 % -10.87 C
793 21-02-2011 14:41:02 -0.6 C 46 % -10.78 C
794 21-02-2011 14:53:02 -0.4 C 47 % -10.32 C
795 21-02-2011 15:05:02 -0.3 C 46 % -10.5 C
796 21-02-2011 15:17:02 0 C 46 % -10.21 C
797 21-02-2011 15:29:02 -0.2 C 46 % -10.41 C
798 21-02-2011 15:41:02 -0.1 C 47 % -10.05 C
799 21-02-2011 15:53:02 -0.2 C 47 % -10.14 C
800 21-02-2011 16:05:02 -0.6 C 47 % -10.51 C
Sensor: Nr:Datum:Temp:Feuchte:Taupunkt:
Aussen-T/F 801 21-02-2011 16:17:02 -0.7 C 48 % -10.33 C
802 21-02-2011 16:29:02 -0.6 C 49 % -9.98 C
803 21-02-2011 16:41:01 -0.6 C 49 % -9.98 C
804 21-02-2011 16:53:02 -0.7 C 50 % -9.82 C
805 21-02-2011 17:05:01 -0.8 C 50 % -9.91 C
806 21-02-2011 17:17:02 -0.9 C 50 % -10 C
807 21-02-2011 17:29:02 -1 C 51 % -9.85 C
808 21-02-2011 17:41:02 -1.1 C 51 % -9.94 C
809 21-02-2011 17:53:02 -1.2 C 51 % -10.03 C
810 21-02-2011 18:05:03 -1.1 C 52 % -9.69 C
811 21-02-2011 18:17:02 -1.1 C 51 % -9.94 C
812 21-02-2011 18:29:02 -1.2 C 51 % -10.03 C
813 21-02-2011 18:41:02 -1.2 C 52 % -9.79 C
814 21-02-2011 18:53:01 -1.2 C 51 % -10.03 C
815 21-02-2011 19:05:02 -1.2 C 51 % -10.03 C
816 21-02-2011 19:17:01 -1.1 C 51 % -9.94 C
817 21-02-2011 19:29:01 -1.2 C 51 % -10.03 C
818 21-02-2011 19:41:02 -1.1 C 51 % -9.94 C
819 21-02-2011 19:53:01 -1.1 C 51 % -9.94 C
820 21-02-2011 20:05:02 -1.1 C 51 % -9.94 C
821 21-02-2011 20:17:01 -1.1 C 51 % -9.94 C
822 21-02-2011 20:29:01 -1.1 C 52 % -9.69 C
823 21-02-2011 20:41:02 -1.2 C 51 % -10.03 C
824 21-02-2011 20:53:02 -1.1 C 51 % -9.94 C
825 21-02-2011 21:05:02 -1.2 C 52 % -9.79 C
Sensor: Nr:Datum:Temp:Feuchte:Taupunkt:
Aussen-T/F 826 21-02-2011 21:17:01 -1.3 C 53 % -9.64 C
827 21-02-2011 21:29:01 -1.4 C 52 % -9.97 C
828 21-02-2011 21:41:02 -1.3 C 52 % -9.88 C
829 21-02-2011 21:53:02 -1.3 C 50 % -10.37 C
830 21-02-2011 22:05:02 -1.5 C 50 % -10.56 C
831 21-02-2011 22:17:02 -1.5 C 50 % -10.56 C
832 21-02-2011 22:29:02 -1.7 C 49 % -11 C
833 21-02-2011 22:42:10 -1.9 C 50 % -10.93 C
834 21-02-2011 22:54:10 -2 C 50 % -11.02 C
835 21-02-2011 23:06:11 -2.4 C 51 % -11.14 C
836 21-02-2011 23:18:11 -2.6 C 52 % -11.09 C
837 21-02-2011 23:30:11 -2.9 C 53 % -11.13 C
838 21-02-2011 23:42:11 -3.3 C 54 % -11.27 C
839 21-02-2011 23:54:12 -3.7 C 56 % -11.19 C
840 22-02-2011 00:06:12 -3.9 C 57 % -11.15 C
841 22-02-2011 00:18:12 -3.7 C 58 % -10.75 C
842 22-02-2011 00:30:12 -3.6 C 56 % -11.09 C
843 22-02-2011 00:42:12 -3.3 C 55 % -11.04 C
844 22-02-2011 00:54:12 -3.3 C 54 % -11.27 C
845 22-02-2011 01:06:12 -3.1 C 54 % -11.08 C
846 22-02-2011 01:18:12 -3.1 C 53 % -11.31 C
847 22-02-2011 01:30:13 -3.2 C 53 % -11.41 C
848 22-02-2011 01:42:13 -3.3 C 53 % -11.5 C
849 22-02-2011 01:54:13 -3.2 C 53 % -11.41 C
850 22-02-2011 02:06:13 -3.3 C 53 % -11.5 C
Sensor: Nr:Datum:Temp:Feuchte:Taupunkt:
Aussen-T/F 851 22-02-2011 02:18:13 -3.3 C 53 % -11.5 C
852 22-02-2011 02:30:13 -3.3 C 52 % -11.74 C
853 22-02-2011 02:42:13 -3.3 C 52 % -11.74 C
854 22-02-2011 02:54:13 -3.5 C 53 % -11.69 C
855 22-02-2011 03:06:13 -3.7 C 53 % -11.87 C
856 22-02-2011 03:18:13 -3.8 C 53 % -11.97 C
857 22-02-2011 03:30:13 -4 C 53 % -12.15 C
858 22-02-2011 03:42:13 -4.2 C 54 % -12.11 C
859 22-02-2011 03:54:13 -4.4 C 55 % -12.07 C
860 22-02-2011 04:06:13 -4.5 C 55 % -12.16 C
861 22-02-2011 04:18:13 -4.7 C 55 % -12.35 C
862 22-02-2011 04:30:13 -4.9 C 55 % -12.54 C
863 22-02-2011 04:42:13 -5.2 C 56 % -12.59 C
864 22-02-2011 04:54:13 -5.5 C 56 % -12.88 C
865 22-02-2011 05:06:13 -5.6 C 58 % -12.54 C
866 22-02-2011 05:18:13 -5.7 C 58 % -12.63 C
867 22-02-2011 05:30:14 -6 C 58 % -12.91 C
868 22-02-2011 05:42:14 -6.3 C 60 % -12.78 C
869 22-02-2011 05:54:14 -6.7 C 60 % -13.16 C
870 22-02-2011 06:06:14 -7.2 C 62 % -13.23 C
871 22-02-2011 06:18:14 -7.9 C 64 % -13.5 C
872 22-02-2011 06:30:14 -8.1 C 67 % -13.13 C
873 22-02-2011 06:42:14 -8 C 68 % -12.85 C
874 22-02-2011 06:54:14 -7.7 C 69 % -12.39 C
875 22-02-2011 07:06:14 -8 C 68 % -12.85 C
Sensor: Nr:Datum:Temp:Feuchte:Taupunkt:
Aussen-T/F 876 22-02-2011 07:18:03 -8.2 C 69 % -12.87 C
877 22-02-2011 07:30:03 -8.7 C 69 % -13.35 C
878 22-02-2011 07:42:03 -8.4 C 71 % -12.71 C
879 22-02-2011 07:54:02 -8.3 C 71 % -12.61 C
880 22-02-2011 08:06:02 -8.1 C 71 % -12.42 C
881 22-02-2011 08:18:02 -7.7 C 70 % -12.21 C
882 22-02-2011 08:30:02 -7.8 C 67 % -12.85 C
883 22-02-2011 08:42:02 -7.5 C 66 % -12.74 C
884 22-02-2011 08:54:01 -7.5 C 65 % -12.93 C
885 22-02-2011 09:06:01 -7.3 C 65 % -12.74 C
886 22-02-2011 09:18:02 -6.9 C 64 % -12.55 C
887 22-02-2011 09:30:02 -6.9 C 63 % -12.75 C
888 22-02-2011 09:42:01 -6.9 C 62 % -12.94 C
889 22-02-2011 09:54:02 -6.8 C 61 % -13.05 C
890 22-02-2011 10:06:02 -6.5 C 60 % -12.97 C
891 22-02-2011 10:18:02 -6.1 C 59 % -12.8 C
892 22-02-2011 10:30:02 -5.7 C 58 % -12.63 C
893 22-02-2011 10:42:03 -5.3 C 57 % -12.47 C
894 22-02-2011 10:54:01 -5 C 55 % -12.63 C
895 22-02-2011 11:06:02 -4.5 C 53 % -12.62 C
896 22-02-2011 11:18:01 -3.6 C 50 % -12.5 C
897 22-02-2011 11:30:01 -3.7 C 49 % -12.85 C
898 22-02-2011 11:42:01 -3.1 C 47 % -12.81 C
899 22-02-2011 11:54:01 -2.8 C 45 % -13.07 C
900 22-02-2011 12:06:01 -1.9 C 44 % -12.52 C
Sensor: Nr:Datum:Temp:Feuchte:Taupunkt:
Aussen-T/F 901 22-02-2011 12:18:02 -1 C 41 % -12.57 C
902 22-02-2011 12:30:02 -1.1 C 41 % -12.67 C
903 22-02-2011 12:42:01 0.3 C 40 % -11.69 C
904 22-02-2011 12:54:03 3.5 C 31 % -12 C
905 22-02-2011 13:06:02 3.1 C 26 % -14.51 C
906 22-02-2011 13:18:02 3.8 C 26 % -13.9 C
907 22-02-2011 13:30:02 2.3 C 23 % -16.66 C
908 22-02-2011 13:42:02 0.7 C 32 % -14.07 C
909 22-02-2011 13:54:02 -0.2 C 37 % -13.12 C
910 22-02-2011 14:06:02 0.4 C 38 % -12.23 C
911 22-02-2011 14:18:02 1.3 C 35 % -12.44 C
912 22-02-2011 14:30:02 1.3 C 35 % -12.44 C
913 22-02-2011 14:42:02 2.9 C 32 % -12.14 C
914 22-02-2011 14:54:02 2.2 C 30 % -13.54 C
915 22-02-2011 15:06:02 3 C 30 % -12.85 C
916 22-02-2011 15:18:01 4.1 C 27 % -13.19 C
917 22-02-2011 15:30:01 3.5 C 25 % -14.64 C
918 22-02-2011 15:42:02 3 C 25 % -15.07 C
919 22-02-2011 15:54:02 3.8 C 25 % -14.38 C
920 22-02-2011 16:06:02 4.4 C 20 % -16.55 C
921 22-02-2011 16:18:01 6.3 C 20 % -14.97 C
922 22-02-2011 16:30:01 6.6 C 20 % -14.72 C
923 22-02-2011 16:42:02 5.5 C 20 % -15.64 C
924 22-02-2011 16:54:02 6.7 C 20 % -14.64 C
925 22-02-2011 17:06:02 5.2 C 20 % -15.89 C
Sensor: Nr:Datum:Temp:Feuchte:Taupunkt:
Aussen-T/F 926 22-02-2011 17:18:01 4 C 20 % -16.89 C
927 22-02-2011 17:30:01 1 C 36 % -12.36 C
928 22-02-2011 17:42:02 -1.2 C 42 % -12.46 C
929 22-02-2011 17:54:02 -2.5 C 46 % -12.52 C
930 22-02-2011 18:06:02 -3.3 C 50 % -12.23 C
931 22-02-2011 18:18:02 -3.8 C 55 % -11.51 C
932 22-02-2011 18:30:02 -3.8 C 57 % -11.06 C
933 22-02-2011 18:42:02 -4 C 58 % -11.03 C
934 22-02-2011 18:54:02 -3.9 C 60 % -10.51 C
935 22-02-2011 19:06:01 -4.4 C 59 % -11.19 C
936 22-02-2011 19:18:02 -4.5 C 59 % -11.29 C
937 22-02-2011 19:30:03 -4.2 C 60 % -10.79 C
938 22-02-2011 19:42:01 -4.7 C 61 % -11.06 C
939 22-02-2011 19:54:02 -4.8 C 61 % -11.15 C
940 22-02-2011 20:06:03 -4.8 C 59 % -11.57 C
941 22-02-2011 20:18:01 -5.3 C 60 % -11.83 C
942 22-02-2011 20:30:01 -5.4 C 62 % -11.52 C
943 22-02-2011 20:42:01 -5.2 C 64 % -10.93 C
944 22-02-2011 20:54:01 -5 C 66 % -10.36 C
945 22-02-2011 21:06:01 -5.2 C 64 % -10.93 C
946 22-02-2011 21:18:02 -5.1 C 63 % -11.04 C
947 22-02-2011 21:30:02 -5.3 C 62 % -11.43 C
948 22-02-2011 21:42:01 -5.5 C 61 % -11.82 C
949 22-02-2011 21:54:02 -5.7 C 62 % -11.8 C
950 22-02-2011 22:06:01 -5.5 C 62 % -11.61 C
Sensor: Nr:Datum:Temp:Feuchte:Taupunkt:
Aussen-T/F 951 22-02-2011 22:19:03 -5.4 C 62 % -11.52 C
952 22-02-2011 22:31:03 -5.6 C 63 % -11.51 C
953 22-02-2011 22:43:03 -5.5 C 64 % -11.22 C
954 22-02-2011 22:55:03 -5.8 C 61 % -12.1 C
955 22-02-2011 23:07:03 -5.9 C 61 % -12.2 C
956 22-02-2011 23:19:04 -6 C 61 % -12.29 C
957 22-02-2011 23:31:04 -6.1 C 60 % -12.59 C
958 22-02-2011 23:43:04 -6.3 C 59 % -12.99 C
959 22-02-2011 23:55:04 -6.2 C 62 % -12.28 C
960 23-02-2011 00:07:04 -6.4 C 63 % -12.27 C
961 23-02-2011 00:19:04 -6.4 C 63 % -12.27 C
962 23-02-2011 00:31:04 -6.8 C 63 % -12.65 C
963 23-02-2011 00:43:04 -7 C 64 % -12.65 C
964 23-02-2011 00:55:04 -6.9 C 64 % -12.55 C
965 23-02-2011 01:07:04 -6.9 C 65 % -12.36 C
966 23-02-2011 01:19:04 -7.3 C 65 % -12.74 C
967 23-02-2011 01:31:04 -7.4 C 65 % -12.84 C
968 23-02-2011 01:43:04 -7 C 66 % -12.27 C
969 23-02-2011 01:55:04 -7.4 C 65 % -12.84 C
970 23-02-2011 02:07:04 -7.8 C 65 % -13.22 C
971 23-02-2011 02:19:04 -7.8 C 65 % -13.22 C
972 23-02-2011 02:31:04 -7.9 C 65 % -13.31 C
973 23-02-2011 02:43:04 -8.1 C 66 % -13.32 C
974 23-02-2011 02:55:04 -7.9 C 67 % -12.94 C
975 23-02-2011 03:07:04 -7.9 C 68 % -12.76 C
Sensor: Nr:Datum:Temp:Feuchte:Taupunkt:
Aussen-T/F 976 23-02-2011 03:19:05 -7.3 C 68 % -12.18 C
977 23-02-2011 03:31:05 -8.1 C 67 % -13.13 C
978 23-02-2011 03:43:05 -8.6 C 68 % -13.43 C
979 23-02-2011 03:55:05 -8.8 C 69 % -13.44 C
980 23-02-2011 04:07:05 -8.6 C 70 % -13.07 C
981 23-02-2011 04:19:05 -8.5 C 70 % -12.98 C
982 23-02-2011 04:31:05 -8.7 C 70 % -13.17 C
983 23-02-2011 04:43:05 -8.9 C 71 % -13.19 C
984 23-02-2011 04:55:05 -9.1 C 71 % -13.38 C
985 23-02-2011 05:07:05 -8.9 C 72 % -13.02 C
986 23-02-2011 05:19:05 -8.8 C 73 % -12.75 C
987 23-02-2011 05:31:05 -8.7 C 73 % -12.65 C
988 23-02-2011 05:43:05 -8.7 C 73 % -12.65 C
989 23-02-2011 05:55:05 -8.9 C 72 % -13.02 C
990 23-02-2011 06:07:05 -9.1 C 72 % -13.21 C
991 23-02-2011 06:19:05 -9.4 C 72 % -13.5 C
992 23-02-2011 06:31:05 -9.5 C 72 % -13.59 C
993 23-02-2011 06:43:05 -9.4 C 72 % -13.5 C
994 23-02-2011 06:55:05 -9.4 C 72 % -13.5 C
995 23-02-2011 07:07:05 -9.5 C 72 % -13.59 C
996 23-02-2011 07:19:02 -9.1 C 73 % -13.04 C
997 23-02-2011 07:31:02 -9.2 C 73 % -13.14 C
998 23-02-2011 07:43:02 -9.3 C 73 % -13.23 C
999 23-02-2011 07:55:02 -8.8 C 74 % -12.58 C
1000 23-02-2011 08:07:02 -8.3 C 75 % -11.93 C
Sensor: Nr:Datum:Temp:Feuchte:Taupunkt:
Aussen-T/F 1001 23-02-2011 08:19:01 -7.9 C 75 % -11.54 C
1002 23-02-2011 08:31:02 -7.6 C 75 % -11.25 C
1003 23-02-2011 08:43:02 -7.2 C 75 % -10.87 C
1004 23-02-2011 08:55:02 -6.5 C 74 % -10.36 C
1005 23-02-2011 09:07:02 -5.8 C 73 % -9.85 C
1006 23-02-2011 09:19:01 -5.3 C 70 % -9.9 C
1007 23-02-2011 09:31:02 -4.8 C 67 % -9.97 C
1008 23-02-2011 09:43:02 -4.5 C 65 % -10.07 C
1009 23-02-2011 09:55:02 -3.8 C 61 % -10.21 C
1010 23-02-2011 10:07:02 -3.3 C 61 % -9.73 C
1011 23-02-2011 10:19:02 -2.7 C 59 % -9.59 C
1012 23-02-2011 10:31:02 -2.3 C 56 % -9.87 C
1013 23-02-2011 10:43:02 -1.8 C 53 % -10.1 C
1014 23-02-2011 10:55:02 -1.3 C 49 % -10.63 C
1015 23-02-2011 11:07:01 -0.9 C 46 % -11.05 C
1016 23-02-2011 11:19:01 -0.5 C 44 % -11.24 C
1017 23-02-2011 11:31:02 -0.6 C 41 % -12.21 C
1018 23-02-2011 11:43:02 0.3 C 38 % -12.32 C
1019 23-02-2011 11:55:02 0.2 C 39 % -12.09 C
1020 23-02-2011 12:07:02 1.1 C 37 % -11.94 C
1021 23-02-2011 12:19:02 1.2 C 32 % -13.63 C
1022 23-02-2011 12:31:02 1.3 C 29 % -14.74 C
1023 23-02-2011 12:43:02 1.8 C 23 % -17.08 C
1024 23-02-2011 12:55:02 3.2 C 20 % -17.56 C
1025 23-02-2011 13:07:02 4.4 C 20 % -16.55 C
Sensor: Nr:Datum:Temp:Feuchte:Taupunkt:
Aussen-T/F 1026 23-02-2011 13:19:02 3.1 C 20 % -17.64 C
1027 23-02-2011 13:31:02 3.8 C 20 % -17.05 C
1028 23-02-2011 13:43:02 3.3 C 20 % -17.47 C
1029 23-02-2011 13:55:02 3.7 C 20 % -17.14 C
1030 23-02-2011 14:07:02 3.9 C 20 % -16.97 C
1031 23-02-2011 14:19:03 4.2 C 20 % -16.72 C
1032 23-02-2011 14:31:02 3.9 C 20 % -16.97 C
1033 23-02-2011 14:43:02 3.8 C 20 % -17.05 C
1034 23-02-2011 14:55:02 4 C 20 % -16.89 C
1035 23-02-2011 15:07:02 4.1 C 20 % -16.8 C
1036 23-02-2011 15:19:02 3.7 C 20 % -17.14 C
1037 23-02-2011 15:31:02 3.5 C 20 % -17.31 C
1038 23-02-2011 15:43:02 3.7 C 20 % -17.14 C
1039 23-02-2011 15:55:02 3.7 C 20 % -17.14 C
1040 23-02-2011 16:07:01 3.2 C 20 % -17.56 C
1041 23-02-2011 16:19:02 3 C 20 % -17.72 C
1042 23-02-2011 16:31:02 3.1 C 20 % -17.64 C
1043 23-02-2011 16:43:02 2.8 C 20 % -17.89 C
1044 23-02-2011 16:55:01 2.9 C 20 % -17.81 C
1045 23-02-2011 17:07:02 2.3 C 20 % -18.31 C
1046 23-02-2011 17:19:01 1.6 C 30 % -14.07 C
1047 23-02-2011 17:31:02 1.4 C 30 % -14.24 C
1048 23-02-2011 17:43:02 0.8 C 35 % -12.89 C
1049 23-02-2011 17:55:02 0.2 C 41 % -11.47 C
1050 23-02-2011 18:07:02 -0.1 C 45 % -10.6 C
Sensor: Nr:Datum:Temp:Feuchte:Taupunkt:
Aussen-T/F 1051 23-02-2011 18:19:01 -0.2 C 45 % -10.69 C
1052 23-02-2011 18:31:02 -0.3 C 45 % -10.78 C
1053 23-02-2011 18:43:02 -0.3 C 46 % -10.5 C
1054 23-02-2011 18:55:02 -0.6 C 48 % -10.24 C
1055 23-02-2011 19:07:02 0.1 C 45 % -10.4 C
1056 23-02-2011 19:19:02 0.1 C 42 % -11.26 C
1057 23-02-2011 19:31:02 0.4 C 42 % -10.99 C
1058 23-02-2011 19:43:02 0.3 C 42 % -11.08 C
1059 23-02-2011 19:55:02 0.4 C 41 % -11.29 C
1060 23-02-2011 20:07:02 0.3 C 41 % -11.38 C
1061 23-02-2011 20:19:02 0.2 C 41 % -11.47 C
1062 23-02-2011 20:31:02 0.1 C 43 % -10.97 C
1063 23-02-2011 20:43:02 -0.3 C 45 % -10.78 C
1064 23-02-2011 20:55:02 0.1 C 45 % -10.4 C
1065 23-02-2011 21:07:02 0.5 C 42 % -10.9 C
1066 23-02-2011 21:19:02 0.1 C 45 % -10.4 C
1067 23-02-2011 21:31:02 -0.2 C 47 % -10.14 C
1068 23-02-2011 21:43:02 -0.3 C 49 % -9.7 C
1069 23-02-2011 21:55:02 -0.4 C 50 % -9.54 C
1070 23-02-2011 22:07:02 -0.1 C 49 % -9.52 C
1071 23-02-2011 22:19:02 0 C 47 % -9.94 C
1072 23-02-2011 22:31:02 -0.1 C 48 % -9.78 C
1073 23-02-2011 22:43:02 -0.1 C 49 % -9.52 C
1074 23-02-2011 22:55:02 -0.1 C 48 % -9.78 C
1075 23-02-2011 23:07:02 -0.2 C 52 % -8.86 C
Sensor: Nr:Datum:Temp:Feuchte:Taupunkt:
Aussen-T/F 1076 23-02-2011 23:19:02 -0.3 C 50 % -9.45 C
1077 23-02-2011 23:31:02 -0.2 C 54 % -8.37 C
1078 23-02-2011 23:43:02 -0.3 C 54 % -8.47 C
1079 23-02-2011 23:55:01 -0.3 C 54 % -8.47 C
1080 24-02-2011 00:07:01 -0.3 C 55 % -8.23 C
1081 24-02-2011 00:19:02 -0.4 C 54 % -8.56 C
1082 24-02-2011 00:31:01 -0.4 C 55 % -8.33 C
1083 24-02-2011 00:43:01 -0.5 C 55 % -8.42 C
1084 24-02-2011 00:55:03 -0.6 C 56 % -8.28 C
1085 24-02-2011 01:07:02 -0.7 C 57 % -8.15 C
1086 24-02-2011 01:19:02 -0.9 C 58 % -8.11 C
1087 24-02-2011 01:31:03 -0.9 C 59 % -7.89 C
1088 24-02-2011 01:43:03 -0.6 C 59 % -7.61 C
1089 24-02-2011 01:55:02 -0.6 C 58 % -7.83 C
1090 24-02-2011 02:07:01 -0.6 C 58 % -7.83 C
1091 24-02-2011 02:19:02 -0.6 C 58 % -7.83 C
1092 24-02-2011 02:31:02 -0.5 C 56 % -8.19 C
1093 24-02-2011 02:43:02 -0.4 C 52 % -9.04 C
1094 24-02-2011 02:56:03 -0.3 C 54 % -8.47 C
1095 24-02-2011 03:08:03 -0.2 C 55 % -8.14 C
1096 24-02-2011 03:20:04 -0.2 C 57 % -7.68 C
1097 24-02-2011 03:32:02 -0.2 C 57 % -7.68 C
1098 24-02-2011 03:44:02 0 C 57 % -7.48 C
1099 24-02-2011 03:56:03 0 C 57 % -7.48 C
1100 24-02-2011 04:08:01 0.1 C 58 % -7.16 C
Sensor: Nr:Datum:Temp:Feuchte:Taupunkt:
Aussen-T/F 1101 24-02-2011 04:20:02 0.4 C 54 % -7.8 C
1102 24-02-2011 04:32:02 0.4 C 55 % -7.57 C
1103 24-02-2011 04:44:02 0 C 62 % -6.39 C
1104 24-02-2011 04:56:01 -0.3 C 66 % -5.87 C
1105 24-02-2011 05:08:02 -0.6 C 70 % -5.38 C
1106 24-02-2011 05:20:01 -0.8 C 71 % -5.39 C
1107 24-02-2011 05:32:01 -0.8 C 75 % -4.67 C
1108 24-02-2011 05:44:02 -1 C 77 % -4.51 C
1109 24-02-2011 05:56:01 -1 C 79 % -4.17 C
1110 24-02-2011 06:08:02 -0.9 C 80 % -3.91 C
1111 24-02-2011 06:20:01 -0.9 C 79 % -4.08 C
1112 24-02-2011 06:32:02 -0.9 C 78 % -4.24 C
1113 24-02-2011 06:44:02 -0.9 C 78 % -4.24 C
1114 24-02-2011 06:56:01 -0.8 C 78 % -4.15 C
1115 24-02-2011 07:08:02 -0.8 C 79 % -3.98 C
1116 24-02-2011 07:20:02 -0.8 C 79 % -3.98 C
1117 24-02-2011 07:32:03 -0.8 C 80 % -3.81 C
1118 24-02-2011 07:44:03 -0.7 C 80 % -3.71 C
1119 24-02-2011 07:56:02 -0.7 C 80 % -3.71 C
1120 24-02-2011 08:08:02 -0.6 C 81 % -3.45 C
1121 24-02-2011 08:20:02 -0.6 C 82 % -3.29 C
1122 24-02-2011 08:32:02 -0.5 C 82 % -3.19 C
1123 24-02-2011 08:44:02 -0.3 C 83 % -2.83 C
1124 24-02-2011 08:56:02 0 C 83 % -2.53 C
1125 24-02-2011 09:08:03 0 C 82 % -2.7 C
Sensor: Nr:Datum:Temp:Feuchte:Taupunkt:
Aussen-T/F 1126 24-02-2011 09:20:02 0.1 C 82 % -2.6 C
1127 24-02-2011 09:32:03 0.1 C 82 % -2.6 C
1128 24-02-2011 09:44:03 0.1 C 82 % -2.6 C
1129 24-02-2011 09:56:02 0.3 C 82 % -2.4 C
1130 24-02-2011 10:08:02 0.4 C 82 % -2.3 C
1131 24-02-2011 10:20:02 0.6 C 82 % -2.11 C
1132 24-02-2011 10:32:02 0.7 C 82 % -2.01 C
1133 24-02-2011 10:44:02 1 C 80 % -2.05 C
1134 24-02-2011 10:56:02 1.1 C 80 % -1.96 C
1135 24-02-2011 11:08:02 1.1 C 79 % -2.12 C
1136 24-02-2011 11:20:03 1.5 C 79 % -1.74 C
1137 24-02-2011 11:32:02 1.7 C 77 % -1.89 C
1138 24-02-2011 11:44:02 1.8 C 77 % -1.79 C
1139 24-02-2011 11:56:03 1.8 C 76 % -1.97 C
1140 24-02-2011 12:08:02 1.9 C 76 % -1.87 C
1141 24-02-2011 12:20:02 2.5 C 75 % -1.47 C
1142 24-02-2011 12:32:02 2.5 C 75 % -1.47 C
1143 24-02-2011 12:44:02 2.9 C 74 % -1.27 C
1144 24-02-2011 12:56:02 3.5 C 69 % -1.64 C
1145 24-02-2011 13:08:02 3.4 C 68 % -1.93 C
1146 24-02-2011 13:20:02 3.1 C 68 % -2.22 C
1147 24-02-2011 13:32:02 3.9 C 69 % -1.26 C
1148 24-02-2011 13:44:02 3.4 C 68 % -1.93 C
1149 24-02-2011 13:56:02 3.1 C 69 % -2.02 C
1150 24-02-2011 14:08:02 2.6 C 72 % -1.93 C
Sensor: Nr:Datum:Temp:Feuchte:Taupunkt:
Aussen-T/F 1151 24-02-2011 14:20:01 2.3 C 74 % -1.85 C
1152 24-02-2011 14:32:02 2.5 C 76 % -1.29 C
1153 24-02-2011 14:44:02 2.7 C 75 % -1.28 C
1154 24-02-2011 14:56:02 3 C 74 % -1.17 C
1155 24-02-2011 15:08:02 3.4 C 73 % -0.97 C
1156 24-02-2011 15:20:02 3.4 C 71 % -1.35 C
1157 24-02-2011 15:32:02 3 C 71 % -1.73 C
1158 24-02-2011 15:44:02 3.1 C 72 % -1.45 C
1159 24-02-2011 15:56:01 3 C 73 % -1.35 C
1160 24-02-2011 16:08:01 2.8 C 74 % -1.36 C
1161 24-02-2011 16:20:02 2.7 C 74 % -1.46 C
1162 24-02-2011 16:32:01 2.6 C 75 % -1.37 C
1163 24-02-2011 16:44:01 2.3 C 76 % -1.48 C
1164 24-02-2011 16:56:02 2.2 C 78 % -1.23 C
1165 24-02-2011 17:08:02 2 C 79 % -1.25 C
1166 24-02-2011 17:20:03 1.8 C 81 % -1.1 C
1167 24-02-2011 17:32:02 1.5 C 82 % -1.23 C
1168 24-02-2011 17:44:02 1.4 C 84 % -1 C
1169 24-02-2011 17:56:02 1.5 C 84 % -0.9 C
1170 24-02-2011 18:08:02 1.5 C 85 % -0.74 C
1171 24-02-2011 18:20:02 1.3 C 85 % -0.94 C
1172 24-02-2011 18:32:03 1.2 C 85 % -1.03 C
1173 24-02-2011 18:44:03 1.2 C 86 % -0.88 C
1174 24-02-2011 18:56:02 1.2 C 86 % -0.88 C
1175 24-02-2011 19:08:01 1.2 C 87 % -0.72 C
Sensor: Nr:Datum:Temp:Feuchte:Taupunkt:
Aussen-T/F 1176 24-02-2011 19:20:02 1.2 C 87 % -0.72 C
1177 24-02-2011 19:32:02 1.3 C 87 % -0.62 C
1178 24-02-2011 19:44:02 1.3 C 87 % -0.62 C
1179 24-02-2011 19:56:01 1.3 C 88 % -0.46 C
1180 24-02-2011 20:08:02 1.3 C 88 % -0.46 C
1181 24-02-2011 20:20:01 1.3 C 88 % -0.46 C
1182 24-02-2011 20:32:02 1.2 C 88 % -0.56 C
1183 24-02-2011 20:44:02 1.3 C 88 % -0.46 C
1184 24-02-2011 20:56:02 1.3 C 88 % -0.46 C
1185 24-02-2011 21:08:02 1.3 C 88 % -0.46 C
1186 24-02-2011 21:20:01 1.3 C 88 % -0.46 C
1187 24-02-2011 21:33:03 1.3 C 89 % -0.31 C
1188 24-02-2011 21:45:03 1.3 C 89 % -0.31 C
1189 24-02-2011 21:57:03 1.4 C 89 % -0.21 C
1190 24-02-2011 22:09:03 1.4 C 89 % -0.21 C
1191 24-02-2011 22:21:03 1.4 C 89 % -0.21 C
1192 24-02-2011 22:33:03 1.4 C 89 % -0.21 C
1193 24-02-2011 22:45:03 1.4 C 89 % -0.21 C
1194 24-02-2011 22:57:03 1.4 C 89 % -0.21 C
1195 24-02-2011 23:09:03 1.4 C 89 % -0.21 C
1196 24-02-2011 23:21:03 1.4 C 89 % -0.21 C
1197 24-02-2011 23:33:03 1.4 C 89 % -0.21 C
1198 24-02-2011 23:45:03 1.4 C 89 % -0.21 C
1199 24-02-2011 23:57:03 1.4 C 89 % -0.21 C
1200 25-02-2011 00:09:03 1.4 C 89 % -0.21 C
Sensor: Nr:Datum:Temp:Feuchte:Taupunkt:
Aussen-T/F 1201 25-02-2011 00:21:03 1.4 C 89 % -0.21 C
1202 25-02-2011 00:33:04 1.5 C 89 % -0.11 C
1203 25-02-2011 00:45:04 1.5 C 89 % -0.11 C
1204 25-02-2011 00:57:04 1.4 C 89 % -0.21 C
1205 25-02-2011 01:09:04 1.4 C 89 % -0.21 C
1206 25-02-2011 01:21:04 1.5 C 89 % -0.11 C
1207 25-02-2011 01:33:04 1.4 C 90 % -0.06 C
1208 25-02-2011 01:45:04 1.4 C 90 % -0.06 C
1209 25-02-2011 01:57:04 1.5 C 90 % 0.04 C
1210 25-02-2011 02:09:04 1.4 C 90 % -0.06 C
1211 25-02-2011 02:21:04 1.4 C 90 % -0.06 C
1212 25-02-2011 02:33:04 1.4 C 90 % -0.06 C
1213 25-02-2011 02:45:04 1.4 C 90 % -0.06 C
1214 25-02-2011 02:57:04 1.5 C 90 % 0.04 C
1215 25-02-2011 03:09:04 1.5 C 90 % 0.04 C
1216 25-02-2011 03:21:04 1.5 C 90 % 0.04 C
1217 25-02-2011 03:33:04 1.6 C 90 % 0.14 C
1218 25-02-2011 03:45:04 1.5 C 90 % 0.04 C
1219 25-02-2011 03:57:04 1.4 C 90 % -0.06 C
1220 25-02-2011 04:09:04 1.5 C 90 % 0.04 C
1221 25-02-2011 04:21:04 1.4 C 90 % -0.06 C
1222 25-02-2011 04:33:04 1.5 C 90 % 0.04 C
1223 25-02-2011 04:45:05 1.5 C 90 % 0.04 C
1224 25-02-2011 04:57:05 1.5 C 90 % 0.04 C
1225 25-02-2011 05:09:05 1.6 C 91 % 0.29 C
Sensor: Nr:Datum:Temp:Feuchte:Taupunkt:
Aussen-T/F 1226 25-02-2011 05:21:05 1.6 C 91 % 0.29 C
1227 25-02-2011 05:33:05 1.6 C 91 % 0.29 C
1228 25-02-2011 05:45:05 1.7 C 91 % 0.39 C
1229 25-02-2011 05:57:05 1.7 C 91 % 0.39 C
1230 25-02-2011 06:09:05 1.7 C 91 % 0.39 C
1231 25-02-2011 06:21:05 1.6 C 91 % 0.29 C
1232 25-02-2011 06:33:05 1.7 C 91 % 0.39 C
1233 25-02-2011 06:45:05 1.7 C 91 % 0.39 C
1234 25-02-2011 06:57:05 1.8 C 91 % 0.49 C
1235 25-02-2011 07:09:05 1.8 C 91 % 0.49 C
1236 25-02-2011 07:21:03 1.9 C 91 % 0.59 C
1237 25-02-2011 07:33:02 1.9 C 91 % 0.59 C
1238 25-02-2011 07:45:03 1.7 C 91 % 0.39 C
1239 25-02-2011 07:57:03 1.8 C 91 % 0.49 C
1240 25-02-2011 08:09:02 1.8 C 91 % 0.49 C
1241 25-02-2011 08:21:02 2 C 90 % 0.54 C
1242 25-02-2011 08:33:02 2.2 C 90 % 0.73 C
1243 25-02-2011 08:45:02 2.4 C 91 % 1.08 C
1244 25-02-2011 08:57:03 2.6 C 91 % 1.28 C
1245 25-02-2011 09:09:01 2.6 C 90 % 1.13 C
1246 25-02-2011 09:21:02 2.7 C 90 % 1.23 C
1247 25-02-2011 09:33:02 2.7 C 90 % 1.23 C
1248 25-02-2011 09:45:02 3.3 C 90 % 1.82 C
1249 25-02-2011 09:57:02 3.3 C 89 % 1.67 C
1250 25-02-2011 10:09:03 3.4 C 88 % 1.61 C
Sensor: Nr:Datum:Temp:Feuchte:Taupunkt:
Aussen-T/F 1251 25-02-2011 10:21:02 3.3 C 87 % 1.35 C
1252 25-02-2011 10:33:02 3.9 C 87 % 1.94 C
1253 25-02-2011 10:45:01 4 C 85 % 1.71 C
1254 25-02-2011 10:57:01 3.8 C 85 % 1.52 C
1255 25-02-2011 11:09:02 4.4 C 83 % 1.77 C
1256 25-02-2011 11:21:01 4.3 C 82 % 1.51 C
1257 25-02-2011 11:33:01 4.3 C 81 % 1.34 C
1258 25-02-2011 11:45:01 4.7 C 81 % 1.73 C
1259 25-02-2011 11:57:01 5.1 C 78 % 1.59 C
1260 25-02-2011 12:09:01 5.1 C 76 % 1.23 C
1261 25-02-2011 12:21:02 5.6 C 75 % 1.53 C
1262 25-02-2011 12:33:01 5.1 C 74 % 0.86 C
1263 25-02-2011 12:45:03 5.6 C 74 % 1.34 C
1264 25-02-2011 12:57:03 5.2 C 73 % 0.77 C
1265 25-02-2011 13:09:02 5.8 C 74 % 1.53 C
1266 25-02-2011 13:21:02 6.3 C 72 % 1.63 C
1267 25-02-2011 13:33:02 6.3 C 70 % 1.24 C
1268 25-02-2011 13:45:02 6.2 C 71 % 1.34 C
1269 25-02-2011 13:57:03 6 C 70 % 0.95 C
1270 25-02-2011 14:09:01 6.1 C 71 % 1.25 C
1271 25-02-2011 14:21:02 6.2 C 71 % 1.34 C
1272 25-02-2011 14:33:03 6.3 C 72 % 1.63 C
1273 25-02-2011 14:45:02 5.8 C 71 % 0.96 C
1274 25-02-2011 14:57:03 5.9 C 72 % 1.25 C
1275 25-02-2011 15:09:01 6.3 C 71 % 1.44 C
Sensor: Nr:Datum:Temp:Feuchte:Taupunkt:
Aussen-T/F 1276 25-02-2011 15:21:01 6.4 C 71 % 1.54 C
1277 25-02-2011 15:33:02 6.1 C 70 % 1.05 C
1278 25-02-2011 15:45:02 6 C 72 % 1.35 C
1279 25-02-2011 15:57:02 5.9 C 74 % 1.63 C
1280 25-02-2011 16:09:02 5.9 C 75 % 1.82 C
1281 25-02-2011 16:21:02 5.4 C 76 % 1.52 C
1282 25-02-2011 16:33:02 5.3 C 78 % 1.78 C
1283 25-02-2011 16:45:02 5.2 C 79 % 1.86 C
1284 25-02-2011 16:57:02 5.1 C 79 % 1.77 C
1285 25-02-2011 17:09:02 5 C 79 % 1.67 C
1286 25-02-2011 17:21:02 4.8 C 81 % 1.82 C
1287 25-02-2011 17:33:02 4.8 C 79 % 1.47 C
1288 25-02-2011 17:45:02 4.5 C 80 % 1.36 C
1289 25-02-2011 17:57:02 4.2 C 81 % 1.24 C
1290 25-02-2011 18:09:02 4.1 C 81 % 1.14 C
1291 25-02-2011 18:21:02 4.1 C 82 % 1.31 C
1292 25-02-2011 18:33:02 4.2 C 82 % 1.41 C
1293 25-02-2011 18:45:02 4.3 C 82 % 1.51 C
1294 25-02-2011 18:57:02 4.4 C 82 % 1.6 C
1295 25-02-2011 19:09:02 4.1 C 82 % 1.31 C
1296 25-02-2011 19:21:02 4 C 82 % 1.21 C
1297 25-02-2011 19:33:01 3.8 C 83 % 1.19 C
1298 25-02-2011 19:45:02 3.9 C 84 % 1.45 C
1299 25-02-2011 19:57:02 3.9 C 84 % 1.45 C
1300 25-02-2011 20:09:01 3.8 C 84 % 1.35 C
Sensor: Nr:Datum:Temp:Feuchte:Taupunkt:
Aussen-T/F 1301 25-02-2011 20:21:01 3.8 C 84 % 1.35 C
1302 25-02-2011 20:33:02 3.8 C 84 % 1.35 C
1303 25-02-2011 20:45:02 3.9 C 85 % 1.61 C
1304 25-02-2011 20:57:02 3.8 C 85 % 1.52 C
1305 25-02-2011 21:09:02 3.7 C 85 % 1.42 C
1306 25-02-2011 21:21:02 3.7 C 85 % 1.42 C
1307 25-02-2011 21:33:02 3.6 C 85 % 1.32 C
1308 25-02-2011 21:45:02 3.6 C 86 % 1.48 C
1309 25-02-2011 21:57:02 3.6 C 86 % 1.48 C
1310 25-02-2011 22:09:02 3.7 C 86 % 1.58 C
1311 25-02-2011 22:21:03 3.7 C 86 % 1.58 C
1312 25-02-2011 22:34:04 3.7 C 86 % 1.58 C
1313 25-02-2011 22:46:04 3.8 C 87 % 1.84 C
1314 25-02-2011 22:58:04 4 C 86 % 1.88 C
1315 25-02-2011 23:10:04 4 C 85 % 1.71 C
1316 25-02-2011 23:22:04 3.9 C 86 % 1.78 C
1317 25-02-2011 23:34:04 3.8 C 86 % 1.68 C
1318 25-02-2011 23:46:04 3.7 C 86 % 1.58 C
1319 25-02-2011 23:58:04 3.6 C 86 % 1.48 C
1320 26-02-2011 00:10:04 3.6 C 86 % 1.48 C
1321 26-02-2011 00:22:04 3.6 C 86 % 1.48 C
1322 26-02-2011 00:34:04 3.6 C 86 % 1.48 C
1323 26-02-2011 00:46:04 3.6 C 86 % 1.48 C
1324 26-02-2011 00:58:04 3.6 C 87 % 1.64 C
1325 26-02-2011 01:10:04 3.6 C 87 % 1.64 C
Sensor: Nr:Datum:Temp:Feuchte:Taupunkt:
Aussen-T/F 1326 26-02-2011 01:22:04 3.5 C 87 % 1.55 C
1327 26-02-2011 01:34:04 3.5 C 87 % 1.55 C
1328 26-02-2011 01:46:05 3.5 C 87 % 1.55 C
1329 26-02-2011 01:58:05 3.5 C 87 % 1.55 C
1330 26-02-2011 02:10:05 3.5 C 87 % 1.55 C
1331 26-02-2011 02:22:05 3.5 C 87 % 1.55 C
1332 26-02-2011 02:34:05 3.5 C 87 % 1.55 C
1333 26-02-2011 02:46:05 3.5 C 87 % 1.55 C
1334 26-02-2011 02:58:05 3.5 C 87 % 1.55 C
1335 26-02-2011 03:10:05 3.5 C 86 % 1.38 C
1336 26-02-2011 03:22:05 3.4 C 86 % 1.29 C
1337 26-02-2011 03:34:05 3.4 C 86 % 1.29 C
1338 26-02-2011 03:46:05 3.4 C 86 % 1.29 C
1339 26-02-2011 03:58:05 3.4 C 86 % 1.29 C
1340 26-02-2011 04:10:05 3.3 C 86 % 1.19 C
1341 26-02-2011 04:22:05 3.3 C 86 % 1.19 C
1342 26-02-2011 04:34:05 3.4 C 86 % 1.29 C
1343 26-02-2011 04:46:05 3.5 C 86 % 1.38 C
1344 26-02-2011 04:58:05 3.4 C 86 % 1.29 C
1345 26-02-2011 05:10:05 3.3 C 86 % 1.19 C
1346 26-02-2011 05:22:05 3.4 C 86 % 1.29 C
1347 26-02-2011 05:34:05 3.8 C 85 % 1.52 C
1348 26-02-2011 05:46:06 4.1 C 82 % 1.31 C
1349 26-02-2011 05:58:06 4.1 C 79 % 0.79 C
1350 26-02-2011 06:10:06 4.1 C 77 % 0.44 C
Sensor: Nr:Datum:Temp:Feuchte:Taupunkt:
Aussen-T/F 1351 26-02-2011 06:22:06 4 C 77 % 0.34 C
1352 26-02-2011 06:34:06 3.7 C 78 % 0.23 C
1353 26-02-2011 06:46:06 3.4 C 79 % 0.11 C
1354 26-02-2011 06:58:06 2.9 C 82 % 0.14 C
1355 26-02-2011 07:10:06 2.7 C 83 % 0.11 C
1356 26-02-2011 07:22:06 2.7 C 84 % 0.27 C
1357 26-02-2011 07:34:06 2.6 C 85 % 0.34 C
1358 26-02-2011 07:46:06 2.9 C 85 % 0.63 C
1359 26-02-2011 07:58:06 3.6 C 83 % 0.99 C
1360 26-02-2011 08:10:06 3.8 C 79 % 0.5 C
1361 26-02-2011 08:22:06 3.8 C 78 % 0.33 C
1362 26-02-2011 08:34:03 3.9 C 78 % 0.42 C
1363 26-02-2011 08:46:02 4 C 76 % 0.16 C
1364 26-02-2011 08:58:02 4.2 C 75 % 0.17 C
1365 26-02-2011 09:10:02 4.2 C 74 % -0.01 C
1366 26-02-2011 09:22:02 4.2 C 73 % -0.2 C
1367 26-02-2011 09:34:02 4.1 C 73 % -0.29 C
1368 26-02-2011 09:46:02 3.9 C 73 % -0.49 C
1369 26-02-2011 09:58:03 4.1 C 72 % -0.48 C
1370 26-02-2011 10:10:01 4.1 C 72 % -0.48 C
1371 26-02-2011 10:22:02 4.3 C 71 % -0.48 C
1372 26-02-2011 10:34:02 4.7 C 69 % -0.49 C
1373 26-02-2011 10:46:02 5.2 C 67 % -0.41 C
1374 26-02-2011 10:58:02 5.7 C 65 % -0.35 C
1375 26-02-2011 11:10:03 5.6 C 63 % -0.87 C
Sensor: Nr:Datum:Temp:Feuchte:Taupunkt:
Aussen-T/F 1376 26-02-2011 11:22:02 5.6 C 62 % -1.09 C
1377 26-02-2011 11:34:03 5.6 C 62 % -1.09 C
1378 26-02-2011 11:46:02 6.5 C 62 % -0.24 C
1379 26-02-2011 11:58:02 6.1 C 60 % -1.07 C
1380 26-02-2011 12:10:02 7.4 C 58 % -0.31 C
1381 26-02-2011 12:22:02 7.8 C 56 % -0.41 C
1382 26-02-2011 12:34:02 8 C 53 % -0.98 C
1383 26-02-2011 12:46:02 7.7 C 55 % -0.75 C
1384 26-02-2011 12:58:02 7.1 C 57 % -0.83 C
1385 26-02-2011 13:10:02 7.4 C 57 % -0.55 C
1386 26-02-2011 13:22:02 8.4 C 54 % -0.35 C
1387 26-02-2011 13:34:02 8.6 C 51 % -0.95 C
1388 26-02-2011 13:46:02 8.9 C 53 % -0.15 C
1389 26-02-2011 13:58:02 8.7 C 53 % -0.33 C
1390 26-02-2011 14:10:02 8.6 C 53 % -0.42 C
1391 26-02-2011 14:22:02 8 C 56 % -0.23 C
1392 26-02-2011 14:34:02 8.9 C 54 % 0.11 C
1393 26-02-2011 14:46:02 9.5 C 51 % -0.12 C
1394 26-02-2011 14:58:02 8.8 C 52 % -0.5 C
1395 26-02-2011 15:10:02 8.7 C 53 % -0.33 C
1396 26-02-2011 15:22:03 8 C 56 % -0.23 C
1397 26-02-2011 15:34:02 7.7 C 58 % -0.03 C
1398 26-02-2011 15:46:02 7.7 C 60 % 0.44 C
1399 26-02-2011 15:58:02 7.8 C 58 % 0.07 C
1400 26-02-2011 16:10:02 7.7 C 58 % -0.03 C
Sensor: Nr:Datum:Temp:Feuchte:Taupunkt:
Aussen-T/F 1401 26-02-2011 16:22:02 7.4 C 60 % 0.16 C
1402 26-02-2011 16:34:01 7 C 62 % 0.23 C
1403 26-02-2011 16:46:02 6.9 C 64 % 0.57 C
1404 26-02-2011 16:58:03 6.7 C 65 % 0.6 C
1405 26-02-2011 17:10:01 6.7 C 66 % 0.81 C
1406 26-02-2011 17:22:01 6.6 C 67 % 0.92 C
1407 26-02-2011 17:34:02 6.4 C 68 % 0.94 C
1408 26-02-2011 17:46:02 6.3 C 69 % 1.04 C
1409 26-02-2011 17:58:02 6 C 71 % 1.15 C
1410 26-02-2011 18:10:02 5.8 C 74 % 1.53 C
1411 26-02-2011 18:22:02 5.8 C 75 % 1.72 C
1412 26-02-2011 18:34:02 5.6 C 76 % 1.71 C
1413 26-02-2011 18:46:02 5.4 C 77 % 1.7 C
1414 26-02-2011 18:58:02 5.2 C 80 % 2.04 C
1415 26-02-2011 19:10:02 5.1 C 83 % 2.46 C
1416 26-02-2011 19:22:02 5 C 84 % 2.53 C
1417 26-02-2011 19:34:02 5 C 84 % 2.53 C
1418 26-02-2011 19:46:02 4.8 C 86 % 2.66 C
1419 26-02-2011 19:58:02 4.9 C 86 % 2.76 C
1420 26-02-2011 20:10:02 4.8 C 86 % 2.66 C
1421 26-02-2011 20:22:02 4.9 C 86 % 2.76 C
1422 26-02-2011 20:34:02 4.7 C 87 % 2.73 C
1423 26-02-2011 20:46:02 4.7 C 87 % 2.73 C
1424 26-02-2011 20:58:02 4.6 C 87 % 2.63 C
1425 26-02-2011 21:10:02 4.6 C 88 % 2.79 C
Sensor: Nr:Datum:Temp:Feuchte:Taupunkt:
Aussen-T/F 1426 26-02-2011 21:22:02 4.6 C 88 % 2.79 C
1427 26-02-2011 21:34:01 4.6 C 88 % 2.79 C
1428 26-02-2011 21:47:02 4.6 C 88 % 2.79 C
1429 26-02-2011 21:59:02 4.6 C 88 % 2.79 C
1430 26-02-2011 22:11:02 4.7 C 88 % 2.89 C
1431 26-02-2011 22:23:02 4.6 C 89 % 2.95 C
1432 26-02-2011 22:35:02 4.4 C 89 % 2.75 C
1433 26-02-2011 22:47:02 4.4 C 89 % 2.75 C
1434 26-02-2011 22:59:02 4.3 C 89 % 2.65 C
1435 26-02-2011 23:11:02 4.3 C 89 % 2.65 C
1436 26-02-2011 23:23:02 4.4 C 89 % 2.75 C
1437 26-02-2011 23:35:02 4.7 C 90 % 3.2 C
1438 26-02-2011 23:47:02 5 C 89 % 3.34 C
1439 26-02-2011 23:59:03 5.1 C 89 % 3.44 C
1440 27-02-2011 00:11:03 5.1 C 90 % 3.6 C
1441 27-02-2011 00:23:03 4.7 C 90 % 3.2 C
1442 27-02-2011 00:35:03 4.5 C 90 % 3.01 C
1443 27-02-2011 00:47:03 4.5 C 90 % 3.01 C
1444 27-02-2011 00:59:03 4.6 C 90 % 3.1 C
1445 27-02-2011 01:11:03 4.5 C 90 % 3.01 C
1446 27-02-2011 01:23:03 4.3 C 90 % 2.81 C
1447 27-02-2011 01:35:03 4.5 C 91 % 3.16 C
1448 27-02-2011 01:47:03 4.7 C 91 % 3.36 C
1449 27-02-2011 01:59:03 4.7 C 91 % 3.36 C
1450 27-02-2011 02:11:03 4.7 C 91 % 3.36 C
Sensor: Nr:Datum:Temp:Feuchte:Taupunkt:
Aussen-T/F 1451 27-02-2011 02:23:03 4.7 C 91 % 3.36 C
1452 27-02-2011 02:35:03 4.6 C 91 % 3.26 C
1453 27-02-2011 02:47:03 4.6 C 91 % 3.26 C
1454 27-02-2011 02:59:03 4.7 C 91 % 3.36 C
1455 27-02-2011 03:11:03 4.7 C 90 % 3.2 C
1456 27-02-2011 03:23:03 4.7 C 90 % 3.2 C
1457 27-02-2011 03:35:03 4.8 C 90 % 3.3 C
1458 27-02-2011 03:47:03 4.9 C 90 % 3.4 C
1459 27-02-2011 03:59:04 4.8 C 90 % 3.3 C
1460 27-02-2011 04:11:04 4.7 C 90 % 3.2 C
1461 27-02-2011 04:23:04 4.7 C 90 % 3.2 C
1462 27-02-2011 04:35:04 4.6 C 90 % 3.1 C
1463 27-02-2011 04:47:04 4.6 C 90 % 3.1 C
1464 27-02-2011 04:59:04 4.5 C 90 % 3.01 C
1465 27-02-2011 05:11:04 4.5 C 90 % 3.01 C
1466 27-02-2011 05:23:04 4.4 C 90 % 2.91 C
1467 27-02-2011 05:35:04 4.5 C 90 % 3.01 C
1468 27-02-2011 05:47:04 4.4 C 90 % 2.91 C
1469 27-02-2011 05:59:04 4.5 C 90 % 3.01 C
1470 27-02-2011 06:11:04 4.4 C 90 % 2.91 C
1471 27-02-2011 06:23:04 4.4 C 90 % 2.91 C
1472 27-02-2011 06:35:04 4.3 C 90 % 2.81 C
1473 27-02-2011 06:47:04 4.2 C 90 % 2.71 C
1474 27-02-2011 06:59:04 4.2 C 90 % 2.71 C
1475 27-02-2011 07:11:04 4.3 C 91 % 2.96 C
Sensor: Nr:Datum:Temp:Feuchte:Taupunkt:
Aussen-T/F 1476 27-02-2011 07:23:04 4.3 C 91 % 2.96 C
1477 27-02-2011 07:35:03 4.3 C 90 % 2.81 C
1478 27-02-2011 07:47:02 4.3 C 90 % 2.81 C
1479 27-02-2011 07:59:02 4.3 C 90 % 2.81 C
1480 27-02-2011 08:11:03 4.3 C 89 % 2.65 C
1481 27-02-2011 08:23:02 4.5 C 88 % 2.69 C
1482 27-02-2011 08:35:02 4.6 C 88 % 2.79 C
1483 27-02-2011 08:47:02 4.7 C 87 % 2.73 C
1484 27-02-2011 08:59:02 5 C 84 % 2.53 C
1485 27-02-2011 09:11:01 5 C 83 % 2.36 C
1486 27-02-2011 09:23:02 5.2 C 82 % 2.39 C
1487 27-02-2011 09:35:02 5.4 C 81 % 2.41 C
1488 27-02-2011 09:47:02 5.7 C 78 % 2.17 C
1489 27-02-2011 09:59:02 5.8 C 77 % 2.09 C
1490 27-02-2011 10:11:03 5.7 C 78 % 2.17 C
1491 27-02-2011 10:23:02 5.7 C 78 % 2.17 C
1492 27-02-2011 10:35:03 6.7 C 74 % 2.4 C
1493 27-02-2011 10:47:02 6.7 C 71 % 1.82 C
1494 27-02-2011 10:59:02 6.8 C 72 % 2.12 C
1495 27-02-2011 11:11:02 7 C 68 % 1.51 C
1496 27-02-2011 11:23:02 7.1 C 65 % 0.98 C
1497 27-02-2011 11:35:02 7.1 C 65 % 0.98 C
1498 27-02-2011 11:47:02 7.4 C 62 % 0.61 C
1499 27-02-2011 11:59:02 7.6 C 60 % 0.35 C
1500 27-02-2011 12:11:02 7.8 C 58 % 0.07 C
Sensor: Nr:Datum:Temp:Feuchte:Taupunkt:
Aussen-T/F 1501 27-02-2011 12:23:01 7.8 C 57 % -0.17 C
1502 27-02-2011 12:35:02 7.7 C 56 % -0.51 C
1503 27-02-2011 12:47:01 7.2 C 57 % -0.73 C
1504 27-02-2011 12:59:01 7.2 C 58 % -0.5 C
1505 27-02-2011 13:11:02 7.3 C 57 % -0.64 C
1506 27-02-2011 13:23:02 7.5 C 56 % -0.7 C
1507 27-02-2011 13:35:02 7.5 C 55 % -0.94 C
1508 27-02-2011 13:47:02 7.7 C 55 % -0.75 C
1509 27-02-2011 13:59:02 7.5 C 55 % -0.94 C
1510 27-02-2011 14:11:02 7.8 C 55 % -0.66 C
1511 27-02-2011 14:23:02 7.3 C 55 % -1.13 C
1512 27-02-2011 14:35:01 7.2 C 55 % -1.22 C
1513 27-02-2011 14:47:02 7.3 C 55 % -1.13 C
1514 27-02-2011 14:59:02 7.4 C 54 % -1.28 C
1515 27-02-2011 15:11:01 7.4 C 55 % -1.03 C
1516 27-02-2011 15:23:02 7.4 C 55 % -1.03 C
1517 27-02-2011 15:35:01 7.3 C 54 % -1.38 C
1518 27-02-2011 15:47:02 7.2 C 55 % -1.22 C
1519 27-02-2011 15:59:02 7.2 C 56 % -0.98 C
1520 27-02-2011 16:11:02 6.9 C 59 % -0.54 C
1521 27-02-2011 16:23:02 6.8 C 60 % -0.41 C
1522 27-02-2011 16:35:02 6.7 C 59 % -0.73 C
1523 27-02-2011 16:47:02 6.8 C 57 % -1.11 C
1524 27-02-2011 16:59:02 6.7 C 57 % -1.2 C
1525 27-02-2011 17:11:01 6.7 C 56 % -1.44 C
Sensor: Nr:Datum:Temp:Feuchte:Taupunkt:
Aussen-T/F 1526 27-02-2011 17:23:02 6.5 C 57 % -1.39 C
1527 27-02-2011 17:35:02 6.4 C 58 % -1.25 C
1528 27-02-2011 17:47:02 6.5 C 58 % -1.15 C
1529 27-02-2011 17:59:02 6.5 C 56 % -1.63 C
1530 27-02-2011 18:11:02 6.3 C 57 % -1.58 C
1531 27-02-2011 18:23:02 5.8 C 60 % -1.35 C
1532 27-02-2011 18:35:01 5.7 C 62 % -1 C
1533 27-02-2011 18:47:03 5.7 C 62 % -1 C
1534 27-02-2011 18:59:03 5.4 C 64 % -0.85 C
1535 27-02-2011 19:11:02 5.7 C 63 % -0.78 C
1536 27-02-2011 19:23:02 5.6 C 63 % -0.87 C
1537 27-02-2011 19:35:02 5 C 68 % -0.4 C
1538 27-02-2011 19:47:02 4.9 C 71 % 0.09 C
1539 27-02-2011 19:59:03 4.8 C 71 % 0 C
1540 27-02-2011 20:11:01 4.5 C 72 % -0.1 C
1541 27-02-2011 20:23:02 4.2 C 75 % 0.17 C
1542 27-02-2011 20:35:02 4.2 C 77 % 0.54 C
1543 27-02-2011 20:47:01 4.6 C 72 % 0 C
1544 27-02-2011 20:59:01 5 C 65 % -1.02 C
1545 27-02-2011 21:11:02 4.7 C 68 % -0.69 C
1546 27-02-2011 21:23:01 4.6 C 68 % -0.78 C
1547 27-02-2011 21:35:01 5.1 C 62 % -1.57 C
1548 27-02-2011 21:47:01 4.8 C 63 % -1.63 C
1549 27-02-2011 21:59:01 4.3 C 66 % -1.48 C
1550 27-02-2011 22:11:49 3.9 C 71 % -0.87 C
Sensor: Nr:Datum:Temp:Feuchte:Taupunkt:
Aussen-T/F 1551 27-02-2011 22:24:03 4.2 C 67 % -1.37 C
1552 27-02-2011 22:36:03 4.4 C 67 % -1.18 C
1553 27-02-2011 22:48:03 4.5 C 65 % -1.49 C
1554 27-02-2011 23:00:03 4.4 C 64 % -1.8 C
1555 27-02-2011 23:12:03 3.9 C 67 % -1.65 C
1556 27-02-2011 23:24:03 3.6 C 69 % -1.54 C
1557 27-02-2011 23:36:03 3.6 C 69 % -1.54 C
1558 27-02-2011 23:48:03 3.5 C 70 % -1.44 C
1559 28-02-2011 00:00:03 3.6 C 70 % -1.35 C
1560 28-02-2011 00:12:03 3.6 C 69 % -1.54 C
1561 28-02-2011 00:24:03 3 C 71 % -1.73 C
1562 28-02-2011 00:36:03 2.8 C 74 % -1.36 C
1563 28-02-2011 00:48:03 2.7 C 75 % -1.28 C
1564 28-02-2011 01:00:03 2.7 C 75 % -1.28 C
1565 28-02-2011 01:12:03 1.9 C 78 % -1.52 C
1566 28-02-2011 01:24:03 2 C 79 % -1.25 C
1567 28-02-2011 01:36:03 2.4 C 79 % -0.86 C
1568 28-02-2011 01:48:03 1.6 C 79 % -1.64 C
1569 28-02-2011 02:00:03 1.5 C 81 % -1.4 C
1570 28-02-2011 02:12:04 1.2 C 82 % -1.52 C
1571 28-02-2011 02:24:04 0.9 C 84 % -1.49 C
1572 28-02-2011 02:36:04 0.8 C 85 % -1.43 C
1573 28-02-2011 02:48:04 1.4 C 85 % -0.84 C
1574 28-02-2011 03:00:04 1.4 C 86 % -0.68 C
1575 28-02-2011 03:12:04 1.6 C 86 % -0.48 C
Sensor: Nr:Datum:Temp:Feuchte:Taupunkt:
Aussen-T/F 1576 28-02-2011 03:24:04 1.8 C 85 % -0.45 C
1577 28-02-2011 03:36:04 2.2 C 82 % -0.55 C
1578 28-02-2011 03:48:04 2.1 C 81 % -0.81 C
1579 28-02-2011 04:00:04 1.9 C 80 % -1.18 C
1580 28-02-2011 04:12:04 1.8 C 83 % -0.77 C
1581 28-02-2011 04:24:04 2.4 C 82 % -0.35 C
1582 28-02-2011 04:36:04 2.6 C 78 % -0.84 C
1583 28-02-2011 04:48:04 2.6 C 77 % -1.02 C
1584 28-02-2011 05:00:04 2.6 C 77 % -1.02 C
1585 28-02-2011 05:12:04 2.6 C 77 % -1.02 C
1586 28-02-2011 05:24:04 2.8 C 76 % -1 C
1587 28-02-2011 05:36:04 2.7 C 77 % -0.92 C
1588 28-02-2011 05:48:04 2.7 C 77 % -0.92 C
1589 28-02-2011 06:00:04 2.9 C 77 % -0.72 C
1590 28-02-2011 06:12:05 2.8 C 76 % -1 C
1591 28-02-2011 06:24:05 2.7 C 76 % -1.1 C
1592 28-02-2011 06:36:05 2.7 C 78 % -0.74 C
1593 28-02-2011 06:48:05 2.6 C 79 % -0.67 C
1594 28-02-2011 07:00:05 2.5 C 80 % -0.59 C
1595 28-02-2011 07:12:04 2.6 C 79 % -0.67 C
1596 28-02-2011 07:24:03 2.5 C 79 % -0.76 C
1597 28-02-2011 07:36:03 2.5 C 79 % -0.76 C
1598 28-02-2011 07:48:01 2.9 C 78 % -0.55 C
1599 28-02-2011 08:00:01 2.9 C 77 % -0.72 C
1600 28-02-2011 08:12:02 3.1 C 76 % -0.71 C
Sensor: Nr:Datum:Temp:Feuchte:Taupunkt:
Aussen-T/F 1601 28-02-2011 08:24:01 3.3 C 76 % -0.52 C
1602 28-02-2011 08:36:01 3.4 C 76 % -0.42 C
1603 28-02-2011 08:48:01 3.5 C 75 % -0.5 C
1604 28-02-2011 09:00:01 3.7 C 74 % -0.49 C
1605 28-02-2011 09:12:02 3.9 C 72 % -0.68 C
1606 28-02-2011 09:24:02 4.2 C 70 % -0.77 C
1607 28-02-2011 09:36:01 5 C 68 % -0.4 C
1608 28-02-2011 09:48:02 4.3 C 66 % -1.48 C
1609 28-02-2011 10:00:02 3.4 C 70 % -1.54 C
1610 28-02-2011 10:12:01 2.8 C 74 % -1.36 C
1611 28-02-2011 10:24:02 3.4 C 77 % -0.24 C
1612 28-02-2011 10:36:01 4.8 C 75 % 0.75 C
1613 28-02-2011 10:48:02 6.3 C 65 % 0.22 C
1614 28-02-2011 11:00:02 7.3 C 58 % -0.4 C
1615 28-02-2011 11:12:02 7.3 C 54 % -1.38 C
1616 28-02-2011 11:24:02 7 C 52 % -2.17 C
1617 28-02-2011 11:36:02 7.8 C 51 % -1.69 C
1618 28-02-2011 11:48:02 7.9 C 49 % -2.14 C
1619 28-02-2011 12:00:02 8.1 C 48 % -2.23 C
1620 28-02-2011 12:12:01 8.3 C 48 % -2.05 C
1621 28-02-2011 12:24:01 8.6 C 46 % -2.35 C
1622 28-02-2011 12:36:02 8.8 C 45 % -2.46 C
1623 28-02-2011 12:48:02 8.5 C 44 % -3.04 C
1624 28-02-2011 13:00:02 8.2 C 46 % -2.71 C
1625 28-02-2011 13:12:02 8.5 C 45 % -2.73 C
Sensor: Nr:Datum:Temp:Feuchte:Taupunkt:
Aussen-T/F 1626 28-02-2011 13:24:01 8.8 C 44 % -2.76 C
1627 28-02-2011 13:36:02 10.4 C 38 % -3.29 C
1628 28-02-2011 13:48:01 9.2 C 42 % -3.02 C
1629 28-02-2011 14:00:01 9.1 C 43 % -2.8 C
1630 28-02-2011 14:12:02 10.9 C 41 % -1.82 C
1631 28-02-2011 14:24:01 10 C 40 % -2.96 C
1632 28-02-2011 14:36:02 11.2 C 38 % -2.57 C
1633 28-02-2011 14:48:01 10.5 C 39 % -2.85 C
1634 28-02-2011 15:00:01 9.6 C 42 % -2.66 C
1635 28-02-2011 15:12:02 9.7 C 42 % -2.57 C
1636 28-02-2011 15:24:02 10 C 40 % -2.96 C
1637 28-02-2011 15:36:02 11 C 39 % -2.4 C
1638 28-02-2011 15:48:02 11.4 C 36 % -3.12 C
1639 28-02-2011 16:00:02 11.5 C 36 % -3.03 C
1640 28-02-2011 16:12:02 12.3 C 36 % -2.32 C
1641 28-02-2011 16:24:02 15.2 C 28 % -3.16 C
1642 28-02-2011 16:36:01 11.6 C 34 % -3.71 C
1643 28-02-2011 16:48:02 9.2 C 41 % -3.35 C
1644 28-02-2011 17:00:02 8.4 C 45 % -2.83 C
1645 28-02-2011 17:12:01 8.1 C 46 % -2.8 C
1646 28-02-2011 17:24:01 7.9 C 48 % -2.42 C
1647 28-02-2011 17:36:01 7.7 C 48 % -2.6 C
1648 28-02-2011 17:48:02 7.1 C 49 % -2.87 C
1649 28-02-2011 18:00:02 6.1 C 56 % -2 C
1650 28-02-2011 18:12:02 5.8 C 58 % -1.81 C
Sensor: Nr:Datum:Temp:Feuchte:Taupunkt:
Aussen-T/F 1651 28-02-2011 18:24:02 5.1 C 61 % -1.79 C
1652 28-02-2011 18:36:02 4.4 C 65 % -1.59 C
1653 28-02-2011 18:48:01 4.2 C 67 % -1.37 C
1654 28-02-2011 19:00:01 3.5 C 70 % -1.44 C
1655 28-02-2011 19:12:02 3 C 73 % -1.35 C
1656 28-02-2011 19:24:01 2.8 C 76 % -1 C
1657 28-02-2011 19:36:01 2.6 C 77 % -1.02 C
1658 28-02-2011 19:48:01 2.2 C 78 % -1.23 C
1659 28-02-2011 20:00:01 2 C 79 % -1.25 C
1660 28-02-2011 20:12:02 1.9 C 81 % -1.01 C
1661 28-02-2011 20:24:01 1.9 C 82 % -0.84 C
1662 28-02-2011 20:36:01 1.7 C 83 % -0.87 C
1663 28-02-2011 20:48:01 1.5 C 84 % -0.9 C
1664 28-02-2011 21:00:01 1.3 C 84 % -1.1 C
1665 28-02-2011 21:12:02 1.3 C 85 % -0.94 C
1666 28-02-2011 21:24:02 1.3 C 85 % -0.94 C
1667 28-02-2011 21:37:02 1.4 C 86 % -0.68 C
1668 28-02-2011 21:49:02 1.3 C 86 % -0.78 C
1669 28-02-2011 22:01:02 1.4 C 86 % -0.68 C
1670 28-02-2011 22:13:02 1.1 C 86 % -0.97 C
1671 28-02-2011 22:25:02 1.1 C 86 % -0.97 C
1672 28-02-2011 22:37:02 0.9 C 87 % -1.01 C
1673 28-02-2011 22:49:02 0.7 C 87 % -1.21 C
1674 28-02-2011 23:01:02 0.9 C 88 % -0.86 C
1675 28-02-2011 23:13:02 1 C 87 % -0.91 C
Sensor: Nr:Datum:Temp:Feuchte:Taupunkt:
Aussen-T/F 1676 28-02-2011 23:25:02 1.1 C 87 % -0.82 C
1677 28-02-2011 23:37:02 0.7 C 88 % -1.05 C
1678 28-02-2011 23:49:02 0.9 C 88 % -0.86 C
1679 01-03-2011 00:01:02 0.7 C 88 % -1.05 C
1680 01-03-2011 00:13:02 0.6 C 88 % -1.15 C
1681 01-03-2011 00:25:02 0.6 C 88 % -1.15 C
1682 01-03-2011 00:37:02 0.4 C 88 % -1.35 C
1683 01-03-2011 00:49:03 0.4 C 88 % -1.35 C
1684 01-03-2011 01:01:03 0.1 C 87 % -1.8 C
1685 01-03-2011 01:13:03 -0.3 C 87 % -2.2 C
1686 01-03-2011 01:25:03 -0.3 C 87 % -2.2 C
1687 01-03-2011 01:37:03 0.1 C 88 % -1.65 C
1688 01-03-2011 01:49:03 -0.1 C 88 % -1.84 C
1689 01-03-2011 02:01:03 0 C 88 % -1.74 C
1690 01-03-2011 02:13:03 0 C 88 % -1.74 C
1691 01-03-2011 02:25:03 -0.3 C 88 % -2.04 C
1692 01-03-2011 02:37:03 0.1 C 89 % -1.49 C
1693 01-03-2011 02:49:03 -0.3 C 89 % -1.89 C
1694 01-03-2011 03:01:03 -0.6 C 89 % -2.18 C
1695 01-03-2011 03:13:03 -0.8 C 89 % -2.38 C
1696 01-03-2011 03:25:03 -1 C 89 % -2.58 C
1697 01-03-2011 03:37:03 -0.9 C 89 % -2.48 C
1698 01-03-2011 03:49:03 -0.5 C 89 % -2.09 C
1699 01-03-2011 04:01:03 -0.9 C 89 % -2.48 C
1700 01-03-2011 04:13:03 -1.1 C 89 % -2.68 C
Sensor: Nr:Datum:Temp:Feuchte:Taupunkt:
Aussen-T/F 1701 01-03-2011 04:25:03 -0.8 C 89 % -2.38 C
1702 01-03-2011 04:37:03 -1.2 C 89 % -2.78 C
1703 01-03-2011 04:49:04 -1.2 C 89 % -2.78 C
1704 01-03-2011 05:01:04 -0.3 C 90 % -1.74 C
1705 01-03-2011 05:13:04 0.4 C 91 % -0.89 C
1706 01-03-2011 05:25:04 0.6 C 91 % -0.7 C
1707 01-03-2011 05:37:04 0.5 C 91 % -0.79 C
1708 01-03-2011 05:49:04 0.5 C 91 % -0.79 C
1709 01-03-2011 06:01:04 0.5 C 91 % -0.79 C
1710 01-03-2011 06:13:04 0.5 C 91 % -0.79 C
1711 01-03-2011 06:25:04 0.5 C 91 % -0.79 C
1712 01-03-2011 06:37:04 0.5 C 91 % -0.79 C
1713 01-03-2011 06:49:02 0.6 C 91 % -0.7 C
1714 01-03-2011 07:01:01 0.6 C 91 % -0.7 C
1715 01-03-2011 07:13:01 0.6 C 92 % -0.55 C
1716 01-03-2011 07:25:02 0.6 C 92 % -0.55 C
1717 01-03-2011 07:37:01 0.6 C 92 % -0.55 C
1718 01-03-2011 07:49:02 0.7 C 92 % -0.45 C
1719 01-03-2011 08:01:02 0.8 C 92 % -0.35 C
1720 01-03-2011 08:13:02 1.1 C 91 % -0.2 C
1721 01-03-2011 08:25:02 1.1 C 91 % -0.2 C
1722 01-03-2011 08:37:02 1.1 C 91 % -0.2 C
1723 01-03-2011 08:49:01 1.3 C 91 % 0 C
1724 01-03-2011 09:01:02 1.6 C 91 % 0.29 C
1725 01-03-2011 09:13:02 1.6 C 91 % 0.29 C
Sensor: Nr:Datum:Temp:Feuchte:Taupunkt:
Aussen-T/F 1726 01-03-2011 09:25:01 1.8 C 90 % 0.34 C
1727 01-03-2011 09:37:01 2 C 89 % 0.38 C
1728 01-03-2011 09:49:01 2.2 C 88 % 0.42 C
1729 01-03-2011 10:01:02 2.3 C 87 % 0.36 C
1730 01-03-2011 10:13:02 2.2 C 84 % -0.22 C
1731 01-03-2011 10:25:02 2.2 C 83 % -0.38 C
1732 01-03-2011 10:37:01 2.5 C 82 % -0.25 C
1733 01-03-2011 10:49:02 3 C 80 % -0.1 C
1734 01-03-2011 11:01:01 3.5 C 79 % 0.21 C
1735 01-03-2011 11:13:01 4.4 C 76 % 0.55 C
1736 01-03-2011 11:25:02 4.4 C 73 % 0 C
1737 01-03-2011 11:37:01 5.1 C 70 % 0.09 C
1738 01-03-2011 11:49:02 5.3 C 69 % 0.09 C
1739 01-03-2011 12:01:02 6.2 C 68 % 0.75 C
1740 01-03-2011 12:13:02 6.7 C 65 % 0.6 C
1741 01-03-2011 12:25:02 7.8 C 62 % 0.99 C
1742 01-03-2011 12:37:02 8.4 C 56 % 0.15 C
1743 01-03-2011 12:49:02 9.4 C 53 % 0.32 C
1744 01-03-2011 13:01:02 9.4 C 51 % -0.21 C
1745 01-03-2011 13:13:02 11.1 C 47 % 0.23 C
1746 01-03-2011 13:25:01 10.6 C 47 % -0.23 C
1747 01-03-2011 13:37:02 9.7 C 50 % -0.21 C
1748 01-03-2011 13:49:03 9.1 C 53 % 0.04 C
1749 01-03-2011 14:01:02 9.8 C 53 % 0.69 C
1750 01-03-2011 14:13:02 10.4 C 50 % 0.44 C
Sensor: Nr:Datum:Temp:Feuchte:Taupunkt:
Aussen-T/F 1751 01-03-2011 14:25:02 10.5 C 48 % -0.03 C
1752 01-03-2011 14:37:02 11.2 C 46 % 0.02 C
1753 01-03-2011 14:49:02 11.3 C 46 % 0.12 C
1754 01-03-2011 15:01:01 12.2 C 44 % 0.32 C
1755 01-03-2011 15:13:01 12.1 C 44 % 0.23 C
1756 01-03-2011 15:25:02 12 C 44 % 0.14 C
1757 01-03-2011 15:37:02 12.5 C 45 % 0.91 C
1758 01-03-2011 15:49:02 14.7 C 31 % -2.23 C
1759 01-03-2011 16:01:03 14.5 C 29 % -3.3 C
1760 01-03-2011 16:13:03 14.6 C 28 % -3.68 C
1761 01-03-2011 16:25:02 14.9 C 25 % -4.93 C
1762 01-03-2011 16:37:02 15.4 C 24 % -5.04 C
1763 01-03-2011 16:49:01 15.7 C 25 % -4.25 C
1764 01-03-2011 17:01:01 14 C 26 % -5.17 C
1765 01-03-2011 17:13:01 13.2 C 27 % -5.36 C
1766 01-03-2011 17:25:01 12.6 C 30 % -4.49 C
1767 01-03-2011 17:37:01 10.4 C 39 % -2.94 C
1768 01-03-2011 17:49:01 8.9 C 45 % -2.37 C
1769 01-03-2011 18:01:01 7.6 C 51 % -1.87 C
1770 01-03-2011 18:13:01 7 C 48 % -3.24 C
1771 01-03-2011 18:25:02 6.5 C 53 % -2.37 C
1772 01-03-2011 18:37:01 6.9 C 52 % -2.26 C
1773 01-03-2011 18:49:03 6.8 C 53 % -2.09 C
1774 01-03-2011 19:01:02 6.5 C 55 % -1.87 C
1775 01-03-2011 19:13:02 6.2 C 56 % -1.91 C
Sensor: Nr:Datum:Temp:Feuchte:Taupunkt:
Aussen-T/F 1776 01-03-2011 19:25:02 5.8 C 59 % -1.58 C
1777 01-03-2011 19:37:02 5.1 C 62 % -1.57 C
1778 01-03-2011 19:49:02 4.6 C 63 % -1.82 C
1779 01-03-2011 20:01:01 4.4 C 64 % -1.8 C
1780 01-03-2011 20:13:01 4.7 C 64 % -1.51 C
1781 01-03-2011 20:25:02 4.3 C 62 % -2.32 C
1782 01-03-2011 20:37:02 4.4 C 62 % -2.23 C
1783 01-03-2011 20:49:02 3.9 C 64 % -2.27 C
1784 01-03-2011 21:01:03 3.6 C 64 % -2.56 C
1785 01-03-2011 21:13:03 3.3 C 67 % -2.23 C
1786 01-03-2011 21:25:02 2.5 C 68 % -2.79 C
1787 01-03-2011 21:38:02 2.3 C 71 % -2.4 C
1788 01-03-2011 21:50:02 2.4 C 71 % -2.31 C
1789 01-03-2011 22:02:02 2 C 71 % -2.69 C
1790 01-03-2011 22:14:02 3.2 C 65 % -2.73 C
1791 01-03-2011 22:26:02 3.2 C 62 % -3.36 C
1792 01-03-2011 22:38:02 3.5 C 59 % -3.74 C
1793 01-03-2011 22:50:02 3.7 C 57 % -4.01 C
1794 01-03-2011 23:02:02 3.5 C 58 % -3.97 C
1795 01-03-2011 23:14:03 3.3 C 57 % -4.39 C
1796 01-03-2011 23:26:03 3 C 58 % -4.44 C
1797 01-03-2011 23:38:03 2.5 C 60 % -4.46 C
1798 01-03-2011 23:50:03 1.8 C 64 % -4.27 C
1799 02-03-2011 00:02:03 1.6 C 66 % -4.05 C
1800 02-03-2011 00:14:03 1.3 C 65 % -4.54 C
Sensor: Nr:Datum:Temp:Feuchte:Taupunkt:
Aussen-T/F 1801 02-03-2011 00:26:03 1.8 C 67 % -3.66 C
1802 02-03-2011 00:38:03 1.3 C 67 % -4.14 C
1803 02-03-2011 00:50:03 0.7 C 69 % -4.32 C
1804 02-03-2011 01:02:03 1.5 C 69 % -3.55 C
1805 02-03-2011 01:14:03 1.1 C 68 % -4.13 C
1806 02-03-2011 01:26:03 0.6 C 69 % -4.42 C
1807 02-03-2011 01:38:03 0.1 C 72 % -4.33 C
1808 02-03-2011 01:50:03 0.1 C 74 % -3.97 C
1809 02-03-2011 02:02:03 0 C 75 % -3.89 C
1810 02-03-2011 02:14:03 0 C 75 % -3.89 C
1811 02-03-2011 02:26:03 -0.4 C 76 % -4.1 C
1812 02-03-2011 02:38:03 -0.6 C 76 % -4.3 C
1813 02-03-2011 02:50:03 -0.8 C 77 % -4.32 C
1814 02-03-2011 03:02:03 -0.9 C 77 % -4.42 C
1815 02-03-2011 03:14:04 -1.1 C 78 % -4.44 C
1816 02-03-2011 03:26:04 -1 C 78 % -4.34 C
1817 02-03-2011 03:38:04 -1.2 C 77 % -4.71 C
1818 02-03-2011 03:50:04 -0.8 C 77 % -4.32 C
1819 02-03-2011 04:02:04 -1.2 C 76 % -4.88 C
1820 02-03-2011 04:14:04 -0.9 C 75 % -4.76 C
1821 02-03-2011 04:26:04 -0.9 C 74 % -4.94 C
1822 02-03-2011 04:38:04 -1 C 73 % -5.22 C
1823 02-03-2011 04:50:04 -1.1 C 72 % -5.5 C
1824 02-03-2011 05:02:04 -1.4 C 73 % -5.6 C
1825 02-03-2011 05:14:04 -1.3 C 73 % -5.51 C
Sensor: Nr:Datum:Temp:Feuchte:Taupunkt:
Aussen-T/F 1826 02-03-2011 05:26:04 -1.3 C 73 % -5.51 C
1827 02-03-2011 05:38:04 -1.6 C 74 % -5.62 C
1828 02-03-2011 05:50:04 -1.9 C 75 % -5.73 C
1829 02-03-2011 06:02:04 -2 C 76 % -5.66 C
1830 02-03-2011 06:14:04 -2.1 C 77 % -5.58 C
1831 02-03-2011 06:26:04 -2 C 77 % -5.48 C
1832 02-03-2011 06:38:04 -2.2 C 77 % -5.68 C
1833 02-03-2011 06:50:04 -2.1 C 76 % -5.75 C
1834 02-03-2011 07:02:04 -2.1 C 75 % -5.93 C
1835 02-03-2011 07:14:04 -2.2 C 74 % -6.2 C
1836 02-03-2011 07:26:05 -2.3 C 75 % -6.12 C
1837 02-03-2011 07:38:02 -2.2 C 75 % -6.02 C
1838 02-03-2011 07:50:02 -2.3 C 75 % -6.12 C
1839 02-03-2011 08:02:01 -2 C 76 % -5.66 C
1840 02-03-2011 08:14:01 -2.2 C 76 % -5.85 C
1841 02-03-2011 08:26:02 -2 C 76 % -5.66 C
1842 02-03-2011 08:38:02 -2 C 76 % -5.66 C
1843 02-03-2011 08:50:02 -1.8 C 76 % -5.46 C
1844 02-03-2011 09:02:02 -1.6 C 75 % -5.44 C
1845 02-03-2011 09:14:02 -0.9 C 73 % -5.12 C
1846 02-03-2011 09:26:01 -1 C 71 % -5.58 C
1847 02-03-2011 09:38:02 -0.5 C 71 % -5.1 C
1848 02-03-2011 09:50:02 -0.2 C 67 % -5.58 C
1849 02-03-2011 10:02:02 -0.2 C 68 % -5.38 C
1850 02-03-2011 10:14:02 0.7 C 65 % -5.11 C
Sensor: Nr:Datum:Temp:Feuchte:Taupunkt:
Aussen-T/F 1851 02-03-2011 10:26:02 1.5 C 61 % -5.19 C
1852 02-03-2011 10:38:02 2.3 C 56 % -5.56 C
1853 02-03-2011 10:50:02 2.9 C 55 % -5.23 C
1854 02-03-2011 11:02:02 4 C 50 % -5.46 C
1855 02-03-2011 11:14:02 5.2 C 43 % -6.33 C
1856 02-03-2011 11:26:02 5.2 C 41 % -6.95 C
1857 02-03-2011 11:38:01 6.9 C 30 % -9.45 C
1858 02-03-2011 11:50:02 7.1 C 23 % -12.6 C
1859 02-03-2011 12:02:01 7.6 C 21 % -13.29 C
1860 02-03-2011 12:14:01 8.2 C 20 % -13.39 C
1861 02-03-2011 12:26:02 10 C 20 % -11.89 C
1862 02-03-2011 12:38:02 11 C 20 % -11.06 C
1863 02-03-2011 12:50:02 12.1 C 20 % -10.15 C
1864 02-03-2011 13:02:02 12.9 C 20 % -9.49 C
1865 02-03-2011 13:14:02 12.3 C 20 % -9.98 C
1866 02-03-2011 13:26:02 11.2 C 20 % -10.9 C
1867 02-03-2011 13:38:02 11.1 C 20 % -10.98 C
1868 02-03-2011 13:50:02 10.7 C 20 % -11.31 C
1869 02-03-2011 14:02:03 10.2 C 20 % -11.73 C
1870 02-03-2011 14:14:03 11 C 20 % -11.06 C
1871 02-03-2011 14:26:02 11.2 C 20 % -10.9 C
1872 02-03-2011 14:38:02 11 C 20 % -11.06 C
1873 02-03-2011 14:50:01 10.8 C 20 % -11.23 C
1874 02-03-2011 15:02:01 11 C 20 % -11.06 C
1875 02-03-2011 15:14:01 10.6 C 20 % -11.39 C
Sensor: Nr:Datum:Temp:Feuchte:Taupunkt:
Aussen-T/F 1876 02-03-2011 15:26:01 11.8 C 20 % -10.4 C
1877 02-03-2011 15:38:01 11.7 C 20 % -10.48 C
1878 02-03-2011 15:50:01 13.3 C 20 % -9.15 C
1879 02-03-2011 16:02:01 13 C 20 % -9.4 C
1880 02-03-2011 16:14:01 12.9 C 20 % -9.49 C
1881 02-03-2011 16:26:02 13.1 C 20 % -9.32 C
1882 02-03-2011 16:38:01 13.3 C 20 % -9.15 C
1883 02-03-2011 16:50:02 13.6 C 20 % -8.91 C
1884 02-03-2011 17:02:02 12.3 C 20 % -9.98 C
1885 02-03-2011 17:14:02 12.2 C 20 % -10.07 C
1886 02-03-2011 17:26:02 11.2 C 20 % -10.9 C
1887 02-03-2011 17:38:03 8.7 C 20 % -12.97 C
1888 02-03-2011 17:50:02 7.4 C 20 % -14.05 C
1889 02-03-2011 18:02:01 6.7 C 21 % -14.05 C
1890 02-03-2011 18:14:01 6 C 27 % -11.55 C
1891 02-03-2011 18:26:02 4.6 C 33 % -10.26 C
1892 02-03-2011 18:38:02 3.6 C 40 % -8.71 C
1893 02-03-2011 18:50:02 3 C 43 % -8.33 C
1894 02-03-2011 19:02:02 3 C 43 % -8.33 C
1895 02-03-2011 19:14:02 2.4 C 47 % -7.74 C
1896 02-03-2011 19:26:02 2.2 C 47 % -7.92 C
1897 02-03-2011 19:38:02 2.5 C 48 % -7.38 C
1898 02-03-2011 19:50:02 2.4 C 45 % -8.3 C
1899 02-03-2011 20:02:02 3.2 C 41 % -8.76 C
1900 02-03-2011 20:14:02 2.6 C 43 % -8.69 C
Sensor: Nr:Datum:Temp:Feuchte:Taupunkt:
Aussen-T/F 1901 02-03-2011 20:26:02 3.6 C 36 % -10.05 C
1902 02-03-2011 20:38:02 2.4 C 43 % -8.88 C
1903 02-03-2011 20:50:02 2.7 C 44 % -8.31 C
1904 02-03-2011 21:02:02 3.1 C 40 % -9.16 C
1905 02-03-2011 21:14:02 2.1 C 43 % -9.15 C
1906 02-03-2011 21:26:03 2.9 C 39 % -9.66 C
1907 02-03-2011 21:38:02 3.3 C 37 % -9.97 C
1908 02-03-2011 21:51:03 2.8 C 40 % -9.43 C
1909 02-03-2011 22:03:03 3.4 C 38 % -9.54 C
1910 02-03-2011 22:15:04 2.7 C 40 % -9.52 C
1911 02-03-2011 22:27:04 2.4 C 40 % -9.79 C
1912 02-03-2011 22:39:04 2.2 C 41 % -9.66 C
1913 02-03-2011 22:51:04 1.5 C 45 % -9.12 C
1914 02-03-2011 23:03:04 1.6 C 46 % -8.75 C
1915 02-03-2011 23:15:04 1.5 C 46 % -8.84 C
1916 02-03-2011 23:27:04 0.7 C 51 % -8.26 C
1917 02-03-2011 23:39:04 0.1 C 55 % -7.85 C
1918 02-03-2011 23:51:04 0 C 56 % -7.71 C
1919 03-03-2011 00:03:04 0.1 C 54 % -8.08 C
1920 03-03-2011 00:15:04 -0.8 C 58 % -8.02 C
1921 03-03-2011 00:27:04 -0.9 C 60 % -7.68 C
1922 03-03-2011 00:39:04 -1.2 C 60 % -7.96 C
1923 03-03-2011 00:51:04 -1.4 C 61 % -7.94 C
1924 03-03-2011 01:03:04 -1.5 C 61 % -8.03 C
1925 03-03-2011 01:15:04 -1.7 C 62 % -8.01 C
Sensor: Nr:Datum:Temp:Feuchte:Taupunkt:
Aussen-T/F 1926 03-03-2011 01:27:04 -1.8 C 63 % -7.9 C
1927 03-03-2011 01:39:04 -1.7 C 63 % -7.81 C
1928 03-03-2011 01:51:04 -1.2 C 63 % -7.33 C
1929 03-03-2011 02:03:04 -1.9 C 62 % -8.2 C
1930 03-03-2011 02:15:05 -2 C 62 % -8.3 C
1931 03-03-2011 02:27:05 -1.8 C 60 % -8.53 C
1932 03-03-2011 02:39:05 -2 C 60 % -8.72 C
1933 03-03-2011 02:51:05 -2 C 62 % -8.3 C
1934 03-03-2011 03:03:05 -2 C 61 % -8.5 C
1935 03-03-2011 03:15:05 -2 C 62 % -8.3 C
1936 03-03-2011 03:27:05 -2.3 C 62 % -8.58 C
1937 03-03-2011 03:39:05 -2.2 C 62 % -8.49 C
1938 03-03-2011 03:51:05 -2.1 C 62 % -8.39 C
1939 03-03-2011 04:03:05 -1.8 C 60 % -8.53 C
1940 03-03-2011 04:15:05 -0.3 C 51 % -9.2 C
1941 03-03-2011 04:27:05 -1.3 C 52 % -9.88 C
1942 03-03-2011 04:39:05 -2.6 C 57 % -9.93 C
1943 03-03-2011 04:51:05 -2.8 C 62 % -9.05 C
1944 03-03-2011 05:03:05 -2.6 C 64 % -8.46 C
1945 03-03-2011 05:15:05 -3.1 C 64 % -8.93 C
1946 03-03-2011 05:27:05 -2.7 C 64 % -8.55 C
1947 03-03-2011 05:39:05 -2.7 C 62 % -8.96 C
1948 03-03-2011 05:51:05 -3 C 62 % -9.24 C
1949 03-03-2011 06:03:05 -3.1 C 63 % -9.14 C
1950 03-03-2011 06:15:06 -3.1 C 64 % -8.93 C
Sensor: Nr:Datum:Temp:Feuchte:Taupunkt:
Aussen-T/F 1951 03-03-2011 06:27:06 -3.6 C 64 % -9.41 C
1952 03-03-2011 06:39:06 -3.7 C 65 % -9.31 C
1953 03-03-2011 06:51:06 -3.6 C 67 % -8.83 C
1954 03-03-2011 07:03:03 -3.5 C 67 % -8.73 C
1955 03-03-2011 07:15:03 -3.2 C 66 % -8.64 C
1956 03-03-2011 07:27:04 -3.2 C 65 % -8.83 C
1957 03-03-2011 07:39:03 -3.1 C 65 % -8.74 C
1958 03-03-2011 07:51:02 -3 C 65 % -8.64 C
1959 03-03-2011 08:03:02 -3.2 C 65 % -8.83 C
1960 03-03-2011 08:15:02 -2.8 C 65 % -8.45 C
1961 03-03-2011 08:27:02 -2.5 C 63 % -8.57 C
1962 03-03-2011 08:39:02 -2.4 C 62 % -8.68 C
1963 03-03-2011 08:51:02 -2.3 C 62 % -8.58 C
1964 03-03-2011 09:03:02 -2 C 62 % -8.3 C
1965 03-03-2011 09:15:02 -1.9 C 61 % -8.41 C
1966 03-03-2011 09:27:02 -1.7 C 60 % -8.43 C
1967 03-03-2011 09:39:01 -1.6 C 61 % -8.13 C
1968 03-03-2011 09:51:02 -1.2 C 61 % -7.75 C
1969 03-03-2011 10:03:01 -1 C 61 % -7.56 C
1970 03-03-2011 10:15:01 0.2 C 59 % -6.85 C
1971 03-03-2011 10:27:01 0.7 C 56 % -7.05 C
1972 03-03-2011 10:39:02 1.8 C 48 % -8.02 C
1973 03-03-2011 10:51:02 2.5 C 41 % -9.39 C
1974 03-03-2011 11:03:02 4 C 36 % -9.69 C
1975 03-03-2011 11:15:02 3.8 C 35 % -10.23 C
Sensor: Nr:Datum:Temp:Feuchte:Taupunkt:
Aussen-T/F 1976 03-03-2011 11:27:02 3.9 C 34 % -10.5 C
1977 03-03-2011 11:39:02 4.9 C 30 % -11.19 C
1978 03-03-2011 11:51:02 4.6 C 30 % -11.45 C
1979 03-03-2011 12:03:02 5.1 C 29 % -11.44 C
1980 03-03-2011 12:15:02 5.8 C 28 % -11.27 C
1981 03-03-2011 12:27:02 6.5 C 23 % -13.1 C
1982 03-03-2011 12:39:02 8.7 C 20 % -12.97 C
1983 03-03-2011 12:51:01 8.6 C 20 % -13.06 C
1984 03-03-2011 13:03:01 9 C 20 % -12.72 C
1985 03-03-2011 13:15:02 9.3 C 20 % -12.47 C
1986 03-03-2011 13:27:02 7.8 C 20 % -13.72 C
1987 03-03-2011 13:39:01 8 C 20 % -13.56 C
1988 03-03-2011 13:51:03 8.1 C 20 % -13.47 C
1989 03-03-2011 14:03:02 7.9 C 20 % -13.64 C
1990 03-03-2011 14:15:02 8.8 C 20 % -12.89 C
1991 03-03-2011 14:27:03 8.6 C 20 % -13.06 C
1992 03-03-2011 14:39:02 9.4 C 20 % -12.39 C
1993 03-03-2011 14:51:02 8.8 C 20 % -12.89 C
1994 03-03-2011 15:03:01 9.3 C 20 % -12.47 C
1995 03-03-2011 15:15:02 9.3 C 20 % -12.47 C
1996 03-03-2011 15:27:02 9.4 C 20 % -12.39 C
1997 03-03-2011 15:39:02 9.3 C 20 % -12.47 C
1998 03-03-2011 15:51:02 10.3 C 20 % -11.64 C
1999 03-03-2011 16:03:03 9.5 C 20 % -12.31 C
2000 03-03-2011 16:15:02 11.1 C 20 % -10.98 C
Sensor: Nr:Datum:Temp:Feuchte:Taupunkt:
Aussen-T/F 2001 03-03-2011 16:27:02 12 C 20 % -10.23 C
2002 03-03-2011 16:39:02 10.7 C 20 % -11.31 C
2003 03-03-2011 16:51:01 10.5 C 20 % -11.48 C
2004 03-03-2011 17:03:02 9.7 C 20 % -12.14 C
2005 03-03-2011 17:15:01 9.4 C 20 % -12.39 C
2006 03-03-2011 17:27:01 8.5 C 20 % -13.14 C
2007 03-03-2011 17:39:01 7 C 20 % -14.39 C
2008 03-03-2011 17:51:01 5.9 C 30 % -10.32 C
2009 03-03-2011 18:03:01 4.6 C 34 % -9.88 C
2010 03-03-2011 18:15:02 3.8 C 38 % -9.19 C
2011 03-03-2011 18:27:02 3.3 C 40 % -8.98 C
2012 03-03-2011 18:39:01 2.4 C 45 % -8.3 C
2013 03-03-2011 18:51:03 1.8 C 48 % -8.02 C
2014 03-03-2011 19:03:02 1.4 C 51 % -7.61 C
2015 03-03-2011 19:15:02 1.2 C 52 % -7.54 C
2016 03-03-2011 19:27:02 1.1 C 54 % -7.15 C
2017 03-03-2011 19:39:02 0.9 C 56 % -6.87 C
2018 03-03-2011 19:51:02 0.8 C 57 % -6.73 C
2019 03-03-2011 20:03:01 1.1 C 55 % -6.91 C
2020 03-03-2011 20:15:02 0.5 C 58 % -6.79 C
2021 03-03-2011 20:27:02 0.5 C 59 % -6.56 C
2022 03-03-2011 20:39:02 0.4 C 60 % -6.44 C
2023 03-03-2011 20:51:02 0 C 61 % -6.6 C
2024 03-03-2011 21:03:03 -0.1 C 63 % -6.29 C
2025 03-03-2011 21:15:02 -0.1 C 62 % -6.5 C
Sensor: Nr:Datum:Temp:Feuchte:Taupunkt:
Aussen-T/F 2026 03-03-2011 21:27:02 -0.3 C 64 % -6.27 C
2027 03-03-2011 21:39:02 -0.4 C 65 % -6.16 C
2028 03-03-2011 21:51:01 -0.5 C 66 % -6.06 C
2029 03-03-2011 22:03:02 -0.4 C 66 % -5.96 C
2030 03-03-2011 22:15:02 -0.4 C 65 % -6.16 C
2031 03-03-2011 22:27:02 -0.7 C 66 % -6.25 C
2032 03-03-2011 22:39:01 -0.9 C 67 % -6.25 C
2033 03-03-2011 22:52:03 -1 C 69 % -5.96 C
2034 03-03-2011 23:04:03 -1.2 C 69 % -6.15 C
2035 03-03-2011 23:16:03 -1.1 C 69 % -6.05 C
2036 03-03-2011 23:28:03 -1.3 C 69 % -6.24 C
2037 03-03-2011 23:40:03 -1.5 C 68 % -6.63 C
2038 03-03-2011 23:52:03 -1.4 C 69 % -6.34 C
2039 04-03-2011 00:04:03 -1.5 C 68 % -6.63 C
2040 04-03-2011 00:16:03 -1.5 C 68 % -6.63 C
2041 04-03-2011 00:28:03 -1.6 C 68 % -6.72 C
2042 04-03-2011 00:40:04 -1.8 C 69 % -6.72 C
2043 04-03-2011 00:52:04 -1.7 C 69 % -6.63 C
2044 04-03-2011 01:04:04 -1.9 C 70 % -6.63 C
2045 04-03-2011 01:16:04 -1.7 C 70 % -6.44 C
2046 04-03-2011 01:28:04 -1.9 C 70 % -6.63 C
2047 04-03-2011 01:40:04 -1.9 C 70 % -6.63 C
2048 04-03-2011 01:52:04 -2 C 70 % -6.73 C
2049 04-03-2011 02:04:04 -2.2 C 70 % -6.92 C
2050 04-03-2011 02:16:04 -2.1 C 70 % -6.83 C
Sensor: Nr:Datum:Temp:Feuchte:Taupunkt:
Aussen-T/F 2051 04-03-2011 02:28:04 -2.3 C 70 % -7.02 C
2052 04-03-2011 02:40:04 -2.4 C 70 % -7.11 C
2053 04-03-2011 02:52:04 -2.2 C 71 % -6.74 C
2054 04-03-2011 03:04:04 -2.5 C 70 % -7.21 C
2055 04-03-2011 03:16:04 -2.7 C 71 % -7.22 C
2056 04-03-2011 03:28:04 -3 C 72 % -7.33 C
2057 04-03-2011 03:40:04 -3.2 C 73 % -7.34 C
2058 04-03-2011 03:52:04 -2.5 C 74 % -6.49 C
2059 04-03-2011 04:04:04 -2.8 C 74 % -6.78 C
2060 04-03-2011 04:16:04 -3.1 C 73 % -7.24 C
2061 04-03-2011 04:28:04 -3.9 C 73 % -8.02 C
2062 04-03-2011 04:40:04 -3.9 C 75 % -7.67 C
2063 04-03-2011 04:52:05 -4 C 76 % -7.59 C
2064 04-03-2011 05:04:05 -4.3 C 76 % -7.89 C
2065 04-03-2011 05:16:05 -4.3 C 76 % -7.89 C
2066 04-03-2011 05:28:05 -4.6 C 77 % -8.01 C
2067 04-03-2011 05:40:05 -4.3 C 78 % -7.55 C
2068 04-03-2011 05:52:05 -4.3 C 79 % -7.39 C
2069 04-03-2011 06:04:05 -4.7 C 79 % -7.78 C
2070 04-03-2011 06:16:05 -4.4 C 79 % -7.48 C
2071 04-03-2011 06:28:05 -4.4 C 79 % -7.48 C
2072 04-03-2011 06:40:05 -4.7 C 79 % -7.78 C
2073 04-03-2011 06:52:05 -5 C 78 % -8.23 C
2074 04-03-2011 07:04:05 -4.9 C 78 % -8.13 C
2075 04-03-2011 07:16:03 -4.9 C 79 % -7.97 C
Sensor: Nr:Datum:Temp:Feuchte:Taupunkt:
Aussen-T/F 2076 04-03-2011 07:28:03 -4.7 C 79 % -7.78 C
2077 04-03-2011 07:40:02 -4.6 C 79 % -7.68 C
2078 04-03-2011 07:52:02 -4.4 C 79 % -7.48 C
2079 04-03-2011 08:04:01 -4.5 C 79 % -7.58 C
2080 04-03-2011 08:16:02 -4 C 79 % -7.09 C
2081 04-03-2011 08:28:02 -4 C 80 % -6.93 C
2082 04-03-2011 08:40:02 -3.8 C 80 % -6.74 C
2083 04-03-2011 08:52:02 -3.6 C 79 % -6.7 C
2084 04-03-2011 09:04:02 -3.5 C 79 % -6.61 C
2085 04-03-2011 09:16:02 -3.1 C 79 % -6.22 C
2086 04-03-2011 09:28:02 -2.7 C 79 % -5.83 C
2087 04-03-2011 09:40:02 -2.4 C 78 % -5.7 C
2088 04-03-2011 09:52:02 -2.2 C 78 % -5.51 C
2089 04-03-2011 10:04:02 -1.6 C 77 % -5.1 C
2090 04-03-2011 10:16:02 -0.7 C 75 % -4.57 C
2091 04-03-2011 10:28:02 -0.1 C 72 % -4.53 C
2092 04-03-2011 10:40:03 0.5 C 69 % -4.51 C
2093 04-03-2011 10:52:02 1.4 C 66 % -4.24 C
2094 04-03-2011 11:04:02 2.9 C 59 % -4.31 C
2095 04-03-2011 11:16:02 3 C 54 % -5.38 C
2096 04-03-2011 11:28:02 3.3 C 51 % -5.85 C
2097 04-03-2011 11:40:02 4.6 C 46 % -6 C
2098 04-03-2011 11:52:02 4.2 C 45 % -6.65 C
2099 04-03-2011 12:04:01 4.6 C 46 % -6 C
2100 04-03-2011 12:16:02 5.4 C 42 % -6.46 C
Sensor: Nr:Datum:Temp:Feuchte:Taupunkt:
Aussen-T/F 2101 04-03-2011 12:28:02 7.3 C 39 % -5.72 C
2102 04-03-2011 12:40:02 9.5 C 31 % -6.76 C
2103 04-03-2011 12:52:01 10.5 C 30 % -6.32 C
2104 04-03-2011 13:04:01 11.6 C 26 % -7.22 C
2105 04-03-2011 13:16:01 12 C 25 % -7.39 C
2106 04-03-2011 13:28:01 10.1 C 30 % -6.66 C
2107 04-03-2011 13:40:02 9 C 31 % -7.2 C
2108 04-03-2011 13:52:02 8.9 C 32 % -6.87 C
2109 04-03-2011 14:04:02 8.6 C 33 % -6.74 C
2110 04-03-2011 14:16:01 9.8 C 32 % -6.09 C
2111 04-03-2011 14:28:01 9.8 C 32 % -6.09 C
2112 04-03-2011 14:40:02 10.1 C 32 % -5.82 C
2113 04-03-2011 14:52:02 10 C 31 % -6.32 C
2114 04-03-2011 15:04:02 10.9 C 30 % -5.97 C
2115 04-03-2011 15:16:02 10.7 C 31 % -5.71 C
2116 04-03-2011 15:28:02 10.8 C 30 % -6.06 C
2117 04-03-2011 15:40:02 13.2 C 26 % -5.86 C
2118 04-03-2011 15:52:02 14.2 C 25 % -5.52 C
2119 04-03-2011 16:04:01 15.1 C 20 % -7.66 C
2120 04-03-2011 16:16:01 16.9 C 20 % -6.17 C
2121 04-03-2011 16:28:01 16.6 C 20 % -6.42 C
2122 04-03-2011 16:40:02 15.2 C 22 % -6.35 C
2123 04-03-2011 16:52:02 14.9 C 25 % -4.93 C
2124 04-03-2011 17:04:02 13.5 C 25 % -6.11 C
2125 04-03-2011 17:16:02 13.2 C 27 % -5.36 C
Sensor: Nr:Datum:Temp:Feuchte:Taupunkt:
Aussen-T/F 2126 04-03-2011 17:28:02 11.1 C 34 % -4.15 C
2127 04-03-2011 17:40:02 8.9 C 40 % -3.95 C
2128 04-03-2011 17:52:02 7.9 C 44 % -3.58 C
2129 04-03-2011 18:04:02 6.4 C 48 % -3.79 C
2130 04-03-2011 18:16:02 5.5 C 52 % -3.56 C
2131 04-03-2011 18:28:02 5.1 C 54 % -3.42 C
2132 04-03-2011 18:40:02 4.7 C 56 % -3.31 C
2133 04-03-2011 18:52:01 5.2 C 53 % -3.58 C
2134 04-03-2011 19:04:02 5 C 52 % -4.02 C
2135 04-03-2011 19:16:01 5 C 50 % -4.54 C
2136 04-03-2011 19:28:01 4.3 C 52 % -4.67 C
2137 04-03-2011 19:40:01 4.4 C 58 % -3.12 C
2138 04-03-2011 19:52:01 3.6 C 60 % -3.42 C
2139 04-03-2011 20:04:01 3.2 C 63 % -3.15 C
2140 04-03-2011 20:16:02 2.8 C 65 % -3.11 C
2141 04-03-2011 20:28:02 2.6 C 66 % -3.1 C
2142 04-03-2011 20:40:01 2.7 C 67 % -2.8 C
2143 04-03-2011 20:52:03 2.3 C 67 % -3.18 C
2144 04-03-2011 21:04:02 2.1 C 69 % -2.98 C
2145 04-03-2011 21:16:02 1.6 C 71 % -3.08 C
2146 04-03-2011 21:28:02 1.9 C 71 % -2.79 C
2147 04-03-2011 21:41:03 1.8 C 70 % -3.07 C
2148 04-03-2011 21:53:03 1.7 C 72 % -2.79 C
2149 04-03-2011 22:05:03 1.7 C 72 % -2.79 C
2150 04-03-2011 22:17:03 1.4 C 72 % -3.08 C
Sensor: Nr:Datum:Temp:Feuchte:Taupunkt:
Aussen-T/F 2151 04-03-2011 22:29:03 0.9 C 75 % -3.02 C
2152 04-03-2011 22:41:03 0.7 C 76 % -3.03 C
2153 04-03-2011 22:53:03 0.4 C 78 % -2.98 C
2154 04-03-2011 23:05:03 -0.3 C 78 % -3.66 C
2155 04-03-2011 23:17:03 0 C 80 % -3.03 C
2156 04-03-2011 23:29:03 0.6 C 80 % -2.44 C
2157 04-03-2011 23:41:03 0 C 79 % -3.2 C
2158 04-03-2011 23:53:03 -0.6 C 81 % -3.45 C
2159 05-03-2011 00:05:03 -0.5 C 82 % -3.19 C
2160 05-03-2011 00:17:03 -0.4 C 83 % -2.93 C
2161 05-03-2011 00:29:04 -1.5 C 83 % -4 C
2162 05-03-2011 00:41:04 -1.3 C 83 % -3.81 C
2163 05-03-2011 00:53:04 -1.5 C 84 % -3.85 C
2164 05-03-2011 01:05:04 -0.7 C 85 % -2.9 C
2165 05-03-2011 01:17:04 -1.7 C 85 % -3.88 C
2166 05-03-2011 01:29:04 -2.3 C 85 % -4.47 C
2167 05-03-2011 01:41:04 -2.3 C 85 % -4.47 C
2168 05-03-2011 01:53:04 -2.4 C 85 % -4.57 C
2169 05-03-2011 02:05:04 -2.8 C 85 % -4.96 C
2170 05-03-2011 02:17:04 -2.9 C 85 % -5.06 C
2171 05-03-2011 02:29:04 -3.1 C 85 % -5.26 C
2172 05-03-2011 02:41:04 -3.2 C 85 % -5.36 C
2173 05-03-2011 02:53:04 -3.2 C 85 % -5.36 C
2174 05-03-2011 03:05:04 -3.5 C 85 % -5.65 C
2175 05-03-2011 03:17:04 -3.5 C 85 % -5.65 C
Sensor: Nr:Datum:Temp:Feuchte:Taupunkt:
Aussen-T/F 2176 05-03-2011 03:29:04 -3.7 C 85 % -5.85 C
2177 05-03-2011 03:41:04 -3.7 C 86 % -5.69 C
2178 05-03-2011 03:53:04 -3.5 C 86 % -5.5 C
2179 05-03-2011 04:05:04 -3.6 C 86 % -5.6 C
2180 05-03-2011 04:17:04 -3.9 C 86 % -5.89 C
2181 05-03-2011 04:29:04 -3.8 C 86 % -5.79 C
2182 05-03-2011 04:41:05 -3.7 C 87 % -5.54 C
2183 05-03-2011 04:53:05 -3.7 C 87 % -5.54 C
2184 05-03-2011 05:05:05 -3.7 C 87 % -5.54 C
2185 05-03-2011 05:17:05 -3.8 C 87 % -5.64 C
2186 05-03-2011 05:29:05 -4.1 C 87 % -5.94 C
2187 05-03-2011 05:41:05 -3.6 C 87 % -5.44 C
2188 05-03-2011 05:53:05 -4 C 87 % -5.84 C
2189 05-03-2011 06:05:05 -3.7 C 87 % -5.54 C
2190 05-03-2011 06:17:05 -2.8 C 87 % -4.66 C
2191 05-03-2011 06:29:05 -2.6 C 87 % -4.46 C
2192 05-03-2011 06:41:05 -2.5 C 87 % -4.36 C
2193 05-03-2011 06:53:05 -2.3 C 88 % -4.01 C
2194 05-03-2011 07:05:03 -2.4 C 88 % -4.11 C
2195 05-03-2011 07:17:02 -2.2 C 88 % -3.91 C
2196 05-03-2011 07:29:02 -2.7 C 87 % -4.56 C
2197 05-03-2011 07:41:02 -2.8 C 87 % -4.66 C
2198 05-03-2011 07:53:01 -1.9 C 88 % -3.62 C
2199 05-03-2011 08:05:02 -1.9 C 88 % -3.62 C
2200 05-03-2011 08:17:02 -1.8 C 88 % -3.52 C
Sensor: Nr:Datum:Temp:Feuchte:Taupunkt:
Aussen-T/F 2201 05-03-2011 08:29:02 -1.4 C 87 % -3.28 C
2202 05-03-2011 08:41:02 -1.4 C 87 % -3.28 C
2203 05-03-2011 08:53:02 -1.3 C 86 % -3.33 C
2204 05-03-2011 09:05:02 -1.1 C 86 % -3.14 C
2205 05-03-2011 09:17:02 -0.9 C 85 % -3.1 C
2206 05-03-2011 09:29:02 -0.7 C 84 % -3.06 C
2207 05-03-2011 09:41:02 -0.2 C 83 % -2.73 C
2208 05-03-2011 09:53:02 0.2 C 82 % -2.5 C
2209 05-03-2011 10:05:02 0.6 C 81 % -2.28 C
2210 05-03-2011 10:17:02 1 C 78 % -2.39 C
2211 05-03-2011 10:29:02 1.6 C 76 % -2.16 C
2212 05-03-2011 10:41:02 2.2 C 73 % -2.13 C
2213 05-03-2011 10:53:01 2.4 C 71 % -2.31 C
2214 05-03-2011 11:05:02 2.4 C 69 % -2.69 C
2215 05-03-2011 11:17:01 2.9 C 68 % -2.41 C
2216 05-03-2011 11:29:01 2.8 C 63 % -3.53 C
2217 05-03-2011 11:41:01 3 C 62 % -3.55 C
2218 05-03-2011 11:53:01 3 C 61 % -3.77 C
2219 05-03-2011 12:05:02 3.3 C 62 % -3.27 C
2220 05-03-2011 12:17:02 3.3 C 61 % -3.49 C
2221 05-03-2011 12:29:02 4.6 C 58 % -2.94 C
2222 05-03-2011 12:41:01 4.9 C 54 % -3.61 C
2223 05-03-2011 12:53:02 6.3 C 48 % -3.88 C
2224 05-03-2011 13:05:01 6.8 C 47 % -3.71 C
2225 05-03-2011 13:17:02 6.3 C 47 % -4.16 C
Sensor: Nr:Datum:Temp:Feuchte:Taupunkt:
Aussen-T/F 2226 05-03-2011 13:29:02 5.6 C 48 % -4.53 C
2227 05-03-2011 13:41:01 5 C 50 % -4.54 C
2228 05-03-2011 13:53:02 4.7 C 50 % -4.82 C
2229 05-03-2011 14:05:02 3.3 C 53 % -5.35 C
2230 05-03-2011 14:17:02 4 C 53 % -4.7 C
2231 05-03-2011 14:29:02 4.1 C 52 % -4.85 C
2232 05-03-2011 14:41:02 4.1 C 53 % -4.6 C
2233 05-03-2011 14:53:02 4.5 C 52 % -4.48 C
2234 05-03-2011 15:05:03 4.2 C 52 % -4.76 C
2235 05-03-2011 15:17:02 3.7 C 53 % -4.97 C
2236 05-03-2011 15:29:02 3.4 C 55 % -4.77 C
2237 05-03-2011 15:41:02 3.8 C 54 % -4.63 C
2238 05-03-2011 15:53:01 4.8 C 51 % -4.46 C
2239 05-03-2011 16:05:02 4.2 C 52 % -4.76 C
2240 05-03-2011 16:17:01 4.1 C 52 % -4.85 C
2241 05-03-2011 16:29:01 3.3 C 55 % -4.86 C
2242 05-03-2011 16:41:02 2.6 C 59 % -4.59 C
2243 05-03-2011 16:53:01 2.7 C 60 % -4.27 C
2244 05-03-2011 17:05:02 3.2 C 59 % -4.02 C
2245 05-03-2011 17:17:01 3.3 C 57 % -4.39 C
2246 05-03-2011 17:29:01 2.6 C 61 % -4.15 C
2247 05-03-2011 17:41:02 2.2 C 64 % -3.89 C
2248 05-03-2011 17:53:01 1.8 C 67 % -3.66 C
2249 05-03-2011 18:05:02 1.5 C 70 % -3.36 C
2250 05-03-2011 18:17:02 1.5 C 71 % -3.17 C
Sensor: Nr:Datum:Temp:Feuchte:Taupunkt:
Aussen-T/F 2251 05-03-2011 18:29:02 1.4 C 72 % -3.08 C
2252 05-03-2011 18:41:01 1.3 C 73 % -2.99 C
2253 05-03-2011 18:53:01 1.1 C 74 % -3 C
2254 05-03-2011 19:05:02 0.8 C 77 % -2.76 C
2255 05-03-2011 19:17:02 0.6 C 78 % -2.78 C
2256 05-03-2011 19:29:02 1.1 C 79 % -2.12 C
2257 05-03-2011 19:41:01 1.5 C 78 % -1.91 C
2258 05-03-2011 19:53:02 1.7 C 76 % -2.07 C
2259 05-03-2011 20:05:01 1.9 C 76 % -1.87 C
2260 05-03-2011 20:17:02 1.9 C 76 % -1.87 C
2261 05-03-2011 20:29:03 1.5 C 77 % -2.08 C
2262 05-03-2011 20:41:01 1.4 C 78 % -2.01 C
2263 05-03-2011 20:53:02 0.7 C 79 % -2.51 C
2264 05-03-2011 21:05:02 0.1 C 80 % -2.93 C
2265 05-03-2011 21:17:02 -0.6 C 80 % -3.62 C
2266 05-03-2011 21:29:02 -0.2 C 82 % -2.89 C
2267 05-03-2011 21:41:03 -0.6 C 82 % -3.29 C
2268 05-03-2011 21:54:03 -1.2 C 82 % -3.87 C
2269 05-03-2011 22:06:03 -0.9 C 83 % -3.42 C
2270 05-03-2011 22:18:03 -1.2 C 84 % -3.55 C
2271 05-03-2011 22:30:03 -0.9 C 84 % -3.26 C
2272 05-03-2011 22:42:03 -1.4 C 84 % -3.75 C
2273 05-03-2011 22:54:03 -1.7 C 84 % -4.04 C
2274 05-03-2011 23:06:04 -1.6 C 84 % -3.94 C
2275 05-03-2011 23:18:04 -2 C 84 % -4.34 C
Sensor: Nr:Datum:Temp:Feuchte:Taupunkt:
Aussen-T/F 2276 05-03-2011 23:30:04 -1.4 C 85 % -3.59 C
2277 05-03-2011 23:42:04 -1.8 C 85 % -3.98 C
2278 05-03-2011 23:54:04 -1.3 C 86 % -3.33 C
2279 06-03-2011 00:06:04 -1.6 C 86 % -3.63 C
2280 06-03-2011 00:18:04 -1.8 C 86 % -3.83 C
2281 06-03-2011 00:30:04 -1.4 C 87 % -3.28 C
2282 06-03-2011 00:42:04 -1.4 C 87 % -3.28 C
2283 06-03-2011 00:54:04 -1.9 C 86 % -3.92 C
2284 06-03-2011 01:06:04 -2.4 C 86 % -4.42 C
2285 06-03-2011 01:18:04 -2.2 C 87 % -4.07 C
2286 06-03-2011 01:30:04 -2.4 C 87 % -4.26 C
2287 06-03-2011 01:42:04 -1.5 C 88 % -3.22 C
2288 06-03-2011 01:54:04 -1.2 C 88 % -2.93 C
2289 06-03-2011 02:06:04 -0.9 C 89 % -2.48 C
2290 06-03-2011 02:18:04 -0.4 C 89 % -1.99 C
2291 06-03-2011 02:30:04 -0.5 C 89 % -2.09 C
2292 06-03-2011 02:42:04 -0.3 C 88 % -2.04 C
2293 06-03-2011 02:54:04 -0.3 C 88 % -2.04 C
2294 06-03-2011 03:06:04 -0.1 C 88 % -1.84 C
2295 06-03-2011 03:18:05 0 C 88 % -1.74 C
2296 06-03-2011 03:30:05 0 C 87 % -1.9 C
2297 06-03-2011 03:42:05 0 C 87 % -1.9 C
2298 06-03-2011 03:54:05 0 C 87 % -1.9 C
2299 06-03-2011 04:06:05 0.1 C 86 % -1.96 C
2300 06-03-2011 04:18:05 0.1 C 85 % -2.11 C
Sensor: Nr:Datum:Temp:Feuchte:Taupunkt:
Aussen-T/F 2301 06-03-2011 04:30:05 0.1 C 83 % -2.44 C
2302 06-03-2011 04:42:05 -0.3 C 80 % -3.32 C
2303 06-03-2011 04:54:05 -0.4 C 78 % -3.76 C
2304 06-03-2011 05:06:05 -0.1 C 75 % -3.99 C
2305 06-03-2011 05:18:05 -1.6 C 74 % -5.62 C
2306 06-03-2011 05:30:05 -1.7 C 76 % -5.36 C
2307 06-03-2011 05:42:05 -2.1 C 77 % -5.58 C
2308 06-03-2011 05:54:05 -2.1 C 78 % -5.41 C
2309 06-03-2011 06:06:05 -2.8 C 79 % -5.93 C
2310 06-03-2011 06:18:05 -3 C 80 % -5.96 C
2311 06-03-2011 06:30:05 -2.8 C 81 % -5.6 C
2312 06-03-2011 06:42:05 -3 C 82 % -5.63 C
2313 06-03-2011 06:54:05 -2.5 C 83 % -4.98 C
2314 06-03-2011 07:06:05 -1.9 C 83 % -4.4 C
2315 06-03-2011 07:18:05 -1.6 C 81 % -4.43 C
2316 06-03-2011 07:30:06 -1.6 C 79 % -4.76 C
2317 06-03-2011 07:42:06 -2.3 C 78 % -5.61 C
2318 06-03-2011 07:54:06 -2.3 C 78 % -5.61 C
2319 06-03-2011 08:06:04 -1.5 C 79 % -4.66 C
2320 06-03-2011 08:18:03 -0.9 C 77 % -4.42 C
2321 06-03-2011 08:30:03 -0.2 C 74 % -4.26 C
2322 06-03-2011 08:42:04 0.2 C 71 % -4.42 C
2323 06-03-2011 08:54:02 0.7 C 67 % -4.71 C
2324 06-03-2011 09:06:02 1.1 C 63 % -5.14 C
2325 06-03-2011 09:18:02 1.1 C 61 % -5.56 C
Sensor: Nr:Datum:Temp:Feuchte:Taupunkt:
Aussen-T/F 2326 06-03-2011 09:30:02 0.8 C 61 % -5.85 C
2327 06-03-2011 09:42:02 1.4 C 59 % -5.72 C
2328 06-03-2011 09:54:01 1.8 C 53 % -6.74 C
2329 06-03-2011 10:06:02 2.1 C 51 % -6.96 C
2330 06-03-2011 10:18:01 2.6 C 49 % -7.02 C
2331 06-03-2011 10:30:01 2 C 49 % -7.57 C
2332 06-03-2011 10:42:01 1.7 C 53 % -6.83 C
2333 06-03-2011 10:54:01 2.3 C 49 % -7.29 C
2334 06-03-2011 11:06:02 2.7 C 47 % -7.46 C
2335 06-03-2011 11:18:01 3.1 C 45 % -7.66 C
2336 06-03-2011 11:30:01 4.3 C 42 % -7.46 C
2337 06-03-2011 11:42:01 4.6 C 41 % -7.49 C
2338 06-03-2011 11:54:01 4.1 C 40 % -8.26 C
2339 06-03-2011 12:06:01 4.6 C 40 % -7.81 C
2340 06-03-2011 12:18:02 3.8 C 41 % -8.22 C
2341 06-03-2011 12:30:02 5 C 40 % -7.45 C
2342 06-03-2011 12:42:01 7.2 C 33 % -7.97 C
2343 06-03-2011 12:54:02 5.7 C 34 % -8.91 C
2344 06-03-2011 13:06:01 7.8 C 30 % -8.66 C
2345 06-03-2011 13:18:01 5.6 C 32 % -9.77 C
2346 06-03-2011 13:30:01 5.5 C 35 % -8.72 C
2347 06-03-2011 13:42:01 4.9 C 37 % -8.54 C
2348 06-03-2011 13:54:02 5.8 C 34 % -8.82 C
2349 06-03-2011 14:06:02 5.8 C 33 % -9.2 C
2350 06-03-2011 14:18:02 6.9 C 31 % -9.03 C
Sensor: Nr:Datum:Temp:Feuchte:Taupunkt:
Aussen-T/F 2351 06-03-2011 14:30:02 6.5 C 30 % -9.8 C
2352 06-03-2011 14:42:01 7 C 28 % -10.23 C
2353 06-03-2011 14:54:02 7.1 C 30 % -9.27 C
2354 06-03-2011 15:06:01 8 C 28 % -9.37 C
2355 06-03-2011 15:18:01 8 C 28 % -9.37 C
2356 06-03-2011 15:30:01 9.2 C 25 % -9.77 C
2357 06-03-2011 15:42:02 8.9 C 21 % -12.2 C
2358 06-03-2011 15:54:02 11.4 C 20 % -10.73 C
2359 06-03-2011 16:06:02 12.6 C 20 % -9.73 C
2360 06-03-2011 16:18:02 12.6 C 20 % -9.73 C
2361 06-03-2011 16:30:02 13.2 C 20 % -9.24 C
2362 06-03-2011 16:42:02 12.3 C 20 % -9.98 C
2363 06-03-2011 16:54:02 12.6 C 20 % -9.73 C
2364 06-03-2011 17:06:02 11.1 C 20 % -10.98 C
2365 06-03-2011 17:18:02 10.5 C 20 % -11.48 C
2366 06-03-2011 17:30:02 8.6 C 25 % -10.28 C
2367 06-03-2011 17:42:02 7.9 C 33 % -7.35 C
2368 06-03-2011 17:54:01 6.2 C 37 % -7.38 C
2369 06-03-2011 18:06:01 4.3 C 42 % -7.46 C
2370 06-03-2011 18:18:02 2.5 C 50 % -6.85 C
2371 06-03-2011 18:30:02 1.5 C 55 % -6.54 C
2372 06-03-2011 18:42:01 1.2 C 56 % -6.59 C
2373 06-03-2011 18:54:02 0.6 C 59 % -6.47 C
2374 06-03-2011 19:06:02 0.4 C 60 % -6.44 C
2375 06-03-2011 19:18:03 0.2 C 62 % -6.2 C
Sensor: Nr:Datum:Temp:Feuchte:Taupunkt:
Aussen-T/F 2376 06-03-2011 19:30:03 0 C 63 % -6.18 C
2377 06-03-2011 19:42:02 -0.2 C 63 % -6.38 C
2378 06-03-2011 19:54:02 -0.2 C 63 % -6.38 C
2379 06-03-2011 20:06:02 -0.2 C 63 % -6.38 C
2380 06-03-2011 20:18:02 -0.5 C 65 % -6.26 C
2381 06-03-2011 20:30:03 -0.5 C 65 % -6.26 C
2382 06-03-2011 20:42:02 -0.5 C 65 % -6.26 C
2383 06-03-2011 20:54:02 -0.9 C 65 % -6.64 C
2384 06-03-2011 21:06:01 -0.9 C 66 % -6.44 C
2385 06-03-2011 21:18:02 -1 C 65 % -6.74 C
2386 06-03-2011 21:30:02 -1.1 C 66 % -6.63 C
2387 06-03-2011 21:42:02 -1.3 C 66 % -6.82 C
2388 06-03-2011 21:55:03 -1.2 C 66 % -6.73 C
2389 06-03-2011 22:07:03 -1.3 C 65 % -7.02 C
2390 06-03-2011 22:19:03 -1.6 C 66 % -7.11 C
2391 06-03-2011 22:31:03 -1.6 C 67 % -6.91 C
2392 06-03-2011 22:43:03 -1.8 C 67 % -7.11 C
2393 06-03-2011 22:55:03 -1.7 C 67 % -7.01 C
2394 06-03-2011 23:07:03 -2.1 C 67 % -7.39 C
2395 06-03-2011 23:19:03 -2 C 66 % -7.49 C
2396 06-03-2011 23:31:03 -2.1 C 66 % -7.59 C
2397 06-03-2011 23:43:03 -2.2 C 65 % -7.88 C
2398 06-03-2011 23:55:03 -2.1 C 65 % -7.78 C
2399 07-03-2011 00:07:03 -2.2 C 66 % -7.68 C
2400 07-03-2011 00:19:03 -2.3 C 66 % -7.78 C
Sensor: Nr:Datum:Temp:Feuchte:Taupunkt:
Aussen-T/F 2401 07-03-2011 00:31:03 -2.3 C 66 % -7.78 C
2402 07-03-2011 00:43:03 -2.5 C 66 % -7.97 C
2403 07-03-2011 00:55:03 -2.8 C 66 % -8.26 C
2404 07-03-2011 01:07:03 -2.9 C 68 % -7.97 C
2405 07-03-2011 01:19:03 -2.7 C 69 % -7.59 C
2406 07-03-2011 01:31:03 -3.1 C 68 % -8.16 C
2407 07-03-2011 01:43:03 -3.3 C 69 % -8.16 C
2408 07-03-2011 01:55:03 -3.1 C 69 % -7.97 C
2409 07-03-2011 02:07:04 -3.4 C 69 % -8.26 C
2410 07-03-2011 02:19:04 -3.6 C 69 % -8.45 C
2411 07-03-2011 02:31:04 -3.6 C 70 % -8.27 C
2412 07-03-2011 02:43:04 -3.7 C 70 % -8.36 C
2413 07-03-2011 02:55:04 -3.8 C 70 % -8.46 C
2414 07-03-2011 03:07:04 -4.1 C 71 % -8.57 C
2415 07-03-2011 03:19:04 -4.1 C 71 % -8.57 C
2416 07-03-2011 03:31:04 -4.1 C 71 % -8.57 C
2417 07-03-2011 03:43:04 -4.3 C 71 % -8.76 C
2418 07-03-2011 03:55:04 -4.3 C 71 % -8.76 C
2419 07-03-2011 04:07:04 -4.4 C 71 % -8.85 C
2420 07-03-2011 04:19:04 -4.4 C 72 % -8.68 C
2421 07-03-2011 04:31:04 -4.6 C 72 % -8.87 C
2422 07-03-2011 04:43:04 -4.8 C 72 % -9.06 C
2423 07-03-2011 04:55:04 -5 C 72 % -9.25 C
2424 07-03-2011 05:07:04 -4.8 C 72 % -9.06 C
2425 07-03-2011 05:19:04 -4.5 C 72 % -8.77 C
Sensor: Nr:Datum:Temp:Feuchte:Taupunkt:
Aussen-T/F 2426 07-03-2011 05:31:04 -4.6 C 72 % -8.87 C
2427 07-03-2011 05:43:04 -4.7 C 71 % -9.14 C
2428 07-03-2011 05:55:04 -4.6 C 71 % -9.05 C
2429 07-03-2011 06:07:05 -4.6 C 70 % -9.23 C
2430 07-03-2011 06:19:05 -4.6 C 71 % -9.05 C
2431 07-03-2011 06:31:05 -4.7 C 70 % -9.32 C
2432 07-03-2011 06:43:05 -4.5 C 69 % -9.31 C
2433 07-03-2011 06:55:05 -4.6 C 68 % -9.6 C
2434 07-03-2011 07:07:05 -4.7 C 69 % -9.51 C
2435 07-03-2011 07:19:05 -4.6 C 68 % -9.6 C
2436 07-03-2011 07:31:05 -4.7 C 68 % -9.69 C
2437 07-03-2011 07:43:05 -4.7 C 68 % -9.69 C
2438 07-03-2011 07:55:05 -4.4 C 68 % -9.4 C
2439 07-03-2011 08:07:05 -3.9 C 65 % -9.5 C
2440 07-03-2011 08:19:05 -4 C 63 % -9.99 C
2441 07-03-2011 08:31:05 -4 C 64 % -9.79 C
2442 07-03-2011 08:43:05 -3.5 C 62 % -9.72 C
2443 07-03-2011 08:55:05 -3.4 C 61 % -9.83 C
2444 07-03-2011 09:07:04 -3.3 C 61 % -9.73 C
2445 07-03-2011 09:19:03 -3.5 C 60 % -10.13 C
2446 07-03-2011 09:31:03 -2.9 C 61 % -9.36 C
2447 07-03-2011 09:43:03 -2.6 C 60 % -9.28 C
2448 07-03-2011 09:55:01 -2.3 C 59 % -9.21 C
2449 07-03-2011 10:07:02 -1.1 C 57 % -8.52 C
2450 07-03-2011 10:19:01 0.1 C 49 % -9.32 C
Sensor: Nr:Datum:Temp:Feuchte:Taupunkt:
Aussen-T/F 2451 07-03-2011 10:31:02 1.3 C 39 % -11.1 C
2452 07-03-2011 10:43:02 2.1 C 30 % -13.63 C
2453 07-03-2011 10:55:01 2.8 C 26 % -14.76 C
2454 07-03-2011 11:07:02 3.6 C 20 % -17.22 C
2455 07-03-2011 11:19:01 4 C 20 % -16.89 C
2456 07-03-2011 11:31:01 4.3 C 20 % -16.64 C
2457 07-03-2011 11:43:01 4.9 C 20 % -16.14 C
2458 07-03-2011 11:55:01 4.6 C 20 % -16.39 C
2459 07-03-2011 12:07:02 5.1 C 20 % -15.97 C
2460 07-03-2011 12:19:02 6 C 20 % -15.22 C
2461 07-03-2011 12:31:01 8.3 C 20 % -13.31 C
2462 07-03-2011 12:43:01 9.6 C 20 % -12.22 C
2463 07-03-2011 12:55:02 9.7 C 20 % -12.14 C
2464 07-03-2011 13:07:01 9.8 C 20 % -12.06 C
2465 07-03-2011 13:19:01 9.3 C 20 % -12.47 C
2466 07-03-2011 13:31:01 8 C 20 % -13.56 C
2467 07-03-2011 13:43:01 7.1 C 20 % -14.3 C
2468 07-03-2011 13:55:02 7.3 C 20 % -14.14 C
2469 07-03-2011 14:07:02 7.5 C 20 % -13.97 C
2470 07-03-2011 14:19:02 8.7 C 20 % -12.97 C
2471 07-03-2011 14:31:02 8.4 C 20 % -13.22 C
2472 07-03-2011 14:43:02 8.7 C 20 % -12.97 C
2473 07-03-2011 14:55:02 8.5 C 20 % -13.14 C
2474 07-03-2011 15:07:01 9.5 C 20 % -12.31 C
2475 07-03-2011 15:19:02 10.5 C 20 % -11.48 C
Sensor: Nr:Datum:Temp:Feuchte:Taupunkt:
Aussen-T/F 2476 07-03-2011 15:31:01 10.2 C 20 % -11.73 C
2477 07-03-2011 15:43:01 11.1 C 20 % -10.98 C
2478 07-03-2011 15:55:02 13.7 C 20 % -8.82 C
2479 07-03-2011 16:07:02 13.3 C 20 % -9.15 C
2480 07-03-2011 16:19:02 14.6 C 20 % -8.08 C
2481 07-03-2011 16:31:02 14.3 C 20 % -8.33 C
2482 07-03-2011 16:43:02 12 C 20 % -10.23 C
2483 07-03-2011 16:55:02 14 C 20 % -8.57 C
2484 07-03-2011 17:07:01 12.9 C 20 % -9.49 C
2485 07-03-2011 17:19:01 11.8 C 20 % -10.4 C
2486 07-03-2011 17:31:02 10.4 C 20 % -11.56 C
2487 07-03-2011 17:43:02 9.6 C 20 % -12.22 C
2488 07-03-2011 17:55:02 7.4 C 20 % -14.05 C
2489 07-03-2011 18:07:02 5.6 C 20 % -15.55 C
2490 07-03-2011 18:19:02 2.7 C 32 % -12.31 C
2491 07-03-2011 18:31:02 1.9 C 37 % -11.22 C
2492 07-03-2011 18:43:02 1.3 C 41 % -10.47 C
2493 07-03-2011 18:55:02 0.7 C 41 % -11.02 C
2494 07-03-2011 19:07:02 0.9 C 43 % -10.24 C
2495 07-03-2011 19:19:02 0.6 C 43 % -10.51 C
2496 07-03-2011 19:31:02 0.3 C 45 % -10.21 C
2497 07-03-2011 19:43:02 0.2 C 43 % -10.87 C
2498 07-03-2011 19:55:02 0 C 45 % -10.49 C
2499 07-03-2011 20:07:02 -0.5 C 46 % -10.69 C
2500 07-03-2011 20:19:01 -0.5 C 46 % -10.69 C
Sensor: Nr:Datum:Temp:Feuchte:Taupunkt:
Aussen-T/F 2501 07-03-2011 20:31:02 -0.4 C 45 % -10.87 C
2502 07-03-2011 20:43:02 -0.5 C 45 % -10.96 C
2503 07-03-2011 20:55:01 -0.3 C 47 % -10.23 C
2504 07-03-2011 21:07:02 -0.2 C 45 % -10.69 C
2505 07-03-2011 21:20:03 -0.4 C 46 % -10.59 C
2506 07-03-2011 21:32:03 -0.4 C 45 % -10.87 C
2507 07-03-2011 21:44:03 -0.5 C 46 % -10.69 C
2508 07-03-2011 21:56:03 -0.4 C 45 % -10.87 C
2509 07-03-2011 22:08:03 -1.2 C 47 % -11.06 C
2510 07-03-2011 22:20:03 -1.2 C 48 % -10.79 C
2511 07-03-2011 22:32:03 -1.4 C 48 % -10.98 C
2512 07-03-2011 22:44:03 -1.3 C 48 % -10.89 C
2513 07-03-2011 22:56:03 -1.3 C 48 % -10.89 C
2514 07-03-2011 23:08:03 -1.6 C 50 % -10.65 C
2515 07-03-2011 23:20:03 -1.2 C 47 % -11.06 C
2516 07-03-2011 23:32:03 -1.8 C 50 % -10.84 C
2517 07-03-2011 23:44:03 -2.2 C 50 % -11.21 C
2518 07-03-2011 23:56:03 -1.9 C 52 % -10.44 C
2519 08-03-2011 00:08:03 -2.7 C 52 % -11.18 C
2520 08-03-2011 00:20:03 -3.1 C 55 % -10.85 C
2521 08-03-2011 00:32:04 -3.4 C 57 % -10.68 C
2522 08-03-2011 00:44:04 -3.7 C 55 % -11.41 C
2523 08-03-2011 00:56:04 -4.2 C 55 % -11.88 C
2524 08-03-2011 01:08:04 -4.6 C 56 % -12.03 C
2525 08-03-2011 01:20:04 -4.4 C 58 % -11.41 C
Sensor: Nr:Datum:Temp:Feuchte:Taupunkt:
Aussen-T/F 2526 08-03-2011 01:32:04 -4.1 C 61 % -10.49 C
2527 08-03-2011 01:44:04 -4.2 C 60 % -10.79 C
2528 08-03-2011 01:56:04 -4.7 C 60 % -11.27 C
2529 08-03-2011 02:08:04 -4.8 C 58 % -11.78 C
2530 08-03-2011 02:20:04 -4.8 C 59 % -11.57 C
2531 08-03-2011 02:32:04 -5.1 C 59 % -11.85 C
2532 08-03-2011 02:44:04 -5.2 C 60 % -11.74 C
2533 08-03-2011 02:56:04 -5.3 C 60 % -11.83 C
2534 08-03-2011 03:08:04 -5.1 C 61 % -11.44 C
2535 08-03-2011 03:20:04 -5.8 C 62 % -11.9 C
2536 08-03-2011 03:32:04 -6.1 C 63 % -11.99 C
2537 08-03-2011 03:44:04 -6.3 C 63 % -12.18 C
2538 08-03-2011 03:56:04 -6.2 C 65 % -11.69 C
2539 08-03-2011 04:08:04 -6.3 C 66 % -11.6 C
2540 08-03-2011 04:20:04 -6.3 C 67 % -11.41 C
2541 08-03-2011 04:32:05 -6.3 C 67 % -11.41 C
2542 08-03-2011 04:44:05 -6.2 C 67 % -11.31 C
2543 08-03-2011 04:56:05 -6.1 C 66 % -11.41 C
2544 08-03-2011 05:08:05 -6 C 63 % -11.89 C
2545 08-03-2011 05:20:05 -5.2 C 63 % -11.13 C
2546 08-03-2011 05:32:05 -6 C 63 % -11.89 C
2547 08-03-2011 05:44:05 -6.3 C 64 % -11.98 C
2548 08-03-2011 05:56:05 -5.3 C 64 % -11.03 C
2549 08-03-2011 06:08:05 -6 C 62 % -12.09 C
2550 08-03-2011 06:20:05 -6 C 63 % -11.89 C
Sensor: Nr:Datum:Temp:Feuchte:Taupunkt:
Aussen-T/F 2551 08-03-2011 06:32:05 -6.3 C 64 % -11.98 C
2552 08-03-2011 06:44:05 -6.7 C 65 % -12.17 C
2553 08-03-2011 06:56:05 -6.8 C 66 % -12.08 C
2554 08-03-2011 07:08:05 -6.9 C 66 % -12.17 C
2555 08-03-2011 07:20:05 -6 C 67 % -11.12 C
2556 08-03-2011 07:32:02 -6.1 C 66 % -11.41 C
2557 08-03-2011 07:44:02 -5.5 C 67 % -10.64 C
2558 08-03-2011 07:56:02 -5.4 C 65 % -10.93 C
2559 08-03-2011 08:08:02 -5.5 C 65 % -11.02 C
2560 08-03-2011 08:20:02 -5.3 C 65 % -10.83 C
2561 08-03-2011 08:32:02 -5.2 C 65 % -10.74 C
2562 08-03-2011 08:44:02 -4.8 C 65 % -10.36 C
2563 08-03-2011 08:56:02 -4.6 C 65 % -10.17 C
2564 08-03-2011 09:08:01 -4.4 C 62 % -10.57 C
2565 08-03-2011 09:20:01 -4.1 C 61 % -10.49 C
2566 08-03-2011 09:32:02 -3.7 C 63 % -9.71 C
2567 08-03-2011 09:44:02 -3.1 C 63 % -9.14 C
2568 08-03-2011 09:56:02 -2.5 C 61 % -8.98 C
2569 08-03-2011 10:08:02 -1.7 C 57 % -9.09 C
2570 08-03-2011 10:20:02 -0.2 C 55 % -8.14 C
2571 08-03-2011 10:32:01 0.3 C 49 % -9.14 C
2572 08-03-2011 10:44:01 0.9 C 47 % -9.11 C
2573 08-03-2011 10:56:01 2.4 C 40 % -9.79 C
2574 08-03-2011 11:08:01 3.2 C 42 % -8.45 C
2575 08-03-2011 11:20:01 3.2 C 39 % -9.39 C
Sensor: Nr:Datum:Temp:Feuchte:Taupunkt:
Aussen-T/F 2576 08-03-2011 11:32:01 4.1 C 34 % -10.32 C
2577 08-03-2011 11:44:01 6.4 C 31 % -9.47 C
2578 08-03-2011 11:56:02 5.6 C 32 % -9.77 C
2579 08-03-2011 12:08:02 6.1 C 27 % -11.46 C
2580 08-03-2011 12:20:01 7.1 C 28 % -10.15 C
2581 08-03-2011 12:32:01 9.2 C 20 % -12.56 C
2582 08-03-2011 12:44:01 10.8 C 20 % -11.23 C
2583 08-03-2011 12:56:01 12.2 C 20 % -10.07 C
2584 08-03-2011 13:08:02 11.1 C 20 % -10.98 C
2585 08-03-2011 13:20:01 11.4 C 20 % -10.73 C
2586 08-03-2011 13:32:01 11.1 C 20 % -10.98 C
2587 08-03-2011 13:44:01 10 C 20 % -11.89 C
2588 08-03-2011 13:56:01 10.5 C 21 % -10.87 C
2589 08-03-2011 14:08:01 11.8 C 23 % -8.63 C
2590 08-03-2011 14:20:02 11.7 C 20 % -10.48 C
2591 08-03-2011 14:32:01 12.3 C 20 % -9.98 C
2592 08-03-2011 14:44:01 12.9 C 20 % -9.49 C
2593 08-03-2011 14:56:02 12.7 C 25 % -6.79 C
2594 08-03-2011 15:08:02 12.9 C 23 % -7.7 C
2595 08-03-2011 15:20:02 13.9 C 21 % -8.03 C
2596 08-03-2011 15:32:02 13.6 C 20 % -8.91 C
2597 08-03-2011 15:44:02 14.2 C 20 % -8.41 C
2598 08-03-2011 15:56:02 15.2 C 20 % -7.58 C
2599 08-03-2011 16:08:01 15.7 C 20 % -7.17 C
2600 08-03-2011 16:20:02 14.6 C 20 % -8.08 C
Sensor: Nr:Datum:Temp:Feuchte:Taupunkt:
Aussen-T/F 2601 08-03-2011 16:32:02 14.9 C 20 % -7.83 C
2602 08-03-2011 16:44:02 15.2 C 20 % -7.58 C
2603 08-03-2011 16:56:02 14.8 C 20 % -7.91 C
2604 08-03-2011 17:08:02 13.9 C 24 % -6.31 C
2605 08-03-2011 17:20:02 13.1 C 25 % -6.45 C
2606 08-03-2011 17:32:02 12.2 C 28 % -5.75 C
2607 08-03-2011 17:44:02 10.3 C 34 % -4.85 C
2608 08-03-2011 17:56:01 10.3 C 34 % -4.85 C
2609 08-03-2011 18:08:02 10.3 C 34 % -4.85 C
2610 08-03-2011 18:20:01 6.9 C 46 % -3.9 C
2611 08-03-2011 18:32:02 6.2 C 49 % -3.7 C
2612 08-03-2011 18:44:02 6.2 C 49 % -3.7 C
2613 08-03-2011 18:56:02 6.2 C 49 % -3.7 C
2614 08-03-2011 19:08:02 6.2 C 49 % -3.7 C
2615 08-03-2011 19:20:01 6.2 C 49 % -3.7 C
2616 08-03-2011 19:32:02 6.2 C 49 % -3.7 C
2617 08-03-2011 19:44:02 4.6 C 62 % -2.04 C
2618 08-03-2011 19:56:01 4.2 C 64 % -1.99 C
2619 08-03-2011 20:08:02 3.8 C 67 % -1.75 C
2620 08-03-2011 20:20:02 3.5 C 69 % -1.64 C
2621 08-03-2011 20:32:02 3.5 C 71 % -1.25 C
2622 08-03-2011 20:44:02 2.9 C 73 % -1.45 C
2623 08-03-2011 20:56:02 2.8 C 74 % -1.36 C
2624 08-03-2011 21:08:01 2.2 C 73 % -2.13 C
2625 08-03-2011 21:21:04 1.8 C 75 % -2.15 C
Sensor: Nr:Datum:Temp:Feuchte:Taupunkt:
Aussen-T/F 2626 08-03-2011 21:33:04 1.9 C 77 % -1.69 C
2627 08-03-2011 21:45:04 1.8 C 79 % -1.44 C
2628 08-03-2011 21:57:04 1.8 C 80 % -1.27 C
2629 08-03-2011 22:09:04 1.3 C 80 % -1.76 C
2630 08-03-2011 22:21:04 1.6 C 81 % -1.3 C
2631 08-03-2011 22:33:04 1.6 C 82 % -1.13 C
2632 08-03-2011 22:45:05 1.3 C 82 % -1.43 C
2633 08-03-2011 22:57:05 1 C 82 % -1.72 C
2634 08-03-2011 23:09:05 1.1 C 83 % -1.46 C
2635 08-03-2011 23:21:05 1 C 83 % -1.55 C
2636 08-03-2011 23:33:05 1.1 C 84 % -1.29 C
2637 08-03-2011 23:45:05 0.5 C 84 % -1.88 C
2638 08-03-2011 23:57:05 0.2 C 84 % -2.18 C
2639 09-03-2011 00:09:05 0 C 85 % -2.21 C
2640 09-03-2011 00:21:05 -0.4 C 85 % -2.61 C
2641 09-03-2011 00:33:05 -0.6 C 85 % -2.8 C
2642 09-03-2011 00:45:05 -0.7 C 85 % -2.9 C
2643 09-03-2011 00:57:05 -0.6 C 86 % -2.65 C
2644 09-03-2011 01:09:05 -0.5 C 87 % -2.39 C
2645 09-03-2011 01:21:05 -0.4 C 87 % -2.29 C
2646 09-03-2011 01:33:05 -0.7 C 87 % -2.59 C
2647 09-03-2011 01:45:05 -0.9 C 87 % -2.79 C
2648 09-03-2011 01:57:05 -0.9 C 87 % -2.79 C
2649 09-03-2011 02:09:05 0 C 88 % -1.74 C
2650 09-03-2011 02:21:05 1.6 C 89 % -0.01 C
Sensor: Nr:Datum:Temp:Feuchte:Taupunkt:
Aussen-T/F 2651 09-03-2011 02:33:05 0.4 C 89 % -1.2 C
2652 09-03-2011 02:45:06 0.2 C 89 % -1.39 C
2653 09-03-2011 02:57:06 1.5 C 89 % -0.11 C
2654 09-03-2011 03:09:06 2.3 C 89 % 0.68 C
2655 09-03-2011 03:21:06 2.3 C 88 % 0.52 C
2656 09-03-2011 03:33:06 2.9 C 86 % 0.8 C
2657 09-03-2011 03:45:06 2.7 C 83 % 0.11 C
2658 09-03-2011 03:57:06 3.7 C 79 % 0.4 C
2659 09-03-2011 04:09:06 3.5 C 74 % -0.69 C
2660 09-03-2011 04:21:06 3.1 C 73 % -1.26 C
2661 09-03-2011 04:33:06 3.1 C 74 % -1.07 C
2662 09-03-2011 04:45:06 3.6 C 74 % -0.59 C
2663 09-03-2011 04:57:06 3 C 74 % -1.17 C
2664 09-03-2011 05:09:06 2.6 C 76 % -1.19 C
2665 09-03-2011 05:21:06 3.1 C 75 % -0.89 C
2666 09-03-2011 05:33:06 2.5 C 75 % -1.47 C
2667 09-03-2011 05:45:06 2.4 C 77 % -1.21 C
2668 09-03-2011 05:57:06 1.6 C 79 % -1.64 C
2669 09-03-2011 06:09:06 2.2 C 81 % -0.71 C
2670 09-03-2011 06:21:06 2.1 C 79 % -1.15 C
2671 09-03-2011 06:33:06 2.6 C 78 % -0.84 C
2672 09-03-2011 06:45:06 2.7 C 76 % -1.1 C
2673 09-03-2011 06:57:07 2.2 C 77 % -1.4 C
2674 09-03-2011 07:09:07 2.5 C 77 % -1.11 C
2675 09-03-2011 07:21:03 2.8 C 77 % -0.82 C
Sensor: Nr:Datum:Temp:Feuchte:Taupunkt:
Aussen-T/F 2676 09-03-2011 07:33:03 3 C 74 % -1.17 C
2677 09-03-2011 07:45:01 3.3 C 73 % -1.06 C
2678 09-03-2011 07:57:01 3.4 C 72 % -1.16 C
2679 09-03-2011 08:09:01 2.7 C 74 % -1.46 C
2680 09-03-2011 08:21:01 2.8 C 74 % -1.36 C
2681 09-03-2011 08:33:02 3.6 C 73 % -0.78 C
2682 09-03-2011 08:45:01 4.5 C 69 % -0.68 C
2683 09-03-2011 08:57:01 5.2 C 64 % -1.04 C
2684 09-03-2011 09:09:02 6.4 C 60 % -0.78 C
2685 09-03-2011 09:21:01 7.8 C 53 % -1.17 C
2686 09-03-2011 09:33:02 8.2 C 49 % -1.86 C
2687 09-03-2011 09:45:01 8.5 C 48 % -1.86 C
2688 09-03-2011 09:57:01 8.9 C 47 % -1.78 C
2689 09-03-2011 10:09:02 9 C 46 % -1.98 C
2690 09-03-2011 10:21:02 9.2 C 46 % -1.8 C
2691 09-03-2011 10:33:01 9 C 46 % -1.98 C
2692 09-03-2011 10:45:02 9.3 C 47 % -1.42 C
2693 09-03-2011 10:57:02 9.5 C 47 % -1.23 C
2694 09-03-2011 11:09:01 9.6 C 49 % -0.57 C
2695 09-03-2011 11:21:02 9.9 C 49 % -0.3 C
2696 09-03-2011 11:33:01 10.4 C 48 % -0.12 C
2697 09-03-2011 11:45:02 10.2 C 47 % -0.59 C
2698 09-03-2011 11:57:02 10 C 48 % -0.49 C
2699 09-03-2011 12:09:02 9.8 C 49 % -0.39 C
2700 09-03-2011 12:21:02 9.8 C 49 % -0.39 C
Sensor: Nr:Datum:Temp:Feuchte:Taupunkt:
Aussen-T/F 2701 09-03-2011 12:33:02 9.8 C 50 % -0.11 C
2702 09-03-2011 12:45:01 10.1 C 49 % -0.11 C
2703 09-03-2011 12:57:01 10.4 C 49 % 0.16 C
2704 09-03-2011 13:09:02 11.2 C 46 % 0.02 C
2705 09-03-2011 13:21:01 11 C 46 % -0.16 C
2706 09-03-2011 13:33:02 11.7 C 45 % 0.18 C
2707 09-03-2011 13:45:02 11.4 C 41 % -1.37 C
2708 09-03-2011 13:57:02 11.6 C 40 % -1.52 C
2709 09-03-2011 14:09:02 12.1 C 39 % -1.42 C
2710 09-03-2011 14:21:02 11.8 C 40 % -1.34 C
2711 09-03-2011 14:33:02 11.6 C 39 % -1.86 C
2712 09-03-2011 14:45:02 11.8 C 38 % -2.04 C
2713 09-03-2011 14:57:02 11.7 C 36 % -2.85 C
2714 09-03-2011 15:09:02 11.6 C 36 % -2.94 C
2715 09-03-2011 15:21:02 11.2 C 36 % -3.3 C
2716 09-03-2011 15:33:02 11.3 C 36 % -3.21 C
2717 09-03-2011 15:45:02 11.3 C 37 % -2.84 C
2718 09-03-2011 15:57:02 11.2 C 37 % -2.93 C
2719 09-03-2011 16:09:02 11.1 C 38 % -2.66 C
2720 09-03-2011 16:21:02 10.9 C 39 % -2.49 C
2721 09-03-2011 16:33:02 10.7 C 39 % -2.67 C
2722 09-03-2011 16:45:02 10.7 C 38 % -3.02 C
2723 09-03-2011 16:57:02 10.6 C 38 % -3.11 C
2724 09-03-2011 17:09:02 10.4 C 42 % -1.94 C
2725 09-03-2011 17:21:02 10.3 C 44 % -1.4 C
Sensor: Nr:Datum:Temp:Feuchte:Taupunkt:
Aussen-T/F 2726 09-03-2011 17:33:02 10.2 C 46 % -0.89 C
2727 09-03-2011 17:45:02 10 C 47 % -0.78 C
2728 09-03-2011 17:57:02 9.7 C 50 % -0.21 C
2729 09-03-2011 18:09:01 9.7 C 50 % -0.21 C
2730 09-03-2011 18:21:02 9.6 C 50 % -0.3 C
2731 09-03-2011 18:33:01 9.3 C 52 % -0.04 C
2732 09-03-2011 18:45:01 8.8 C 54 % 0.02 C
2733 09-03-2011 18:57:02 9 C 54 % 0.2 C
2734 09-03-2011 19:09:01 8.9 C 55 % 0.36 C
2735 09-03-2011 19:21:01 9.3 C 53 % 0.23 C
2736 09-03-2011 19:33:02 9 C 53 % -0.05 C
2737 09-03-2011 19:45:02 8.4 C 57 % 0.39 C
2738 09-03-2011 19:57:02 8.2 C 58 % 0.44 C
2739 09-03-2011 20:09:02 8.2 C 59 % 0.68 C
2740 09-03-2011 20:21:01 8.2 C 58 % 0.44 C
2741 09-03-2011 20:33:02 8 C 59 % 0.49 C
2742 09-03-2011 20:45:02 8.1 C 58 % 0.35 C
2743 09-03-2011 20:57:02 7.9 C 60 % 0.63 C
2744 09-03-2011 21:09:02 8 C 58 % 0.25 C
2745 09-03-2011 21:21:02 7.9 C 59 % 0.4 C
2746 09-03-2011 21:33:02 7.6 C 61 % 0.57 C
2747 09-03-2011 21:46:04 7.2 C 62 % 0.42 C
2748 09-03-2011 21:58:04 7.6 C 62 % 0.8 C
2749 09-03-2011 22:10:04 7.6 C 62 % 0.8 C
2750 09-03-2011 22:22:04 7.1 C 63 % 0.55 C
Sensor: Nr:Datum:Temp:Feuchte:Taupunkt:
Aussen-T/F 2751 09-03-2011 22:34:04 6.5 C 67 % 0.83 C
2752 09-03-2011 22:46:04 6 C 69 % 0.76 C
2753 09-03-2011 22:58:04 6 C 71 % 1.15 C
2754 09-03-2011 23:10:04 5.1 C 73 % 0.67 C
2755 09-03-2011 23:22:04 4.9 C 76 % 1.03 C
2756 09-03-2011 23:34:04 5 C 75 % 0.95 C
2757 09-03-2011 23:46:04 6 C 72 % 1.35 C
2758 09-03-2011 23:58:04 6 C 68 % 0.55 C
2759 10-03-2011 00:10:04 5.5 C 69 % 0.28 C
2760 10-03-2011 00:22:04 5.9 C 69 % 0.66 C
2761 10-03-2011 00:34:04 6.1 C 67 % 0.44 C
2762 10-03-2011 00:46:04 5.4 C 68 % -0.02 C
2763 10-03-2011 00:58:04 4.9 C 71 % 0.09 C
2764 10-03-2011 01:10:05 5.2 C 71 % 0.38 C
2765 10-03-2011 01:22:05 5.4 C 70 % 0.38 C
2766 10-03-2011 01:34:05 5.2 C 70 % 0.19 C
2767 10-03-2011 01:46:05 5.4 C 69 % 0.18 C
2768 10-03-2011 01:58:05 5.2 C 70 % 0.19 C
2769 10-03-2011 02:10:05 5.3 C 70 % 0.28 C
2770 10-03-2011 02:22:05 4.9 C 71 % 0.09 C
2771 10-03-2011 02:34:05 4 C 73 % -0.39 C
2772 10-03-2011 02:46:05 3.8 C 77 % 0.15 C
2773 10-03-2011 02:58:05 4.1 C 77 % 0.44 C
2774 10-03-2011 03:10:05 4.7 C 73 % 0.28 C
2775 10-03-2011 03:22:05 5.4 C 66 % -0.43 C
Sensor: Nr:Datum:Temp:Feuchte:Taupunkt:
Aussen-T/F 2776 10-03-2011 03:34:05 5.7 C 64 % -0.56 C
2777 10-03-2011 03:46:05 5.5 C 65 % -0.54 C
2778 10-03-2011 03:58:05 4.5 C 68 % -0.88 C
2779 10-03-2011 04:10:05 4.5 C 69 % -0.68 C
2780 10-03-2011 04:22:05 4 C 71 % -0.77 C
2781 10-03-2011 04:34:05 5.2 C 70 % 0.19 C
2782 10-03-2011 04:46:05 4.9 C 71 % 0.09 C
2783 10-03-2011 04:58:05 4.5 C 69 % -0.68 C
2784 10-03-2011 05:10:05 5 C 68 % -0.4 C
2785 10-03-2011 05:22:06 5.1 C 67 % -0.51 C
2786 10-03-2011 05:34:06 4.6 C 69 % -0.58 C
2787 10-03-2011 05:46:06 5 C 68 % -0.4 C
2788 10-03-2011 05:58:06 5 C 68 % -0.4 C
2789 10-03-2011 06:10:06 4.7 C 72 % 0.09 C
2790 10-03-2011 06:22:06 4.6 C 72 % 0 C
2791 10-03-2011 06:34:06 4.6 C 71 % -0.19 C
2792 10-03-2011 06:46:06 4.5 C 71 % -0.29 C
2793 10-03-2011 06:58:06 4.6 C 71 % -0.19 C
2794 10-03-2011 07:10:06 4.6 C 71 % -0.19 C
2795 10-03-2011 07:22:03 4.4 C 72 % -0.19 C
2796 10-03-2011 07:34:04 4.6 C 72 % 0 C
2797 10-03-2011 07:46:02 4.5 C 71 % -0.29 C
2798 10-03-2011 07:58:02 5.2 C 67 % -0.41 C
2799 10-03-2011 08:10:02 5.4 C 66 % -0.43 C
2800 10-03-2011 08:22:02 5.7 C 65 % -0.35 C
Sensor: Nr:Datum:Temp:Feuchte:Taupunkt:
Aussen-T/F 2801 10-03-2011 08:34:02 5.9 C 64 % -0.38 C
2802 10-03-2011 08:46:01 6.1 C 63 % -0.4 C
2803 10-03-2011 08:58:01 6.3 C 61 % -0.65 C
2804 10-03-2011 09:10:02 6.7 C 60 % -0.5 C
2805 10-03-2011 09:22:01 6.8 C 58 % -0.87 C
2806 10-03-2011 09:34:02 7 C 57 % -0.92 C
2807 10-03-2011 09:46:02 7 C 56 % -1.16 C
2808 10-03-2011 09:58:02 7.2 C 56 % -0.98 C
2809 10-03-2011 10:10:02 7.6 C 54 % -1.1 C
2810 10-03-2011 10:22:01 7.8 C 52 % -1.43 C
2811 10-03-2011 10:34:02 8.1 C 52 % -1.15 C
2812 10-03-2011 10:46:02 8.2 C 51 % -1.32 C
2813 10-03-2011 10:58:02 8.6 C 50 % -1.22 C
2814 10-03-2011 11:10:02 8.4 C 50 % -1.4 C
2815 10-03-2011 11:22:01 8.5 C 50 % -1.31 C
2816 10-03-2011 11:34:02 9 C 49 % -1.13 C
2817 10-03-2011 11:46:01 9.2 C 47 % -1.51 C
2818 10-03-2011 11:58:01 9.5 C 47 % -1.23 C
2819 10-03-2011 12:10:02 9.3 C 46 % -1.71 C
2820 10-03-2011 12:22:02 10 C 45 % -1.37 C
2821 10-03-2011 12:34:01 9.3 C 45 % -2.01 C
2822 10-03-2011 12:46:02 9.8 C 46 % -1.25 C
2823 10-03-2011 12:58:02 10 C 45 % -1.37 C
2824 10-03-2011 13:10:01 9.8 C 42 % -2.48 C
2825 10-03-2011 13:22:02 9.8 C 42 % -2.48 C
Sensor: Nr:Datum:Temp:Feuchte:Taupunkt:
Aussen-T/F 2826 10-03-2011 13:34:01 9.9 C 42 % -2.39 C
2827 10-03-2011 13:46:02 9.7 C 41 % -2.9 C
2828 10-03-2011 13:58:03 10.3 C 41 % -2.36 C
2829 10-03-2011 14:10:02 9.9 C 43 % -2.08 C
2830 10-03-2011 14:22:02 9 C 45 % -2.28 C
2831 10-03-2011 14:34:02 9.1 C 45 % -2.19 C
2832 10-03-2011 14:46:02 9.1 C 45 % -2.19 C
2833 10-03-2011 14:58:02 9 C 46 % -1.98 C
2834 10-03-2011 15:10:01 8.6 C 47 % -2.06 C
2835 10-03-2011 15:22:02 8.5 C 48 % -1.86 C
2836 10-03-2011 15:34:02 8.5 C 48 % -1.86 C
2837 10-03-2011 15:46:02 8.5 C 47 % -2.15 C
2838 10-03-2011 15:58:02 8.5 C 47 % -2.15 C
2839 10-03-2011 16:10:03 8.6 C 48 % -1.77 C
2840 10-03-2011 16:22:02 8.4 C 48 % -1.96 C
2841 10-03-2011 16:34:02 8.2 C 50 % -1.59 C
2842 10-03-2011 16:46:01 8.1 C 51 % -1.41 C
2843 10-03-2011 16:58:01 8.2 C 51 % -1.32 C
2844 10-03-2011 17:10:02 8.2 C 51 % -1.32 C
2845 10-03-2011 17:22:01 8.2 C 51 % -1.32 C
2846 10-03-2011 17:34:02 8.2 C 51 % -1.32 C
2847 10-03-2011 17:46:01 8.1 C 52 % -1.15 C
2848 10-03-2011 17:58:01 8.2 C 52 % -1.05 C
2849 10-03-2011 18:10:02 8.3 C 52 % -0.96 C
2850 10-03-2011 18:22:01 8.3 C 52 % -0.96 C
Sensor: Nr:Datum:Temp:Feuchte:Taupunkt:
Aussen-T/F 2851 10-03-2011 18:34:01 8.3 C 52 % -0.96 C
2852 10-03-2011 18:46:01 8.5 C 52 % -0.78 C
2853 10-03-2011 18:58:01 8.6 C 52 % -0.68 C
2854 10-03-2011 19:10:02 8.6 C 52 % -0.68 C
2855 10-03-2011 19:22:02 8.9 C 51 % -0.67 C
2856 10-03-2011 19:34:01 8.8 C 51 % -0.76 C
2857 10-03-2011 19:46:02 8.9 C 51 % -0.67 C
2858 10-03-2011 19:58:02 9 C 50 % -0.85 C
2859 10-03-2011 20:10:01 8.9 C 51 % -0.67 C
2860 10-03-2011 20:22:02 8.7 C 52 % -0.59 C
2861 10-03-2011 20:34:01 8.9 C 52 % -0.41 C
2862 10-03-2011 20:46:02 8.9 C 52 % -0.41 C
2863 10-03-2011 20:58:02 8.9 C 53 % -0.15 C
2864 10-03-2011 21:10:02 8.7 C 54 % -0.07 C
2865 10-03-2011 21:22:02 8.8 C 54 % 0.02 C
2866 10-03-2011 21:34:03 8.3 C 57 % 0.3 C
2867 10-03-2011 21:46:02 8.4 C 58 % 0.63 C
2868 10-03-2011 21:58:02 8.5 C 57 % 0.48 C
2869 10-03-2011 22:10:01 8.8 C 55 % 0.27 C
2870 10-03-2011 22:23:03 8.7 C 56 % 0.43 C
2871 10-03-2011 22:35:03 8.8 C 55 % 0.27 C
2872 10-03-2011 22:47:03 8.9 C 56 % 0.61 C
2873 10-03-2011 22:59:03 8.7 C 56 % 0.43 C
2874 10-03-2011 23:11:03 8.9 C 55 % 0.36 C
2875 10-03-2011 23:23:03 8.9 C 55 % 0.36 C
Sensor: Nr:Datum:Temp:Feuchte:Taupunkt:
Aussen-T/F 2876 10-03-2011 23:35:03 9 C 54 % 0.2 C
2877 10-03-2011 23:47:03 8.9 C 55 % 0.36 C
2878 10-03-2011 23:59:03 9 C 55 % 0.46 C
2879 11-03-2011 00:11:03 8.8 C 56 % 0.52 C
2880 11-03-2011 00:23:03 8.8 C 56 % 0.52 C
2881 11-03-2011 00:35:03 8.9 C 56 % 0.61 C
2882 11-03-2011 00:47:04 8.8 C 57 % 0.76 C
2883 11-03-2011 00:59:04 8.8 C 57 % 0.76 C
2884 11-03-2011 01:11:04 8.7 C 57 % 0.67 C
2885 11-03-2011 01:23:04 8.7 C 57 % 0.67 C
2886 11-03-2011 01:35:04 8.7 C 58 % 0.91 C
2887 11-03-2011 01:47:04 8.6 C 58 % 0.82 C
2888 11-03-2011 01:59:04 8.7 C 58 % 0.91 C
2889 11-03-2011 02:11:04 8.6 C 58 % 0.82 C
2890 11-03-2011 02:23:04 8.6 C 59 % 1.05 C
2891 11-03-2011 02:35:04 8.6 C 59 % 1.05 C
2892 11-03-2011 02:47:04 8.6 C 59 % 1.05 C
2893 11-03-2011 02:59:04 8.6 C 59 % 1.05 C
2894 11-03-2011 03:11:04 8.5 C 59 % 0.96 C
2895 11-03-2011 03:23:04 8.7 C 59 % 1.15 C
2896 11-03-2011 03:35:04 8.5 C 60 % 1.19 C
2897 11-03-2011 03:47:04 8.3 C 61 % 1.23 C
2898 11-03-2011 03:59:04 8.4 C 63 % 1.78 C
2899 11-03-2011 04:11:04 8.4 C 62 % 1.55 C
2900 11-03-2011 04:23:04 8.2 C 62 % 1.37 C
Sensor: Nr:Datum:Temp:Feuchte:Taupunkt:
Aussen-T/F 2901 11-03-2011 04:35:04 8.2 C 64 % 1.81 C
2902 11-03-2011 04:47:05 8.2 C 64 % 1.81 C
2903 11-03-2011 04:59:05 8.1 C 64 % 1.71 C
2904 11-03-2011 05:11:05 8.2 C 63 % 1.59 C
2905 11-03-2011 05:23:05 8.6 C 61 % 1.52 C
2906 11-03-2011 05:35:05 8.5 C 61 % 1.42 C
2907 11-03-2011 05:47:05 8.5 C 61 % 1.42 C
2908 11-03-2011 05:59:05 8.2 C 61 % 1.14 C
2909 11-03-2011 06:11:05 7.8 C 65 % 1.64 C
2910 11-03-2011 06:23:05 7.8 C 65 % 1.64 C
2911 11-03-2011 06:35:05 8.5 C 62 % 1.65 C
2912 11-03-2011 06:47:05 8.4 C 61 % 1.33 C
2913 11-03-2011 06:59:05 8.4 C 60 % 1.1 C
2914 11-03-2011 07:11:05 8.4 C 60 % 1.1 C
2915 11-03-2011 07:23:02 8.7 C 59 % 1.15 C
2916 11-03-2011 07:35:03 8.7 C 59 % 1.15 C
2917 11-03-2011 07:47:02 8.7 C 59 % 1.15 C
2918 11-03-2011 07:59:02 8.7 C 59 % 1.15 C
2919 11-03-2011 08:11:02 8.7 C 59 % 1.15 C
2920 11-03-2011 08:23:02 8.8 C 59 % 1.24 C
2921 11-03-2011 08:35:02 8.9 C 59 % 1.34 C
2922 11-03-2011 08:47:01 8.9 C 58 % 1.1 C
2923 11-03-2011 08:59:01 8.9 C 58 % 1.1 C
2924 11-03-2011 09:11:02 9.2 C 56 % 0.89 C
2925 11-03-2011 09:23:02 9.2 C 55 % 0.64 C
Sensor: Nr:Datum:Temp:Feuchte:Taupunkt:
Aussen-T/F 2926 11-03-2011 09:35:02 9.2 C 55 % 0.64 C
2927 11-03-2011 09:47:02 9.3 C 55 % 0.74 C
2928 11-03-2011 09:59:02 9.8 C 54 % 0.95 C
2929 11-03-2011 10:11:01 10.2 C 51 % 0.53 C
2930 11-03-2011 10:23:02 10.4 C 51 % 0.71 C
2931 11-03-2011 10:35:01 10.2 C 50 % 0.26 C
2932 11-03-2011 10:47:02 10.6 C 48 % 0.06 C
2933 11-03-2011 10:59:03 10.9 C 48 % 0.34 C
2934 11-03-2011 11:11:02 10.8 C 47 % -0.04 C
2935 11-03-2011 11:23:02 11.2 C 46 % 0.02 C
2936 11-03-2011 11:35:02 10.7 C 46 % -0.43 C
2937 11-03-2011 11:47:02 11 C 44 % -0.77 C
2938 11-03-2011 11:59:02 10.9 C 44 % -0.86 C
2939 11-03-2011 12:11:02 10.7 C 43 % -1.35 C
2940 11-03-2011 12:23:01 11.5 C 42 % -0.95 C
2941 11-03-2011 12:35:02 11.1 C 41 % -1.64 C
2942 11-03-2011 12:47:02 11.2 C 39 % -2.22 C
2943 11-03-2011 12:59:02 11.7 C 39 % -1.78 C
2944 11-03-2011 13:11:02 11.7 C 37 % -2.49 C
2945 11-03-2011 13:23:01 12 C 35 % -2.97 C
2946 11-03-2011 13:35:02 11.5 C 38 % -2.3 C
2947 11-03-2011 13:47:02 11.2 C 40 % -1.88 C
2948 11-03-2011 13:59:02 11.1 C 38 % -2.66 C
2949 11-03-2011 14:11:03 11.1 C 39 % -2.31 C
2950 11-03-2011 14:23:02 11.1 C 39 % -2.31 C
Sensor: Nr:Datum:Temp:Feuchte:Taupunkt:
Aussen-T/F 2951 11-03-2011 14:35:02 11.2 C 39 % -2.22 C
2952 11-03-2011 14:47:02 11.2 C 39 % -2.22 C
2953 11-03-2011 14:59:02 11.1 C 38 % -2.66 C
2954 11-03-2011 15:11:02 11.2 C 38 % -2.57 C
2955 11-03-2011 15:23:02 11.2 C 38 % -2.57 C
2956 11-03-2011 15:35:01 11.2 C 38 % -2.57 C
2957 11-03-2011 15:47:02 11.1 C 38 % -2.66 C
2958 11-03-2011 15:59:02 11 C 39 % -2.4 C
2959 11-03-2011 16:11:01 11 C 39 % -2.4 C
2960 11-03-2011 16:23:01 11.1 C 39 % -2.31 C
2961 11-03-2011 16:35:02 11.1 C 37 % -3.02 C
2962 11-03-2011 16:47:02 11.2 C 37 % -2.93 C
2963 11-03-2011 16:59:02 11.2 C 35 % -3.67 C
2964 11-03-2011 17:11:23 11 C 36 % -3.47 C
2965 11-03-2011 17:23:23 10.9 C 37 % -3.2 C
2966 11-03-2011 17:35:23 11 C 37 % -3.11 C
2967 11-03-2011 17:47:23 10.6 C 37 % -3.46 C
2968 11-03-2011 17:59:23 10.5 C 37 % -3.55 C
2969 11-03-2011 18:11:01 10.2 C 37 % -3.82 C
2970 11-03-2011 18:23:01 9.9 C 40 % -3.05 C
2971 11-03-2011 18:35:01 9.6 C 41 % -2.99 C
2972 11-03-2011 18:47:02 9.4 C 42 % -2.84 C
2973 11-03-2011 18:59:02 9.1 C 46 % -1.89 C
2974 11-03-2011 19:11:03 8.6 C 49 % -1.49 C
2975 11-03-2011 19:23:02 8.4 C 51 % -1.13 C
Sensor: Nr:Datum:Temp:Feuchte:Taupunkt:
Aussen-T/F 2976 11-03-2011 19:35:03 8.2 C 52 % -1.05 C
2977 11-03-2011 19:47:01 8 C 53 % -0.98 C
2978 11-03-2011 19:59:01 7.8 C 54 % -0.91 C
2979 11-03-2011 20:11:02 7.6 C 54 % -1.1 C
2980 11-03-2011 20:23:01 7.1 C 54 % -1.56 C
2981 11-03-2011 20:35:02 7 C 56 % -1.16 C
2982 11-03-2011 20:47:02 6.4 C 60 % -0.78 C
2983 11-03-2011 20:59:02 6 C 60 % -1.16 C
2984 11-03-2011 21:11:02 5.5 C 63 % -0.97 C
2985 11-03-2011 21:23:03 5 C 65 % -1.02 C
2986 11-03-2011 21:35:02 4.7 C 67 % -0.89 C
2987 11-03-2011 21:47:03 4.9 C 69 % -0.3 C
2988 11-03-2011 21:59:03 4.3 C 69 % -0.87 C
2989 11-03-2011 22:11:02 3.8 C 72 % -0.77 C
2990 11-03-2011 22:24:04 3.5 C 74 % -0.69 C
2991 11-03-2011 22:36:04 3.4 C 75 % -0.6 C
2992 11-03-2011 22:48:04 3.3 C 76 % -0.52 C
2993 11-03-2011 23:00:04 2.9 C 78 % -0.55 C
2994 11-03-2011 23:12:04 2.4 C 78 % -1.03 C
2995 11-03-2011 23:24:04 2.2 C 79 % -1.05 C
2996 11-03-2011 23:36:04 1.9 C 80 % -1.18 C
2997 11-03-2011 23:48:04 1.8 C 81 % -1.1 C
2998 12-03-2011 00:00:04 1.6 C 82 % -1.13 C
2999 12-03-2011 00:12:04 1.2 C 82 % -1.52 C
3000 12-03-2011 00:24:04 0.8 C 83 % -1.75 C
Sensor: Nr:Datum:Temp:Feuchte:Taupunkt:
Aussen-T/F 3001 12-03-2011 00:36:04 0.5 C 83 % -2.04 C
3002 12-03-2011 00:48:04 0.5 C 84 % -1.88 C
3003 12-03-2011 01:00:04 0.4 C 84 % -1.98 C
3004 12-03-2011 01:12:04 0.3 C 84 % -2.08 C
3005 12-03-2011 01:24:04 0.3 C 85 % -1.92 C
3006 12-03-2011 01:36:05 0.1 C 85 % -2.11 C
3007 12-03-2011 01:48:05 0 C 85 % -2.21 C
3008 12-03-2011 02:00:05 -0.2 C 86 % -2.25 C
3009 12-03-2011 02:12:05 -0.2 C 86 % -2.25 C
3010 12-03-2011 02:24:05 -0.3 C 86 % -2.35 C
3011 12-03-2011 02:36:05 -0.3 C 87 % -2.2 C
3012 12-03-2011 02:48:05 -0.6 C 87 % -2.49 C
3013 12-03-2011 03:00:05 -0.6 C 87 % -2.49 C
3014 12-03-2011 03:12:05 -0.7 C 87 % -2.59 C
3015 12-03-2011 03:24:05 -0.9 C 87 % -2.79 C
3016 12-03-2011 03:36:05 -1 C 87 % -2.88 C
3017 12-03-2011 03:48:05 -0.5 C 88 % -2.24 C
3018 12-03-2011 04:00:05 -1 C 87 % -2.88 C
3019 12-03-2011 04:12:05 -1.2 C 88 % -2.93 C
3020 12-03-2011 04:24:05 -1.3 C 88 % -3.03 C
3021 12-03-2011 04:36:05 -1.4 C 88 % -3.13 C
3022 12-03-2011 04:48:05 -1.3 C 88 % -3.03 C
3023 12-03-2011 05:00:05 -1.4 C 88 % -3.13 C
3024 12-03-2011 05:12:05 -1.5 C 88 % -3.22 C
3025 12-03-2011 05:24:05 -1.5 C 88 % -3.22 C
Sensor: Nr:Datum:Temp:Feuchte:Taupunkt:
Aussen-T/F 3026 12-03-2011 05:36:06 -1.8 C 88 % -3.52 C
3027 12-03-2011 05:48:06 -1.9 C 88 % -3.62 C
3028 12-03-2011 06:00:06 -2 C 88 % -3.72 C
3029 12-03-2011 06:12:06 -2 C 88 % -3.72 C
3030 12-03-2011 06:24:06 -2.1 C 88 % -3.82 C
3031 12-03-2011 06:36:06 -1.8 C 88 % -3.52 C
3032 12-03-2011 06:48:06 -1.9 C 89 % -3.47 C
3033 12-03-2011 07:00:06 -2.2 C 89 % -3.76 C
3034 12-03-2011 07:12:06 -2.3 C 89 % -3.86 C
3035 12-03-2011 07:24:06 -2 C 89 % -3.57 C
3036 12-03-2011 07:36:04 -1.9 C 89 % -3.47 C
3037 12-03-2011 07:48:02 -1.6 C 89 % -3.17 C
3038 12-03-2011 08:00:02 -1.2 C 89 % -2.78 C
3039 12-03-2011 08:12:02 -0.6 C 90 % -2.03 C
3040 12-03-2011 08:24:02 -0.2 C 90 % -1.64 C
3041 12-03-2011 08:36:02 0.1 C 90 % -1.34 C
3042 12-03-2011 08:48:02 0.3 C 90 % -1.14 C
3043 12-03-2011 09:00:02 0.5 C 90 % -0.95 C
3044 12-03-2011 09:12:02 1.2 C 89 % -0.41 C
3045 12-03-2011 09:24:02 1.7 C 89 % 0.09 C
3046 12-03-2011 09:36:02 2.3 C 88 % 0.52 C
3047 12-03-2011 09:48:02 3.1 C 86 % 0.99 C
3048 12-03-2011 10:00:02 3.7 C 84 % 1.25 C
3049 12-03-2011 10:12:02 4.3 C 82 % 1.51 C
3050 12-03-2011 10:24:02 6 C 75 % 1.91 C
Sensor: Nr:Datum:Temp:Feuchte:Taupunkt:
Aussen-T/F 3051 12-03-2011 10:36:02 7 C 68 % 1.51 C
3052 12-03-2011 10:48:02 7.6 C 63 % 1.02 C
3053 12-03-2011 11:00:02 8.5 C 60 % 1.19 C
3054 12-03-2011 11:12:01 10 C 53 % 0.87 C
3055 12-03-2011 11:24:02 10.9 C 48 % 0.34 C
3056 12-03-2011 11:36:02 11.8 C 45 % 0.27 C
3057 12-03-2011 11:48:02 12.5 C 42 % -0.05 C
3058 12-03-2011 12:00:02 13 C 38 % -0.97 C
3059 12-03-2011 12:12:02 13.7 C 38 % -0.34 C
3060 12-03-2011 12:24:02 14.8 C 35 % -0.49 C
3061 12-03-2011 12:36:02 15.6 C 35 % 0.21 C
3062 12-03-2011 12:48:01 15.9 C 32 % -0.75 C
3063 12-03-2011 13:00:01 15.3 C 34 % -0.45 C
3064 12-03-2011 13:12:01 15.3 C 34 % -0.45 C
3065 12-03-2011 13:24:01 16.8 C 32 % 0.03 C
3066 12-03-2011 13:36:01 16.8 C 32 % 0.03 C
3067 12-03-2011 13:48:01 16.6 C 30 % -1.02 C
3068 12-03-2011 14:00:01 16 C 30 % -1.54 C
3069 12-03-2011 14:12:01 16.9 C 30 % -0.76 C
3070 12-03-2011 14:24:02 16.7 C 31 % -0.49 C
3071 12-03-2011 14:36:01 16.8 C 30 % -0.85 C
3072 12-03-2011 14:48:03 16.5 C 32 % -0.23 C
3073 12-03-2011 15:00:03 16.4 C 32 % -0.32 C
3074 12-03-2011 15:12:02 15.6 C 32 % -1.01 C
3075 12-03-2011 15:24:03 16.2 C 32 % -0.49 C
Sensor: Nr:Datum:Temp:Feuchte:Taupunkt:
Aussen-T/F 3076 12-03-2011 15:36:02 16.2 C 32 % -0.49 C
3077 12-03-2011 15:48:02 17.1 C 30 % -0.59 C
3078 12-03-2011 16:00:02 17 C 31 % -0.23 C
3079 12-03-2011 16:12:02 17.4 C 30 % -0.33 C
3080 12-03-2011 16:24:02 18.5 C 27 % -0.83 C
3081 12-03-2011 16:36:03 18.6 C 27 % -0.74 C
3082 12-03-2011 16:48:02 18.6 C 27 % -0.74 C
3083 12-03-2011 17:00:02 17.9 C 28 % -0.84 C
3084 12-03-2011 17:12:01 16.3 C 33 % 0.02 C
3085 12-03-2011 17:24:02 14.7 C 39 % 0.91 C
3086 12-03-2011 17:36:02 13.6 C 43 % 1.27 C
3087 12-03-2011 17:48:02 12.4 C 47 % 1.42 C
3088 12-03-2011 18:00:02 11.4 C 50 % 1.36 C
3089 12-03-2011 18:12:03 11.2 C 51 % 1.45 C
3090 12-03-2011 18:24:02 10.9 C 53 % 1.71 C
3091 12-03-2011 18:36:03 10.8 C 53 % 1.62 C
3092 12-03-2011 18:48:01 10.6 C 53 % 1.43 C
3093 12-03-2011 19:00:01 10.7 C 51 % 0.99 C
3094 12-03-2011 19:12:02 10.7 C 48 % 0.15 C
3095 12-03-2011 19:24:02 10.8 C 46 % -0.34 C
3096 12-03-2011 19:36:02 11 C 43 % -1.08 C
3097 12-03-2011 19:48:02 11.2 C 45 % -0.28 C
3098 12-03-2011 20:00:02 10.7 C 45 % -0.73 C
3099 12-03-2011 20:12:03 11.1 C 42 % -1.31 C
3100 12-03-2011 20:24:02 11.4 C 41 % -1.37 C
Sensor: Nr:Datum:Temp:Feuchte:Taupunkt:
Aussen-T/F 3101 12-03-2011 20:36:02 11.7 C 41 % -1.1 C
3102 12-03-2011 20:48:01 11.8 C 41 % -1.01 C
3103 12-03-2011 21:00:01 12.3 C 38 % -1.59 C
3104 12-03-2011 21:12:02 12.1 C 40 % -1.07 C
3105 12-03-2011 21:24:01 12.5 C 39 % -1.06 C
3106 12-03-2011 21:36:01 12.4 C 40 % -0.8 C
3107 12-03-2011 21:48:01 11.8 C 42 % -0.68 C
3108 12-03-2011 22:00:01 12.2 C 42 % -0.32 C
3109 12-03-2011 22:13:02 11.8 C 43 % -0.36 C
3110 12-03-2011 22:25:02 12.5 C 41 % -0.38 C
3111 12-03-2011 22:37:02 12.2 C 42 % -0.32 C
3112 12-03-2011 22:49:02 11.8 C 44 % -0.04 C
3113 12-03-2011 23:01:02 11.4 C 46 % 0.21 C
3114 12-03-2011 23:13:02 11.4 C 46 % 0.21 C
3115 12-03-2011 23:25:02 11.2 C 46 % 0.02 C
3116 12-03-2011 23:37:02 11 C 48 % 0.43 C
3117 12-03-2011 23:49:02 10.7 C 51 % 0.99 C
3118 13-03-2011 00:01:02 10.5 C 53 % 1.34 C
3119 13-03-2011 00:13:02 10 C 58 % 2.13 C
3120 13-03-2011 00:25:02 10.1 C 59 % 2.46 C
3121 13-03-2011 00:37:02 9.8 C 61 % 2.65 C
3122 13-03-2011 00:49:02 10.1 C 59 % 2.46 C
3123 13-03-2011 01:01:02 9.7 C 61 % 2.55 C
3124 13-03-2011 01:13:02 9.8 C 61 % 2.65 C
3125 13-03-2011 01:25:02 10.1 C 59 % 2.46 C
Sensor: Nr:Datum:Temp:Feuchte:Taupunkt:
Aussen-T/F 3126 13-03-2011 01:37:02 10.8 C 57 % 2.63 C
3127 13-03-2011 01:49:02 10.7 C 57 % 2.54 C
3128 13-03-2011 02:01:02 10.9 C 58 % 2.97 C
3129 13-03-2011 02:13:02 10.7 C 58 % 2.79 C
3130 13-03-2011 02:25:03 10.5 C 60 % 3.08 C
3131 13-03-2011 02:37:03 10.5 C 60 % 3.08 C
3132 13-03-2011 02:49:03 10.4 C 61 % 3.21 C
3133 13-03-2011 03:01:03 10.5 C 60 % 3.08 C
3134 13-03-2011 03:13:03 10 C 61 % 2.84 C
3135 13-03-2011 03:25:03 9.7 C 64 % 3.23 C
3136 13-03-2011 03:37:03 9.8 C 63 % 3.1 C
3137 13-03-2011 03:49:03 9.9 C 64 % 3.42 C
3138 13-03-2011 04:01:03 9.8 C 63 % 3.1 C
3139 13-03-2011 04:13:03 9.6 C 64 % 3.14 C
3140 13-03-2011 04:25:03 9 C 68 % 3.42 C
3141 13-03-2011 04:37:03 8.5 C 76 % 4.52 C
3142 13-03-2011 04:49:03 8.4 C 80 % 5.16 C
3143 13-03-2011 05:01:03 8.1 C 81 % 5.04 C
3144 13-03-2011 05:13:03 8 C 83 % 5.29 C
3145 13-03-2011 05:25:03 7.9 C 85 % 5.54 C
3146 13-03-2011 05:37:03 7.8 C 85 % 5.44 C
3147 13-03-2011 05:49:03 7.7 C 86 % 5.51 C
3148 13-03-2011 06:01:03 7.6 C 86 % 5.41 C
3149 13-03-2011 06:13:03 7.9 C 86 % 5.71 C
3150 13-03-2011 06:25:03 7.8 C 86 % 5.61 C
Sensor: Nr:Datum:Temp:Feuchte:Taupunkt:
Aussen-T/F 3151 13-03-2011 06:37:04 7.6 C 86 % 5.41 C
3152 13-03-2011 06:49:04 7.6 C 85 % 5.24 C
3153 13-03-2011 07:01:02 7.6 C 85 % 5.24 C
3154 13-03-2011 07:13:02 7.8 C 85 % 5.44 C
3155 13-03-2011 07:25:02 7.8 C 85 % 5.44 C
3156 13-03-2011 07:37:02 7.9 C 84 % 5.37 C
3157 13-03-2011 07:49:01 8 C 83 % 5.29 C
3158 13-03-2011 08:01:02 8.1 C 83 % 5.39 C
3159 13-03-2011 08:13:02 8.4 C 82 % 5.51 C
3160 13-03-2011 08:25:02 8.6 C 81 % 5.53 C
3161 13-03-2011 08:37:02 9.1 C 77 % 5.29 C
3162 13-03-2011 08:49:02 9.4 C 75 % 5.2 C
3163 13-03-2011 09:01:02 9.9 C 72 % 5.1 C
3164 13-03-2011 09:13:02 10.3 C 68 % 4.66 C
3165 13-03-2011 09:25:01 10.8 C 66 % 4.71 C
3166 13-03-2011 09:37:02 11.3 C 64 % 4.75 C
3167 13-03-2011 09:49:01 12 C 60 % 4.49 C
3168 13-03-2011 10:01:02 12.4 C 58 % 4.38 C
3169 13-03-2011 10:13:02 12.7 C 57 % 4.41 C
3170 13-03-2011 10:25:02 12.5 C 53 % 3.19 C
3171 13-03-2011 10:37:02 12.8 C 53 % 3.47 C
3172 13-03-2011 10:49:02 12.8 C 54 % 3.74 C
3173 13-03-2011 11:01:01 13.3 C 51 % 3.39 C
3174 13-03-2011 11:13:01 14.1 C 47 % 2.97 C
3175 13-03-2011 11:25:02 14.3 C 47 % 3.15 C
Sensor: Nr:Datum:Temp:Feuchte:Taupunkt:
Aussen-T/F 3176 13-03-2011 11:37:01 15.1 C 45 % 3.27 C
3177 13-03-2011 11:49:02 14.9 C 44 % 2.77 C
3178 13-03-2011 12:01:01 14.7 C 45 % 2.91 C
3179 13-03-2011 12:13:01 14.7 C 44 % 2.59 C
3180 13-03-2011 12:25:01 14.3 C 45 % 2.54 C
3181 13-03-2011 12:37:02 14.4 C 44 % 2.32 C
3182 13-03-2011 12:49:02 15.6 C 41 % 2.41 C
3183 13-03-2011 13:01:02 15.2 C 41 % 2.05 C
3184 13-03-2011 13:13:02 15 C 40 % 1.53 C
3185 13-03-2011 13:25:02 15 C 41 % 1.87 C
3186 13-03-2011 13:37:02 14.2 C 44 % 2.14 C
3187 13-03-2011 13:49:02 14.1 C 46 % 2.67 C
3188 13-03-2011 14:01:02 14.5 C 45 % 2.72 C
3189 13-03-2011 14:13:02 14.9 C 43 % 2.45 C
3190 13-03-2011 14:25:02 15.2 C 40 % 1.71 C
3191 13-03-2011 14:37:02 15.6 C 41 % 2.41 C
3192 13-03-2011 14:49:02 15.4 C 40 % 1.89 C
3193 13-03-2011 15:01:02 15.5 C 41 % 2.32 C
3194 13-03-2011 15:13:02 16.2 C 38 % 1.88 C
3195 13-03-2011 15:25:03 15.6 C 39 % 1.71 C
3196 13-03-2011 15:37:02 14.8 C 42 % 2.03 C
3197 13-03-2011 15:49:02 14.7 C 43 % 2.27 C
3198 13-03-2011 16:01:02 15 C 42 % 2.21 C
3199 13-03-2011 16:13:02 14.8 C 43 % 2.36 C
3200 13-03-2011 16:25:02 14.8 C 43 % 2.36 C
Sensor: Nr:Datum:Temp:Feuchte:Taupunkt:
Aussen-T/F 3201 13-03-2011 16:37:02 14.1 C 45 % 2.36 C
3202 13-03-2011 16:49:02 13.8 C 47 % 2.7 C
3203 13-03-2011 17:01:02 13.5 C 51 % 3.57 C
3204 13-03-2011 17:13:02 13.2 C 52 % 3.57 C
3205 13-03-2011 17:25:02 12.8 C 53 % 3.47 C
3206 13-03-2011 17:37:01 12.6 C 55 % 3.81 C
3207 13-03-2011 17:49:02 12.4 C 57 % 4.13 C
3208 13-03-2011 18:01:01 12 C 58 % 4 C
3209 13-03-2011 18:13:01 11.8 C 60 % 4.3 C
3210 13-03-2011 18:25:02 11.4 C 62 % 4.39 C
3211 13-03-2011 18:37:02 11.2 C 63 % 4.43 C
3212 13-03-2011 18:49:02 11.2 C 63 % 4.43 C
3213 13-03-2011 19:01:03 11.2 C 63 % 4.43 C
3214 13-03-2011 19:13:03 11.2 C 63 % 4.43 C
3215 13-03-2011 19:25:02 11 C 64 % 4.46 C
3216 13-03-2011 19:37:02 10.3 C 71 % 5.28 C
3217 13-03-2011 19:49:01 10.1 C 76 % 6.07 C
3218 13-03-2011 20:01:02 9.9 C 81 % 6.8 C
3219 13-03-2011 20:13:02 9.7 C 83 % 6.96 C
3220 13-03-2011 20:25:01 9.6 C 84 % 7.03 C
3221 13-03-2011 20:37:01 9.5 C 85 % 7.11 C
3222 13-03-2011 20:49:01 9.4 C 86 % 7.18 C
3223 13-03-2011 21:01:02 9.4 C 86 % 7.18 C
3224 13-03-2011 21:13:02 9.3 C 86 % 7.08 C
3225 13-03-2011 21:25:01 9.3 C 87 % 7.25 C
Sensor: Nr:Datum:Temp:Feuchte:Taupunkt:
Aussen-T/F 3226 13-03-2011 21:37:01 9.1 C 87 % 7.05 C
3227 13-03-2011 21:49:01 9 C 87 % 6.96 C
3228 13-03-2011 22:02:04 8.9 C 88 % 7.02 C
3229 13-03-2011 22:14:04 8.9 C 88 % 7.02 C
3230 13-03-2011 22:26:04 8.9 C 88 % 7.02 C
3231 13-03-2011 22:38:04 8.9 C 89 % 7.19 C
3232 13-03-2011 22:50:04 8.7 C 89 % 6.99 C
3233 13-03-2011 23:02:04 8.7 C 89 % 6.99 C
3234 13-03-2011 23:14:04 8.7 C 89 % 6.99 C
3235 13-03-2011 23:26:05 8.7 C 89 % 6.99 C
3236 13-03-2011 23:38:05 8.6 C 89 % 6.89 C
3237 13-03-2011 23:50:05 8.6 C 89 % 6.89 C
3238 14-03-2011 00:02:05 8.6 C 89 % 6.89 C
3239 14-03-2011 00:14:05 8.6 C 89 % 6.89 C
3240 14-03-2011 00:26:05 8.6 C 89 % 6.89 C
3241 14-03-2011 00:38:05 8.6 C 89 % 6.89 C
3242 14-03-2011 00:50:05 8.6 C 90 % 7.06 C
3243 14-03-2011 01:02:05 8.6 C 90 % 7.06 C
3244 14-03-2011 01:14:05 8.6 C 90 % 7.06 C
3245 14-03-2011 01:26:05 8.6 C 90 % 7.06 C
3246 14-03-2011 01:38:05 8.6 C 90 % 7.06 C
3247 14-03-2011 01:50:05 8.4 C 90 % 6.86 C
3248 14-03-2011 02:02:05 8.5 C 90 % 6.96 C
3249 14-03-2011 02:14:05 8.6 C 90 % 7.06 C
3250 14-03-2011 02:26:05 8.5 C 90 % 6.96 C
Sensor: Nr:Datum:Temp:Feuchte:Taupunkt:
Aussen-T/F 3251 14-03-2011 02:38:05 8.4 C 90 % 6.86 C
3252 14-03-2011 02:50:05 8.4 C 90 % 6.86 C
3253 14-03-2011 03:02:05 8.4 C 90 % 6.86 C
3254 14-03-2011 03:14:05 8.2 C 90 % 6.66 C
3255 14-03-2011 03:26:05 8.2 C 90 % 6.66 C
3256 14-03-2011 03:38:06 8.1 C 90 % 6.56 C
3257 14-03-2011 03:50:06 8.2 C 90 % 6.66 C
3258 14-03-2011 04:02:06 8.2 C 90 % 6.66 C
3259 14-03-2011 04:14:06 8.3 C 90 % 6.76 C
3260 14-03-2011 04:26:06 8.4 C 90 % 6.86 C
3261 14-03-2011 04:38:06 8.4 C 90 % 6.86 C
3262 14-03-2011 04:50:06 8.4 C 90 % 6.86 C
3263 14-03-2011 05:02:06 8.4 C 90 % 6.86 C
3264 14-03-2011 05:14:06 8.4 C 91 % 7.02 C
3265 14-03-2011 05:26:06 8.5 C 91 % 7.12 C
3266 14-03-2011 05:38:06 8.3 C 91 % 6.92 C
3267 14-03-2011 05:50:06 8.1 C 91 % 6.72 C
3268 14-03-2011 06:02:06 8 C 91 % 6.62 C
3269 14-03-2011 06:14:06 8 C 90 % 6.46 C
3270 14-03-2011 06:26:06 7.6 C 91 % 6.23 C
3271 14-03-2011 06:38:06 7.6 C 91 % 6.23 C
3272 14-03-2011 06:50:06 7.8 C 92 % 6.58 C
3273 14-03-2011 07:02:06 7.9 C 92 % 6.68 C
3274 14-03-2011 07:14:06 7.9 C 92 % 6.68 C
3275 14-03-2011 07:26:03 7.9 C 92 % 6.68 C
Sensor: Nr:Datum:Temp:Feuchte:Taupunkt:
Aussen-T/F 3276 14-03-2011 07:38:03 8.2 C 91 % 6.82 C
3277 14-03-2011 07:50:02 8.3 C 91 % 6.92 C
3278 14-03-2011 08:02:02 8.4 C 91 % 7.02 C
3279 14-03-2011 08:14:02 8.5 C 91 % 7.12 C
3280 14-03-2011 08:26:01 8.5 C 91 % 7.12 C
3281 14-03-2011 08:38:02 8.7 C 91 % 7.32 C
3282 14-03-2011 08:50:02 8.9 C 91 % 7.51 C
3283 14-03-2011 09:02:02 9.1 C 91 % 7.71 C
3284 14-03-2011 09:14:02 9 C 90 % 7.45 C
3285 14-03-2011 09:26:01 9.2 C 91 % 7.81 C
3286 14-03-2011 09:38:02 9.4 C 91 % 8.01 C
3287 14-03-2011 09:50:01 10 C 89 % 8.27 C
3288 14-03-2011 10:02:02 10.7 C 89 % 8.96 C
3289 14-03-2011 10:14:02 10.8 C 85 % 8.38 C
3290 14-03-2011 10:26:01 11 C 77 % 7.13 C
3291 14-03-2011 10:38:02 12.1 C 71 % 7.01 C
3292 14-03-2011 10:50:01 12 C 68 % 6.29 C
3293 14-03-2011 11:02:02 12.8 C 67 % 6.83 C
3294 14-03-2011 11:14:02 12.1 C 67 % 6.17 C
3295 14-03-2011 11:26:01 12.9 C 67 % 6.93 C
3296 14-03-2011 11:38:02 12.8 C 63 % 5.94 C
3297 14-03-2011 11:50:02 13 C 62 % 5.9 C
3298 14-03-2011 12:02:02 12.6 C 63 % 5.75 C
3299 14-03-2011 12:14:02 13.4 C 61 % 6.04 C
3300 14-03-2011 12:26:02 13 C 60 % 5.43 C
Sensor: Nr:Datum:Temp:Feuchte:Taupunkt:
Aussen-T/F 3301 14-03-2011 12:38:02 13 C 63 % 6.13 C
3302 14-03-2011 12:50:01 13.6 C 61 % 6.23 C
3303 14-03-2011 13:02:01 14.4 C 58 % 6.25 C
3304 14-03-2011 13:14:02 14.5 C 54 % 5.31 C
3305 14-03-2011 13:26:01 14.4 C 54 % 5.22 C
3306 14-03-2011 13:38:01 14 C 55 % 5.11 C
3307 14-03-2011 13:50:01 14 C 54 % 4.85 C
3308 14-03-2011 14:02:02 14.5 C 53 % 5.05 C
3309 14-03-2011 14:14:02 14.1 C 52 % 4.4 C
3310 14-03-2011 14:26:01 13.7 C 56 % 5.09 C
3311 14-03-2011 14:38:01 13.7 C 57 % 5.35 C
3312 14-03-2011 14:50:01 14 C 55 % 5.11 C
3313 14-03-2011 15:02:01 13.9 C 55 % 5.02 C
3314 14-03-2011 15:14:01 13.4 C 56 % 4.81 C
3315 14-03-2011 15:26:02 13.8 C 55 % 4.93 C
3316 14-03-2011 15:38:01 13.5 C 55 % 4.65 C
3317 14-03-2011 15:50:02 13.8 C 54 % 4.66 C
3318 14-03-2011 16:02:01 15.2 C 49 % 4.57 C
3319 14-03-2011 16:14:01 16.4 C 43 % 3.8 C
3320 14-03-2011 16:26:02 15.4 C 44 % 3.22 C
3321 14-03-2011 16:38:01 14.6 C 48 % 3.73 C
3322 14-03-2011 16:50:02 14.1 C 50 % 3.85 C
3323 14-03-2011 17:02:02 13.9 C 51 % 3.94 C
3324 14-03-2011 17:14:02 13.7 C 49 % 3.19 C
3325 14-03-2011 17:26:02 13.1 C 56 % 4.53 C
Sensor: Nr:Datum:Temp:Feuchte:Taupunkt:
Aussen-T/F 3326 14-03-2011 17:38:03 12.6 C 61 % 5.29 C
3327 14-03-2011 17:50:02 12.1 C 63 % 5.28 C
3328 14-03-2011 18:02:02 11.7 C 66 % 5.57 C
3329 14-03-2011 18:14:02 11.4 C 67 % 5.5 C
3330 14-03-2011 18:26:02 11.2 C 68 % 5.52 C
3331 14-03-2011 18:38:02 11 C 70 % 5.75 C
3332 14-03-2011 18:50:02 10.7 C 72 % 5.87 C
3333 14-03-2011 19:02:02 10.4 C 73 % 5.78 C
3334 14-03-2011 19:14:02 10.4 C 74 % 5.97 C
3335 14-03-2011 19:26:02 10.2 C 74 % 5.78 C
3336 14-03-2011 19:38:02 10 C 75 % 5.78 C
3337 14-03-2011 19:50:01 9.2 C 77 % 5.38 C
3338 14-03-2011 20:02:02 8.5 C 79 % 5.07 C
3339 14-03-2011 20:14:02 8.4 C 81 % 5.33 C
3340 14-03-2011 20:26:01 8.2 C 82 % 5.32 C
3341 14-03-2011 20:38:01 8.3 C 83 % 5.59 C
3342 14-03-2011 20:50:01 8.6 C 84 % 6.05 C
3343 14-03-2011 21:02:02 8.6 C 84 % 6.05 C
3344 14-03-2011 21:14:02 8.6 C 84 % 6.05 C
3345 14-03-2011 21:26:02 8 C 83 % 5.29 C
3346 14-03-2011 21:38:01 7.6 C 84 % 5.07 C
3347 14-03-2011 21:50:02 7.1 C 84 % 4.58 C
3348 14-03-2011 22:02:02 7 C 85 % 4.66 C
3349 14-03-2011 22:14:02 7.6 C 87 % 5.58 C
3350 14-03-2011 22:27:03 7.4 C 87 % 5.38 C
Sensor: Nr:Datum:Temp:Feuchte:Taupunkt:
Aussen-T/F 3351 14-03-2011 22:39:03 7.3 C 88 % 5.45 C
3352 14-03-2011 22:51:03 7 C 88 % 5.15 C
3353 14-03-2011 23:03:03 6.5 C 88 % 4.66 C
3354 14-03-2011 23:15:03 6 C 88 % 4.17 C
3355 14-03-2011 23:27:04 5.6 C 89 % 3.93 C
3356 14-03-2011 23:39:04 5.6 C 89 % 3.93 C
3357 14-03-2011 23:51:04 5.6 C 89 % 3.93 C
3358 15-03-2011 00:03:04 5.3 C 89 % 3.64 C
3359 15-03-2011 00:15:04 5.1 C 89 % 3.44 C
3360 15-03-2011 00:27:04 5.5 C 90 % 3.99 C
3361 15-03-2011 00:39:04 5 C 90 % 3.5 C
3362 15-03-2011 00:51:04 5.1 C 90 % 3.6 C
3363 15-03-2011 01:03:04 4.9 C 91 % 3.56 C
3364 15-03-2011 01:15:04 4.6 C 91 % 3.26 C
3365 15-03-2011 01:27:04 4.6 C 91 % 3.26 C
3366 15-03-2011 01:39:04 4.9 C 91 % 3.56 C
3367 15-03-2011 01:51:04 5.4 C 91 % 4.05 C
3368 15-03-2011 02:03:04 6.1 C 90 % 4.59 C
3369 15-03-2011 02:15:04 6 C 90 % 4.49 C
3370 15-03-2011 02:27:04 5.9 C 92 % 4.7 C
3371 15-03-2011 02:39:04 6 C 91 % 4.65 C
3372 15-03-2011 02:51:04 5.8 C 92 % 4.6 C
3373 15-03-2011 03:03:04 5.7 C 92 % 4.5 C
3374 15-03-2011 03:15:04 5.7 C 92 % 4.5 C
3375 15-03-2011 03:27:04 5.7 C 92 % 4.5 C
Sensor: Nr:Datum:Temp:Feuchte:Taupunkt:
Aussen-T/F 3376 15-03-2011 03:39:05 5.7 C 92 % 4.5 C
3377 15-03-2011 03:51:05 5.7 C 92 % 4.5 C
3378 15-03-2011 04:03:05 5.8 C 92 % 4.6 C
3379 15-03-2011 04:15:05 6 C 91 % 4.65 C
3380 15-03-2011 04:27:05 5.7 C 92 % 4.5 C
3381 15-03-2011 04:39:05 5.7 C 92 % 4.5 C
3382 15-03-2011 04:51:05 5.7 C 92 % 4.5 C
3383 15-03-2011 05:03:05 5.7 C 92 % 4.5 C
3384 15-03-2011 05:15:05 5.5 C 92 % 4.31 C
3385 15-03-2011 05:27:05 5.4 C 92 % 4.21 C
3386 15-03-2011 05:39:05 5.1 C 92 % 3.91 C
3387 15-03-2011 05:51:05 4.8 C 92 % 3.61 C
3388 15-03-2011 06:03:05 4.7 C 92 % 3.51 C
3389 15-03-2011 06:15:05 4.2 C 92 % 3.02 C
3390 15-03-2011 06:27:05 4.5 C 92 % 3.32 C
3391 15-03-2011 06:39:05 4.7 C 92 % 3.51 C
3392 15-03-2011 06:51:01 4.8 C 92 % 3.61 C
3393 15-03-2011 07:03:02 4.8 C 92 % 3.61 C
3394 15-03-2011 07:15:01 4.9 C 92 % 3.71 C
3395 15-03-2011 07:27:01 5 C 92 % 3.81 C
3396 15-03-2011 07:39:02 5.1 C 92 % 3.91 C
3397 15-03-2011 07:51:01 5.2 C 92 % 4.01 C
3398 15-03-2011 08:03:02 5.2 C 92 % 4.01 C
3399 15-03-2011 08:15:02 5.2 C 92 % 4.01 C
3400 15-03-2011 08:27:02 5.3 C 92 % 4.11 C
Sensor: Nr:Datum:Temp:Feuchte:Taupunkt:
Aussen-T/F 3401 15-03-2011 08:39:02 5.5 C 92 % 4.31 C
3402 15-03-2011 08:51:02 5.5 C 92 % 4.31 C
3403 15-03-2011 09:03:01 5.7 C 92 % 4.5 C
3404 15-03-2011 09:15:02 6.1 C 91 % 4.74 C
3405 15-03-2011 09:27:02 6.5 C 91 % 5.14 C
3406 15-03-2011 09:39:02 6.9 C 92 % 5.69 C
3407 15-03-2011 09:51:02 7.8 C 91 % 6.43 C
3408 15-03-2011 10:03:02 8.3 C 90 % 6.76 C
3409 15-03-2011 10:15:02 9 C 89 % 7.29 C
3410 15-03-2011 10:27:02 9.5 C 89 % 7.78 C
3411 15-03-2011 10:39:02 10.1 C 86 % 7.87 C
3412 15-03-2011 10:51:01 10.6 C 84 % 8.01 C
3413 15-03-2011 11:03:01 11.5 C 77 % 7.61 C
3414 15-03-2011 11:15:01 12 C 72 % 7.12 C
3415 15-03-2011 11:27:01 13.2 C 64 % 6.55 C
3416 15-03-2011 11:39:02 14 C 58 % 5.88 C
3417 15-03-2011 11:51:02 14.5 C 52 % 4.77 C
3418 15-03-2011 12:03:02 15.6 C 47 % 4.34 C
3419 15-03-2011 12:15:02 16.4 C 43 % 3.8 C
3420 15-03-2011 12:27:02 18.1 C 40 % 4.3 C
3421 15-03-2011 12:39:02 18.7 C 36 % 3.34 C
3422 15-03-2011 12:51:01 20.3 C 31 % 2.64 C
3423 15-03-2011 13:03:02 20 C 32 % 2.82 C
3424 15-03-2011 13:15:02 18.9 C 35 % 3.12 C
3425 15-03-2011 13:27:02 19.2 C 35 % 3.38 C
Sensor: Nr:Datum:Temp:Feuchte:Taupunkt:
Aussen-T/F 3426 15-03-2011 13:39:02 18.4 C 37 % 3.46 C
3427 15-03-2011 13:51:02 19.3 C 35 % 3.47 C
3428 15-03-2011 14:03:03 18.5 C 35 % 2.77 C
3429 15-03-2011 14:15:02 18.5 C 35 % 2.77 C
3430 15-03-2011 14:27:02 18.5 C 35 % 2.77 C
3431 15-03-2011 14:39:02 19 C 33 % 2.38 C
3432 15-03-2011 14:51:01 20 C 31 % 2.38 C
3433 15-03-2011 15:03:02 21 C 30 % 2.78 C
3434 15-03-2011 15:15:02 20.9 C 28 % 1.73 C
3435 15-03-2011 15:27:02 19.8 C 30 % 1.74 C
3436 15-03-2011 15:39:02 21.9 C 27 % 2.08 C
3437 15-03-2011 15:51:02 21.7 C 26 % 1.38 C
3438 15-03-2011 16:03:01 19.9 C 30 % 1.83 C
3439 15-03-2011 16:15:02 20.6 C 28 % 1.47 C
3440 15-03-2011 16:27:03 21.8 C 26 % 1.46 C
3441 15-03-2011 16:39:01 20.8 C 27 % 1.14 C
3442 15-03-2011 16:51:02 20.4 C 26 % 0.28 C
3443 15-03-2011 17:03:01 19.5 C 31 % 1.94 C
3444 15-03-2011 17:15:01 18.4 C 34 % 2.27 C
3445 15-03-2011 17:27:01 18 C 35 % 2.33 C
3446 15-03-2011 17:39:02 17.7 C 38 % 3.22 C
3447 15-03-2011 17:51:02 16.9 C 39 % 2.87 C
3448 15-03-2011 18:03:02 15.9 C 44 % 3.68 C
3449 15-03-2011 18:15:02 15 C 46 % 3.49 C
3450 15-03-2011 18:27:02 13.2 C 54 % 4.11 C
Sensor: Nr:Datum:Temp:Feuchte:Taupunkt:
Aussen-T/F 3451 15-03-2011 18:39:02 12.6 C 57 % 4.32 C
3452 15-03-2011 18:51:02 12.2 C 58 % 4.19 C
3453 15-03-2011 19:03:03 12 C 58 % 4 C
3454 15-03-2011 19:15:02 12 C 59 % 4.25 C
3455 15-03-2011 19:27:02 11.9 C 61 % 4.63 C
3456 15-03-2011 19:39:02 12.2 C 61 % 4.91 C
3457 15-03-2011 19:51:01 12.4 C 59 % 4.62 C
3458 15-03-2011 20:03:02 12.2 C 59 % 4.43 C
3459 15-03-2011 20:15:01 11.2 C 63 % 4.43 C
3460 15-03-2011 20:27:01 10.7 C 66 % 4.62 C
3461 15-03-2011 20:39:01 10.8 C 68 % 5.14 C
3462 15-03-2011 20:51:01 10.2 C 67 % 4.36 C
3463 15-03-2011 21:03:01 9.6 C 71 % 4.61 C
3464 15-03-2011 21:15:02 9.7 C 71 % 4.7 C
3465 15-03-2011 21:27:02 10.2 C 71 % 5.18 C
3466 15-03-2011 21:39:01 9.7 C 71 % 4.7 C
3467 15-03-2011 21:51:01 9.7 C 71 % 4.7 C
3468 15-03-2011 22:03:02 9.2 C 72 % 4.42 C
3469 15-03-2011 22:16:01 8.7 C 74 % 4.33 C
3470 15-03-2011 22:28:01 9 C 73 % 4.43 C
3471 15-03-2011 22:40:01 9.2 C 72 % 4.42 C
3472 15-03-2011 22:52:01 10.1 C 70 % 4.89 C
3473 15-03-2011 23:04:02 9.2 C 69 % 3.82 C
3474 15-03-2011 23:16:02 9.2 C 69 % 3.82 C
3475 15-03-2011 23:28:02 9.1 C 70 % 3.93 C
Sensor: Nr:Datum:Temp:Feuchte:Taupunkt:
Aussen-T/F 3476 15-03-2011 23:40:02 9.1 C 69 % 3.72 C
3477 15-03-2011 23:52:02 9.4 C 68 % 3.8 C
3478 16-03-2011 00:04:02 9.5 C 67 % 3.69 C
3479 16-03-2011 00:16:02 8.8 C 70 % 3.64 C
3480 16-03-2011 00:28:02 8.4 C 73 % 3.85 C
3481 16-03-2011 00:40:02 8.2 C 73 % 3.66 C
3482 16-03-2011 00:52:02 8.1 C 74 % 3.75 C
3483 16-03-2011 01:04:02 7.4 C 75 % 3.27 C
3484 16-03-2011 01:16:02 7 C 78 % 3.43 C
3485 16-03-2011 01:28:02 6.5 C 80 % 3.31 C
3486 16-03-2011 01:40:02 7 C 81 % 3.97 C
3487 16-03-2011 01:52:02 6.5 C 82 % 3.66 C
3488 16-03-2011 02:04:02 6.7 C 83 % 4.02 C
3489 16-03-2011 02:16:02 6.9 C 83 % 4.22 C
3490 16-03-2011 02:28:02 6.4 C 82 % 3.56 C
3491 16-03-2011 02:40:02 6.4 C 83 % 3.73 C
3492 16-03-2011 02:52:02 6.8 C 83 % 4.12 C
3493 16-03-2011 03:04:02 6.7 C 82 % 3.85 C
3494 16-03-2011 03:16:03 6.4 C 82 % 3.56 C
3495 16-03-2011 03:28:03 6.7 C 82 % 3.85 C
3496 16-03-2011 03:40:03 7.4 C 79 % 4 C
3497 16-03-2011 03:52:03 7.1 C 77 % 3.35 C
3498 16-03-2011 04:04:03 7.3 C 77 % 3.54 C
3499 16-03-2011 04:16:03 7 C 77 % 3.25 C
3500 16-03-2011 04:28:03 7.1 C 76 % 3.16 C
Sensor: Nr:Datum:Temp:Feuchte:Taupunkt:
Aussen-T/F 3501 16-03-2011 04:40:03 7.2 C 76 % 3.26 C
3502 16-03-2011 04:52:03 7.4 C 76 % 3.45 C
3503 16-03-2011 05:04:03 7.3 C 75 % 3.17 C
3504 16-03-2011 05:16:03 7.1 C 75 % 2.98 C
3505 16-03-2011 05:28:03 7 C 75 % 2.88 C
3506 16-03-2011 05:40:03 7 C 75 % 2.88 C
3507 16-03-2011 05:52:03 6.8 C 77 % 3.06 C
3508 16-03-2011 06:04:03 7 C 77 % 3.25 C
3509 16-03-2011 06:16:03 7.1 C 76 % 3.16 C
3510 16-03-2011 06:28:03 6.9 C 77 % 3.16 C
3511 16-03-2011 06:40:03 7.4 C 76 % 3.45 C
3512 16-03-2011 06:52:03 7.3 C 75 % 3.17 C
3513 16-03-2011 07:04:03 7.1 C 76 % 3.16 C
3514 16-03-2011 07:16:04 7.6 C 75 % 3.46 C
3515 16-03-2011 07:28:04 7.8 C 74 % 3.46 C
3516 16-03-2011 07:40:04 8.1 C 71 % 3.17 C
3517 16-03-2011 07:52:04 8.3 C 71 % 3.36 C
3518 16-03-2011 08:04:01 8.7 C 69 % 3.34 C
3519 16-03-2011 08:16:01 8.9 C 68 % 3.32 C
3520 16-03-2011 08:28:01 9.2 C 66 % 3.19 C
3521 16-03-2011 08:40:01 9.3 C 64 % 2.85 C
3522 16-03-2011 08:52:02 9.4 C 64 % 2.95 C
3523 16-03-2011 09:04:03 9.5 C 63 % 2.82 C
3524 16-03-2011 09:16:02 9.8 C 63 % 3.1 C
3525 16-03-2011 09:28:02 9.8 C 62 % 2.88 C
Sensor: Nr:Datum:Temp:Feuchte:Taupunkt:
Aussen-T/F 3526 16-03-2011 09:40:02 10.2 C 60 % 2.79 C
3527 16-03-2011 09:52:01 10.1 C 60 % 2.7 C
3528 16-03-2011 10:04:02 10 C 60 % 2.6 C
3529 16-03-2011 10:16:02 10.2 C 59 % 2.56 C
3530 16-03-2011 10:28:02 10.3 C 59 % 2.65 C
3531 16-03-2011 10:40:01 10.4 C 58 % 2.5 C
3532 16-03-2011 10:52:01 10.5 C 58 % 2.6 C
3533 16-03-2011 11:04:01 11.1 C 55 % 2.41 C
3534 16-03-2011 11:16:02 11.1 C 54 % 2.16 C
3535 16-03-2011 11:28:02 11.4 C 53 % 2.17 C
3536 16-03-2011 11:40:01 11.8 C 53 % 2.54 C
3537 16-03-2011 11:52:03 11.3 C 54 % 2.34 C
3538 16-03-2011 12:04:02 11 C 54 % 2.06 C
3539 16-03-2011 12:16:02 10.9 C 55 % 2.23 C
3540 16-03-2011 12:28:02 11 C 54 % 2.06 C
3541 16-03-2011 12:40:02 11.7 C 53 % 2.45 C
3542 16-03-2011 12:52:02 11.4 C 53 % 2.17 C
3543 16-03-2011 13:04:02 11.5 C 52 % 2 C
3544 16-03-2011 13:16:02 11.8 C 52 % 2.28 C
3545 16-03-2011 13:28:02 11.6 C 53 % 2.36 C
3546 16-03-2011 13:40:02 11.5 C 54 % 2.53 C
3547 16-03-2011 13:52:01 11.5 C 53 % 2.27 C
3548 16-03-2011 14:04:02 11.6 C 53 % 2.36 C
3549 16-03-2011 14:16:01 11.7 C 52 % 2.18 C
3550 16-03-2011 14:28:01 11.6 C 53 % 2.36 C
Sensor: Nr:Datum:Temp:Feuchte:Taupunkt:
Aussen-T/F 3551 16-03-2011 14:40:02 11.5 C 53 % 2.27 C
3552 16-03-2011 14:52:02 11.5 C 53 % 2.27 C
3553 16-03-2011 15:04:02 11.2 C 54 % 2.25 C
3554 16-03-2011 15:16:01 11 C 55 % 2.32 C
3555 16-03-2011 15:28:01 10.7 C 56 % 2.29 C
3556 16-03-2011 15:40:02 10.5 C 57 % 2.35 C
3557 16-03-2011 15:52:01 10.4 C 57 % 2.26 C
3558 16-03-2011 16:04:02 10.4 C 57 % 2.26 C
3559 16-03-2011 16:16:02 10.1 C 57 % 1.98 C
3560 16-03-2011 16:28:02 10.1 C 57 % 1.98 C
3561 16-03-2011 16:40:02 9.9 C 58 % 2.04 C
3562 16-03-2011 16:52:01 9.8 C 58 % 1.94 C
3563 16-03-2011 17:04:03 9.7 C 59 % 2.09 C
3564 16-03-2011 17:16:03 9.7 C 60 % 2.32 C
3565 16-03-2011 17:28:03 9.5 C 60 % 2.13 C
3566 16-03-2011 17:40:03 9.4 C 60 % 2.04 C
3567 16-03-2011 17:52:03 9.3 C 61 % 2.18 C
3568 16-03-2011 18:04:03 9.1 C 61 % 1.99 C
3569 16-03-2011 18:16:02 8.9 C 63 % 2.25 C
3570 16-03-2011 18:28:02 8.6 C 63 % 1.97 C
3571 16-03-2011 18:40:02 8.4 C 64 % 2 C
3572 16-03-2011 18:52:02 8.4 C 64 % 2 C
3573 16-03-2011 19:04:02 8.3 C 64 % 1.9 C
3574 16-03-2011 19:16:02 8.2 C 64 % 1.81 C
3575 16-03-2011 19:28:02 8.2 C 65 % 2.02 C
Sensor: Nr:Datum:Temp:Feuchte:Taupunkt:
Aussen-T/F 3576 16-03-2011 19:40:03 8 C 65 % 1.83 C
3577 16-03-2011 19:52:02 8.1 C 65 % 1.93 C
3578 16-03-2011 20:04:03 8.1 C 65 % 1.93 C
3579 16-03-2011 20:16:02 8 C 65 % 1.83 C
3580 16-03-2011 20:28:02 7.9 C 66 % 1.95 C
3581 16-03-2011 20:40:03 7.8 C 66 % 1.86 C
3582 16-03-2011 20:52:02 7.7 C 67 % 1.97 C
3583 16-03-2011 21:04:02 7.5 C 67 % 1.78 C
3584 16-03-2011 21:16:02 7.5 C 67 % 1.78 C
3585 16-03-2011 21:28:02 7.4 C 67 % 1.69 C
3586 16-03-2011 21:40:02 7.3 C 67 % 1.59 C
3587 16-03-2011 21:52:01 7.3 C 68 % 1.8 C
3588 16-03-2011 22:04:01 7.2 C 68 % 1.7 C
3589 16-03-2011 22:17:02 7.1 C 68 % 1.61 C
3590 16-03-2011 22:29:02 7.2 C 69 % 1.9 C
3591 16-03-2011 22:41:02 7.1 C 69 % 1.81 C
3592 16-03-2011 22:53:02 7 C 69 % 1.71 C
3593 16-03-2011 23:05:02 7 C 70 % 1.91 C
3594 16-03-2011 23:17:02 7 C 70 % 1.91 C
3595 16-03-2011 23:29:02 7 C 70 % 1.91 C
3596 16-03-2011 23:41:02 6.9 C 71 % 2.02 C
3597 16-03-2011 23:53:02 6.9 C 72 % 2.21 C
3598 17-03-2011 00:05:02 6.9 C 72 % 2.21 C
3599 17-03-2011 00:17:02 6.9 C 72 % 2.21 C
3600 17-03-2011 00:29:02 6.8 C 72 % 2.12 C
Sensor: Nr:Datum:Temp:Feuchte:Taupunkt:
Aussen-T/F 3601 17-03-2011 00:41:02 6.8 C 72 % 2.12 C
3602 17-03-2011 00:53:02 6.8 C 72 % 2.12 C
3603 17-03-2011 01:05:02 6.8 C 72 % 2.12 C
3604 17-03-2011 01:17:02 6.8 C 72 % 2.12 C
3605 17-03-2011 01:29:02 6.8 C 72 % 2.12 C
3606 17-03-2011 01:41:02 6.8 C 73 % 2.31 C
3607 17-03-2011 01:53:02 6.8 C 72 % 2.12 C
3608 17-03-2011 02:05:03 6.8 C 73 % 2.31 C
3609 17-03-2011 02:17:03 6.8 C 73 % 2.31 C
3610 17-03-2011 02:29:03 6.8 C 73 % 2.31 C
3611 17-03-2011 02:41:03 6.8 C 73 % 2.31 C
3612 17-03-2011 02:53:03 6.7 C 74 % 2.4 C
3613 17-03-2011 03:05:03 6.7 C 74 % 2.4 C
3614 17-03-2011 03:17:03 6.7 C 74 % 2.4 C
3615 17-03-2011 03:29:03 6.8 C 75 % 2.69 C
3616 17-03-2011 03:41:03 6.8 C 74 % 2.5 C
3617 17-03-2011 03:53:03 6.8 C 73 % 2.31 C
3618 17-03-2011 04:05:03 6.8 C 74 % 2.5 C
3619 17-03-2011 04:17:03 6.8 C 74 % 2.5 C
3620 17-03-2011 04:29:03 6.8 C 74 % 2.5 C
3621 17-03-2011 04:41:03 6.8 C 74 % 2.5 C
3622 17-03-2011 04:53:03 6.7 C 74 % 2.4 C
3623 17-03-2011 05:05:03 6.7 C 74 % 2.4 C
3624 17-03-2011 05:17:03 6.7 C 75 % 2.59 C
3625 17-03-2011 05:29:03 6.8 C 75 % 2.69 C
Sensor: Nr:Datum:Temp:Feuchte:Taupunkt:
Aussen-T/F 3626 17-03-2011 05:41:03 6.8 C 75 % 2.69 C
3627 17-03-2011 05:53:03 6.8 C 74 % 2.5 C
3628 17-03-2011 06:05:04 6.8 C 74 % 2.5 C
3629 17-03-2011 06:17:04 6.8 C 74 % 2.5 C
3630 17-03-2011 06:29:04 6.8 C 75 % 2.69 C
3631 17-03-2011 06:41:04 6.8 C 75 % 2.69 C
3632 17-03-2011 06:53:04 6.7 C 75 % 2.59 C
3633 17-03-2011 07:05:02 6.7 C 76 % 2.78 C
3634 17-03-2011 07:17:01 6.5 C 77 % 2.77 C
3635 17-03-2011 07:29:01 6.4 C 78 % 2.85 C
3636 17-03-2011 07:41:02 6.3 C 78 % 2.75 C
3637 17-03-2011 07:53:01 6.3 C 78 % 2.75 C
3638 17-03-2011 08:05:02 6.4 C 77 % 2.67 C
3639 17-03-2011 08:17:02 6.3 C 76 % 2.39 C
3640 17-03-2011 08:29:02 6.4 C 76 % 2.49 C
3641 17-03-2011 08:41:02 6.3 C 76 % 2.39 C
3642 17-03-2011 08:53:02 6.2 C 76 % 2.29 C
3643 17-03-2011 09:05:01 6 C 77 % 2.28 C
3644 17-03-2011 09:17:02 5.9 C 79 % 2.54 C
3645 17-03-2011 09:29:02 6 C 79 % 2.64 C
3646 17-03-2011 09:41:02 6 C 79 % 2.64 C
3647 17-03-2011 09:53:02 5.8 C 81 % 2.8 C
3648 17-03-2011 10:05:03 5.7 C 83 % 3.04 C
3649 17-03-2011 10:17:02 6.1 C 83 % 3.44 C
3650 17-03-2011 10:29:02 5.7 C 84 % 3.21 C
Sensor: Nr:Datum:Temp:Feuchte:Taupunkt:
Aussen-T/F 3651 17-03-2011 10:41:02 5.8 C 84 % 3.31 C
3652 17-03-2011 10:53:01 5.9 C 83 % 3.24 C
3653 17-03-2011 11:05:02 5.9 C 83 % 3.24 C
3654 17-03-2011 11:17:01 5.9 C 83 % 3.24 C
3655 17-03-2011 11:29:01 6 C 82 % 3.17 C
3656 17-03-2011 11:41:02 6 C 82 % 3.17 C
3657 17-03-2011 11:53:02 6.1 C 81 % 3.09 C
3658 17-03-2011 12:05:02 6.2 C 81 % 3.19 C
3659 17-03-2011 12:17:02 5.9 C 82 % 3.07 C
3660 17-03-2011 12:29:02 6.1 C 82 % 3.26 C
3661 17-03-2011 12:41:02 6.2 C 82 % 3.36 C
3662 17-03-2011 12:53:02 6.2 C 82 % 3.36 C
3663 17-03-2011 13:05:02 6.1 C 82 % 3.26 C
3664 17-03-2011 13:17:02 6.2 C 82 % 3.36 C
3665 17-03-2011 13:29:02 6.2 C 82 % 3.36 C
3666 17-03-2011 13:41:02 6 C 82 % 3.17 C
3667 17-03-2011 13:53:01 6 C 83 % 3.34 C
3668 17-03-2011 14:05:02 6 C 83 % 3.34 C
3669 17-03-2011 14:17:01 6 C 83 % 3.34 C
3670 17-03-2011 14:29:01 6 C 83 % 3.34 C
3671 17-03-2011 14:41:01 5.8 C 84 % 3.31 C
3672 17-03-2011 14:53:01 5.9 C 85 % 3.58 C
3673 17-03-2011 15:05:02 6.1 C 84 % 3.61 C
3674 17-03-2011 15:17:01 5.8 C 85 % 3.48 C
3675 17-03-2011 15:29:01 5.7 C 85 % 3.38 C
Sensor: Nr:Datum:Temp:Feuchte:Taupunkt:
Aussen-T/F 3676 17-03-2011 15:41:02 5.9 C 85 % 3.58 C
3677 17-03-2011 15:53:02 6.1 C 83 % 3.44 C
3678 17-03-2011 16:05:02 6 C 83 % 3.34 C
3679 17-03-2011 16:17:02 6.1 C 83 % 3.44 C
3680 17-03-2011 16:29:02 5.9 C 83 % 3.24 C
3681 17-03-2011 16:41:03 6 C 83 % 3.34 C
3682 17-03-2011 16:53:02 6 C 82 % 3.17 C
3683 17-03-2011 17:05:02 6 C 82 % 3.17 C
3684 17-03-2011 17:17:01 6 C 83 % 3.34 C
3685 17-03-2011 17:29:01 6 C 83 % 3.34 C
3686 17-03-2011 17:41:02 5.9 C 84 % 3.41 C
3687 17-03-2011 17:53:02 5.8 C 85 % 3.48 C
3688 17-03-2011 18:05:01 5.8 C 85 % 3.48 C
3689 17-03-2011 18:17:02 5.9 C 85 % 3.58 C
3690 17-03-2011 18:29:02 6 C 84 % 3.51 C
3691 17-03-2011 18:41:01 6.1 C 84 % 3.61 C
3692 17-03-2011 18:53:02 6.1 C 83 % 3.44 C
3693 17-03-2011 19:05:01 6.2 C 83 % 3.53 C
3694 17-03-2011 19:17:02 6.2 C 83 % 3.53 C
3695 17-03-2011 19:29:02 6.2 C 83 % 3.53 C
3696 17-03-2011 19:41:01 6.2 C 83 % 3.53 C
3697 17-03-2011 19:53:02 6.3 C 83 % 3.63 C
3698 17-03-2011 20:05:02 6.3 C 83 % 3.63 C
3699 17-03-2011 20:18:55 6.3 C 82 % 3.46 C
3700 17-03-2011 20:30:55 6.3 C 83 % 3.63 C
Sensor: Nr:Datum:Temp:Feuchte:Taupunkt:
Aussen-T/F 3701 17-03-2011 20:42:56 6.3 C 83 % 3.63 C
3702 17-03-2011 20:54:56 6.4 C 82 % 3.56 C
3703 17-03-2011 21:06:56 6.3 C 82 % 3.46 C
3704 17-03-2011 21:18:56 6.3 C 82 % 3.46 C
3705 17-03-2011 21:30:56 6.3 C 82 % 3.46 C
3706 17-03-2011 21:42:56 6.4 C 82 % 3.56 C
3707 17-03-2011 21:54:56 6.3 C 81 % 3.29 C
3708 17-03-2011 22:06:56 6.3 C 81 % 3.29 C
3709 17-03-2011 22:18:56 6.3 C 81 % 3.29 C
3710 17-03-2011 22:30:56 6.2 C 80 % 3.01 C
3711 17-03-2011 22:42:56 6.2 C 80 % 3.01 C
3712 17-03-2011 22:54:56 6.1 C 81 % 3.09 C
3713 17-03-2011 23:06:56 6 C 81 % 2.99 C
3714 17-03-2011 23:18:56 6 C 81 % 2.99 C
3715 17-03-2011 23:30:56 6 C 80 % 2.82 C
3716 17-03-2011 23:42:56 6 C 80 % 2.82 C
3717 17-03-2011 23:54:56 5.9 C 80 % 2.72 C
3718 18-03-2011 00:06:56 6 C 79 % 2.64 C
3719 18-03-2011 00:18:57 5.9 C 79 % 2.54 C
3720 18-03-2011 00:30:57 6.1 C 77 % 2.38 C
3721 18-03-2011 00:42:57 6 C 76 % 2.1 C
3722 18-03-2011 00:54:57 5.9 C 77 % 2.19 C
3723 18-03-2011 01:06:57 6 C 77 % 2.28 C
3724 18-03-2011 01:18:57 5.7 C 78 % 2.17 C
3725 18-03-2011 01:30:57 5.7 C 79 % 2.35 C
Sensor: Nr:Datum:Temp:Feuchte:Taupunkt:
Aussen-T/F 3726 18-03-2011 01:42:57 5.6 C 80 % 2.43 C
3727 18-03-2011 01:54:57 5.5 C 81 % 2.51 C
3728 18-03-2011 02:06:57 5.5 C 81 % 2.51 C
3729 18-03-2011 02:18:57 5.5 C 81 % 2.51 C
3730 18-03-2011 02:30:57 5.5 C 81 % 2.51 C
3731 18-03-2011 02:42:57 5.4 C 82 % 2.58 C
3732 18-03-2011 02:54:57 5.3 C 83 % 2.65 C
3733 18-03-2011 03:06:57 5.2 C 84 % 2.72 C
3734 18-03-2011 03:18:58 5.1 C 85 % 2.79 C
3735 18-03-2011 03:30:58 5.1 C 85 % 2.79 C
3736 18-03-2011 03:42:58 5.1 C 85 % 2.79 C
3737 18-03-2011 03:54:58 5.1 C 84 % 2.63 C
3738 18-03-2011 04:06:58 5.2 C 84 % 2.72 C
3739 18-03-2011 04:18:58 5.2 C 83 % 2.56 C
3740 18-03-2011 04:30:58 5.2 C 82 % 2.39 C
3741 18-03-2011 04:42:58 5.1 C 82 % 2.29 C
3742 18-03-2011 04:54:58 5.1 C 83 % 2.46 C
3743 18-03-2011 05:06:58 5.1 C 83 % 2.46 C
3744 18-03-2011 05:18:58 5.1 C 83 % 2.46 C
3745 18-03-2011 05:30:58 5 C 82 % 2.19 C
3746 18-03-2011 05:42:58 5 C 83 % 2.36 C
3747 18-03-2011 05:54:58 5 C 83 % 2.36 C
3748 18-03-2011 06:06:58 5 C 83 % 2.36 C
3749 18-03-2011 06:18:58 4.8 C 83 % 2.16 C
3750 18-03-2011 06:30:58 4.7 C 83 % 2.07 C
Sensor: Nr:Datum:Temp:Feuchte:Taupunkt:
Aussen-T/F 3751 18-03-2011 06:42:58 4.9 C 82 % 2.09 C
3752 18-03-2011 06:54:58 4.8 C 81 % 1.82 C
3753 18-03-2011 07:06:58 4.8 C 81 % 1.82 C
3754 18-03-2011 07:18:04 4.7 C 81 % 1.73 C
3755 18-03-2011 07:30:04 4.7 C 81 % 1.73 C
3756 18-03-2011 07:42:03 4.8 C 80 % 1.65 C
3757 18-03-2011 07:54:02 5.1 C 76 % 1.23 C
3758 18-03-2011 08:06:02 5.1 C 74 % 0.86 C
3759 18-03-2011 08:18:03 5.2 C 73 % 0.77 C
3760 18-03-2011 08:30:03 5.2 C 73 % 0.77 C
3761 18-03-2011 08:42:02 5.3 C 73 % 0.86 C
3762 18-03-2011 08:54:03 5.2 C 73 % 0.77 C
3763 18-03-2011 09:06:02 5.3 C 74 % 1.05 C
3764 18-03-2011 09:18:02 5.5 C 72 % 0.86 C
3765 18-03-2011 09:30:02 5.7 C 66 % -0.14 C
3766 18-03-2011 09:42:02 6 C 62 % -0.71 C
3767 18-03-2011 09:54:02 6.1 C 62 % -0.62 C
3768 18-03-2011 10:06:02 6 C 61 % -0.94 C
3769 18-03-2011 10:18:02 6.1 C 62 % -0.62 C
3770 18-03-2011 10:30:02 6.6 C 61 % -0.37 C
3771 18-03-2011 10:42:02 6.5 C 60 % -0.69 C
3772 18-03-2011 10:54:01 6.3 C 62 % -0.43 C
3773 18-03-2011 11:06:01 6.4 C 63 % -0.12 C
3774 18-03-2011 11:18:01 6.5 C 63 % -0.02 C
3775 18-03-2011 11:30:01 6.5 C 63 % -0.02 C
Sensor: Nr:Datum:Temp:Feuchte:Taupunkt:
Aussen-T/F 3776 18-03-2011 11:42:01 7.1 C 62 % 0.33 C
3777 18-03-2011 11:54:01 7.4 C 60 % 0.16 C
3778 18-03-2011 12:06:02 7.3 C 58 % -0.4 C
3779 18-03-2011 12:18:01 7.6 C 59 % 0.11 C
3780 18-03-2011 12:30:01 7.5 C 58 % -0.21 C
3781 18-03-2011 12:42:02 7.5 C 59 % 0.02 C
3782 18-03-2011 12:54:02 7.6 C 58 % -0.12 C
3783 18-03-2011 13:06:03 8.5 C 56 % 0.24 C
3784 18-03-2011 13:18:02 8.4 C 53 % -0.61 C
3785 18-03-2011 13:30:02 8.8 C 52 % -0.5 C
3786 18-03-2011 13:42:02 9.2 C 51 % -0.4 C
3787 18-03-2011 13:54:02 8.9 C 52 % -0.41 C
3788 18-03-2011 14:06:02 8.6 C 52 % -0.68 C
3789 18-03-2011 14:18:01 8.6 C 53 % -0.42 C
3790 18-03-2011 14:30:01 8.7 C 52 % -0.59 C
3791 18-03-2011 14:42:02 9.1 C 51 % -0.49 C
3792 18-03-2011 14:54:04 8.9 C 52 % -0.41 C
3793 18-03-2011 15:06:02 8.9 C 51 % -0.67 C
3794 18-03-2011 15:18:02 8.5 C 52 % -0.78 C
3795 18-03-2011 15:30:02 8.7 C 52 % -0.59 C
3796 18-03-2011 15:42:01 9.1 C 51 % -0.49 C
3797 18-03-2011 15:54:02 9.3 C 50 % -0.57 C
3798 18-03-2011 16:06:02 9.2 C 50 % -0.67 C
3799 18-03-2011 16:18:02 8.9 C 52 % -0.41 C
3800 18-03-2011 16:30:02 8.7 C 52 % -0.59 C
Sensor: Nr:Datum:Temp:Feuchte:Taupunkt:
Aussen-T/F 3801 18-03-2011 16:42:01 8.5 C 52 % -0.78 C
3802 18-03-2011 16:54:02 8.4 C 53 % -0.61 C
3803 18-03-2011 17:06:01 8.2 C 55 % -0.29 C
3804 18-03-2011 17:18:02 8 C 57 % 0.01 C
3805 18-03-2011 17:30:02 7.9 C 60 % 0.63 C
3806 18-03-2011 17:42:01 7.9 C 61 % 0.86 C
3807 18-03-2011 17:54:01 7.7 C 60 % 0.44 C
3808 18-03-2011 18:06:01 7.6 C 62 % 0.8 C
3809 18-03-2011 18:18:02 7.4 C 63 % 0.83 C
3810 18-03-2011 18:30:02 7.3 C 64 % 0.95 C
3811 18-03-2011 18:42:01 7.2 C 66 % 1.29 C
3812 18-03-2011 18:54:02 7.2 C 67 % 1.49 C
3813 18-03-2011 19:06:01 7.1 C 67 % 1.4 C
3814 18-03-2011 19:18:02 7 C 67 % 1.3 C
3815 18-03-2011 19:30:02 6.8 C 68 % 1.32 C
3816 18-03-2011 19:42:01 6.8 C 68 % 1.32 C
3817 18-03-2011 19:54:02 6.6 C 70 % 1.53 C
3818 18-03-2011 20:06:02 6.6 C 71 % 1.73 C
3819 18-03-2011 20:18:02 6.4 C 71 % 1.54 C
3820 18-03-2011 20:30:02 6.4 C 71 % 1.54 C
3821 18-03-2011 20:42:02 6.3 C 71 % 1.44 C
3822 18-03-2011 20:54:02 6.3 C 72 % 1.63 C
3823 18-03-2011 21:06:02 6.4 C 71 % 1.54 C
3824 18-03-2011 21:18:02 6.4 C 71 % 1.54 C
3825 18-03-2011 21:30:02 6.2 C 71 % 1.34 C
Sensor: Nr:Datum:Temp:Feuchte:Taupunkt:
Aussen-T/F 3826 18-03-2011 21:42:01 6 C 74 % 1.73 C
3827 18-03-2011 21:54:02 6 C 76 % 2.1 C
3828 18-03-2011 22:06:01 5.7 C 79 % 2.35 C
3829 18-03-2011 22:19:02 5.6 C 81 % 2.6 C
3830 18-03-2011 22:31:02 5.4 C 83 % 2.75 C
3831 18-03-2011 22:43:03 5.3 C 84 % 2.82 C
3832 18-03-2011 22:55:03 5.2 C 85 % 2.89 C
3833 18-03-2011 23:07:03 5.2 C 86 % 3.05 C
3834 18-03-2011 23:19:03 5.1 C 87 % 3.12 C
3835 18-03-2011 23:31:03 5.1 C 88 % 3.28 C
3836 18-03-2011 23:43:03 5 C 88 % 3.18 C
3837 18-03-2011 23:55:03 5 C 88 % 3.18 C
3838 19-03-2011 00:07:03 4.9 C 89 % 3.24 C
3839 19-03-2011 00:19:03 4.8 C 89 % 3.14 C
3840 19-03-2011 00:31:03 4.7 C 90 % 3.2 C
3841 19-03-2011 00:43:03 4.6 C 90 % 3.1 C
3842 19-03-2011 00:55:03 4.6 C 90 % 3.1 C
3843 19-03-2011 01:07:03 4.6 C 90 % 3.1 C
3844 19-03-2011 01:19:03 4.6 C 90 % 3.1 C
3845 19-03-2011 01:31:03 4.5 C 90 % 3.01 C
3846 19-03-2011 01:43:03 4.5 C 91 % 3.16 C
3847 19-03-2011 01:55:03 4.4 C 91 % 3.06 C
3848 19-03-2011 02:07:03 4.4 C 91 % 3.06 C
3849 19-03-2011 02:19:03 4.3 C 91 % 2.96 C
3850 19-03-2011 02:31:03 4.4 C 91 % 3.06 C
Sensor: Nr:Datum:Temp:Feuchte:Taupunkt:
Aussen-T/F 3851 19-03-2011 02:43:03 4.4 C 91 % 3.06 C
3852 19-03-2011 02:55:04 4.4 C 91 % 3.06 C
3853 19-03-2011 03:07:04 4.4 C 91 % 3.06 C
3854 19-03-2011 03:19:04 4.4 C 91 % 3.06 C
3855 19-03-2011 03:31:04 4.5 C 91 % 3.16 C
3856 19-03-2011 03:43:04 4.5 C 91 % 3.16 C
3857 19-03-2011 03:55:04 4.6 C 91 % 3.26 C
3858 19-03-2011 04:07:04 4.7 C 91 % 3.36 C
3859 19-03-2011 04:19:04 4.7 C 92 % 3.51 C
3860 19-03-2011 04:31:04 4.7 C 92 % 3.51 C
3861 19-03-2011 04:43:04 4.7 C 92 % 3.51 C
3862 19-03-2011 04:55:04 4.6 C 92 % 3.42 C
3863 19-03-2011 05:07:04 4.6 C 92 % 3.42 C
3864 19-03-2011 05:19:04 4.7 C 92 % 3.51 C
3865 19-03-2011 05:31:04 4.7 C 92 % 3.51 C
3866 19-03-2011 05:43:04 4.7 C 92 % 3.51 C
3867 19-03-2011 05:55:04 4.7 C 92 % 3.51 C
3868 19-03-2011 06:07:04 4.7 C 92 % 3.51 C
3869 19-03-2011 06:19:04 4.6 C 92 % 3.42 C
3870 19-03-2011 06:31:04 4.5 C 92 % 3.32 C
3871 19-03-2011 06:43:04 4.5 C 92 % 3.32 C
3872 19-03-2011 06:55:05 4.4 C 92 % 3.22 C
3873 19-03-2011 07:07:05 4.4 C 92 % 3.22 C
3874 19-03-2011 07:19:05 4.4 C 92 % 3.22 C
3875 19-03-2011 07:31:05 4.4 C 92 % 3.22 C
Sensor: Nr:Datum:Temp:Feuchte:Taupunkt:
Aussen-T/F 3876 19-03-2011 07:43:05 4.3 C 92 % 3.12 C
3877 19-03-2011 07:55:05 4.4 C 92 % 3.22 C
3878 19-03-2011 08:07:03 4.5 C 92 % 3.32 C
3879 19-03-2011 08:19:02 4.6 C 92 % 3.42 C
3880 19-03-2011 08:31:02 4.8 C 91 % 3.46 C
3881 19-03-2011 08:43:03 4.8 C 90 % 3.3 C
3882 19-03-2011 08:55:01 5 C 88 % 3.18 C
3883 19-03-2011 09:07:02 5.2 C 86 % 3.05 C
3884 19-03-2011 09:19:01 5.3 C 84 % 2.82 C
3885 19-03-2011 09:31:02 6 C 81 % 2.99 C
3886 19-03-2011 09:43:02 6.6 C 75 % 2.49 C
3887 19-03-2011 09:55:02 5.8 C 75 % 1.72 C
3888 19-03-2011 10:07:02 6.5 C 73 % 2.02 C
3889 19-03-2011 10:19:02 7 C 70 % 1.91 C